<?xml version="1.0" encoding="UTF-8"?>
<gpx version="1.1" creator="https://www.youtrack.es" xsi:schemaLocation="http://www.topografix.com/GPX/1/1 http://www.topografix.com/GPX/1/1/gpx.xsd http://www.garmin.com/xmlschemas/GpxExtensions/v3 http://www.garmin.com/xmlschemas/GpxExtensionsv3.xsd http://www.garmin.com/xmlschemas/TrackPointExtension/v1 http://www.garmin.com/xmlschemas/TrackPointExtensionv1.xsd" xmlns:gpxtpx="http://www.garmin.com/xmlschemas/TrackPointExtension/v1" xmlns:gpxx="http://www.garmin.com/xmlschemas/GpxExtensions/v3" xmlns:xsi="http://www.w3.org/2001/XMLSchema-instance">
  <metadata>
    <link href="https://www.youtrack.es">
      <text>YouTrack.es</text>
    </link>
    <time>2026-05-08T16:10:11Z</time>
  </metadata>
  <trk>
    <src>https://www.youtrack.es</src>
    <link href="https://www.youtrack.es/ruta/8002-190830-01">
      <text>YouTrack.es</text>
    </link>
    <trkseg>
      <trkpt lat="43.32385" lon="-5.788439">
        <ele>182.092</ele>
        <time>2015-01-25T13:25:00Z</time>
      </trkpt>
      <trkpt lat="43.323761" lon="-5.788319">
        <ele>181.012</ele>
        <time>2015-01-25T13:25:06Z</time>
      </trkpt>
      <trkpt lat="43.323661" lon="-5.788241">
        <ele>176.032</ele>
        <time>2015-01-25T13:25:12Z</time>
      </trkpt>
      <trkpt lat="43.323553" lon="-5.788224">
        <ele>178.005</ele>
        <time>2015-01-25T13:25:18Z</time>
      </trkpt>
      <trkpt lat="43.323468" lon="-5.788179">
        <ele>174.007</ele>
        <time>2015-01-25T13:25:24Z</time>
      </trkpt>
      <trkpt lat="43.323351" lon="-5.788211">
        <ele>174.079</ele>
        <time>2015-01-25T13:25:30Z</time>
      </trkpt>
      <trkpt lat="43.323208" lon="-5.788213">
        <ele>174.068</ele>
        <time>2015-01-25T13:25:36Z</time>
      </trkpt>
      <trkpt lat="43.323082" lon="-5.788191">
        <ele>172.064</ele>
        <time>2015-01-25T13:25:42Z</time>
      </trkpt>
      <trkpt lat="43.322956" lon="-5.788139">
        <ele>174.057</ele>
        <time>2015-01-25T13:25:48Z</time>
      </trkpt>
      <trkpt lat="43.32281" lon="-5.788093">
        <ele>175.065</ele>
        <time>2015-01-25T13:25:54Z</time>
      </trkpt>
      <trkpt lat="43.322676" lon="-5.788036">
        <ele>179.044</ele>
        <time>2015-01-25T13:26:00Z</time>
      </trkpt>
      <trkpt lat="43.322587" lon="-5.78796">
        <ele>179.031</ele>
        <time>2015-01-25T13:26:06Z</time>
      </trkpt>
      <trkpt lat="43.32247" lon="-5.787857">
        <ele>176.041</ele>
        <time>2015-01-25T13:26:15Z</time>
      </trkpt>
      <trkpt lat="43.322385" lon="-5.787792">
        <ele>175.081</ele>
        <time>2015-01-25T13:26:21Z</time>
      </trkpt>
      <trkpt lat="43.322326" lon="-5.787664">
        <ele>179.009</ele>
        <time>2015-01-25T13:26:27Z</time>
      </trkpt>
      <trkpt lat="43.322279" lon="-5.787554">
        <ele>182.007</ele>
        <time>2015-01-25T13:26:33Z</time>
      </trkpt>
      <trkpt lat="43.322172" lon="-5.787457">
        <ele>180.042</ele>
        <time>2015-01-25T13:26:42Z</time>
      </trkpt>
      <trkpt lat="43.322071" lon="-5.787484">
        <ele>187.031</ele>
        <time>2015-01-25T13:26:48Z</time>
      </trkpt>
      <trkpt lat="43.321972" lon="-5.787439">
        <ele>179.027</ele>
        <time>2015-01-25T13:26:54Z</time>
      </trkpt>
      <trkpt lat="43.321826" lon="-5.787432">
        <ele>183.06</ele>
        <time>2015-01-25T13:27:03Z</time>
      </trkpt>
      <trkpt lat="43.321713" lon="-5.787398">
        <ele>179.058</ele>
        <time>2015-01-25T13:27:09Z</time>
      </trkpt>
      <trkpt lat="43.321605" lon="-5.787322">
        <ele>173.077</ele>
        <time>2015-01-25T13:27:18Z</time>
      </trkpt>
      <trkpt lat="43.321519" lon="-5.78726">
        <ele>175.014</ele>
        <time>2015-01-25T13:27:24Z</time>
      </trkpt>
      <trkpt lat="43.321419" lon="-5.787199">
        <ele>173.059</ele>
        <time>2015-01-25T13:27:30Z</time>
      </trkpt>
      <trkpt lat="43.321316" lon="-5.787127">
        <ele>172.003</ele>
        <time>2015-01-25T13:27:36Z</time>
      </trkpt>
      <trkpt lat="43.321216" lon="-5.787039">
        <ele>173.023</ele>
        <time>2015-01-25T13:27:42Z</time>
      </trkpt>
      <trkpt lat="43.321115" lon="-5.78696">
        <ele>173.007</ele>
        <time>2015-01-25T13:27:48Z</time>
      </trkpt>
      <trkpt lat="43.321029" lon="-5.786869">
        <ele>170.023</ele>
        <time>2015-01-25T13:27:54Z</time>
      </trkpt>
      <trkpt lat="43.320937" lon="-5.786786">
        <ele>173.052</ele>
        <time>2015-01-25T13:28:00Z</time>
      </trkpt>
      <trkpt lat="43.320838" lon="-5.786702">
        <ele>173.038</ele>
        <time>2015-01-25T13:28:06Z</time>
      </trkpt>
      <trkpt lat="43.320735" lon="-5.786638">
        <ele>182.011</ele>
        <time>2015-01-25T13:28:12Z</time>
      </trkpt>
      <trkpt lat="43.320636" lon="-5.786537">
        <ele>185.029</ele>
        <time>2015-01-25T13:28:18Z</time>
      </trkpt>
      <trkpt lat="43.320533" lon="-5.786454">
        <ele>190.068</ele>
        <time>2015-01-25T13:28:24Z</time>
      </trkpt>
      <trkpt lat="43.320441" lon="-5.786409">
        <ele>190.025</ele>
        <time>2015-01-25T13:28:30Z</time>
      </trkpt>
      <trkpt lat="43.320355" lon="-5.786356">
        <ele>193.095</ele>
        <time>2015-01-25T13:28:36Z</time>
      </trkpt>
      <trkpt lat="43.320264" lon="-5.786285">
        <ele>188.049</ele>
        <time>2015-01-25T13:28:42Z</time>
      </trkpt>
      <trkpt lat="43.320178" lon="-5.78622">
        <ele>188.023</ele>
        <time>2015-01-25T13:28:48Z</time>
      </trkpt>
      <trkpt lat="43.320073" lon="-5.786163">
        <ele>190.007</ele>
        <time>2015-01-25T13:28:54Z</time>
      </trkpt>
      <trkpt lat="43.319979" lon="-5.786115">
        <ele>180.017</ele>
        <time>2015-01-25T13:29:00Z</time>
      </trkpt>
      <trkpt lat="43.319875" lon="-5.786024">
        <ele>187.026</ele>
        <time>2015-01-25T13:29:06Z</time>
      </trkpt>
      <trkpt lat="43.319782" lon="-5.785912">
        <ele>191.052</ele>
        <time>2015-01-25T13:29:12Z</time>
      </trkpt>
      <trkpt lat="43.319706" lon="-5.785815">
        <ele>194.045</ele>
        <time>2015-01-25T13:29:18Z</time>
      </trkpt>
      <trkpt lat="43.319602" lon="-5.785777">
        <ele>195.033</ele>
        <time>2015-01-25T13:29:24Z</time>
      </trkpt>
      <trkpt lat="43.319477" lon="-5.785766">
        <ele>197.052</ele>
        <time>2015-01-25T13:29:30Z</time>
      </trkpt>
      <trkpt lat="43.319374" lon="-5.785697">
        <ele>199.059</ele>
        <time>2015-01-25T13:29:36Z</time>
      </trkpt>
      <trkpt lat="43.319283" lon="-5.785616">
        <ele>201.044</ele>
        <time>2015-01-25T13:29:42Z</time>
      </trkpt>
      <trkpt lat="43.319186" lon="-5.785556">
        <ele>201.005</ele>
        <time>2015-01-25T13:29:48Z</time>
      </trkpt>
      <trkpt lat="43.319065" lon="-5.785505">
        <ele>203.015</ele>
        <time>2015-01-25T13:29:54Z</time>
      </trkpt>
      <trkpt lat="43.318952" lon="-5.785448">
        <ele>202.007</ele>
        <time>2015-01-25T13:30:00Z</time>
      </trkpt>
      <trkpt lat="43.318847" lon="-5.785429">
        <ele>200.052</ele>
        <time>2015-01-25T13:30:06Z</time>
      </trkpt>
      <trkpt lat="43.318749" lon="-5.785435">
        <ele>202.051</ele>
        <time>2015-01-25T13:30:12Z</time>
      </trkpt>
      <trkpt lat="43.31863" lon="-5.785474">
        <ele>205.037</ele>
        <time>2015-01-25T13:30:21Z</time>
      </trkpt>
      <trkpt lat="43.318541" lon="-5.785501">
        <ele>205.09</ele>
        <time>2015-01-25T13:30:27Z</time>
      </trkpt>
      <trkpt lat="43.318444" lon="-5.785488">
        <ele>207.028</ele>
        <time>2015-01-25T13:30:33Z</time>
      </trkpt>
      <trkpt lat="43.318352" lon="-5.785493">
        <ele>207.037</ele>
        <time>2015-01-25T13:30:39Z</time>
      </trkpt>
      <trkpt lat="43.318258" lon="-5.785497">
        <ele>210.074</ele>
        <time>2015-01-25T13:30:45Z</time>
      </trkpt>
      <trkpt lat="43.318144" lon="-5.785463">
        <ele>213.094</ele>
        <time>2015-01-25T13:30:54Z</time>
      </trkpt>
      <trkpt lat="43.318049" lon="-5.785416">
        <ele>215.057</ele>
        <time>2015-01-25T13:31:03Z</time>
      </trkpt>
      <trkpt lat="43.317913" lon="-5.785411">
        <ele>217.022</ele>
        <time>2015-01-25T13:31:12Z</time>
      </trkpt>
      <trkpt lat="43.317797" lon="-5.785369">
        <ele>218.007</ele>
        <time>2015-01-25T13:31:18Z</time>
      </trkpt>
      <trkpt lat="43.317658" lon="-5.785276">
        <ele>210.067</ele>
        <time>2015-01-25T13:31:24Z</time>
      </trkpt>
      <trkpt lat="43.317572" lon="-5.785126">
        <ele>218.056</ele>
        <time>2015-01-25T13:31:33Z</time>
      </trkpt>
      <trkpt lat="43.317531" lon="-5.784982">
        <ele>220.032</ele>
        <time>2015-01-25T13:31:39Z</time>
      </trkpt>
      <trkpt lat="43.317483" lon="-5.784826">
        <ele>220.015</ele>
        <time>2015-01-25T13:31:48Z</time>
      </trkpt>
      <trkpt lat="43.317436" lon="-5.784714">
        <ele>222.013</ele>
        <time>2015-01-25T13:31:54Z</time>
      </trkpt>
      <trkpt lat="43.317365" lon="-5.784574">
        <ele>219.072</ele>
        <time>2015-01-25T13:32:03Z</time>
      </trkpt>
      <trkpt lat="43.317322" lon="-5.784429">
        <ele>222.039</ele>
        <time>2015-01-25T13:32:12Z</time>
      </trkpt>
      <trkpt lat="43.317255" lon="-5.784313">
        <ele>220.029</ele>
        <time>2015-01-25T13:32:21Z</time>
      </trkpt>
      <trkpt lat="43.317193" lon="-5.784187">
        <ele>218</ele>
        <time>2015-01-25T13:32:30Z</time>
      </trkpt>
      <trkpt lat="43.317127" lon="-5.784065">
        <ele>219.02</ele>
        <time>2015-01-25T13:32:39Z</time>
      </trkpt>
      <trkpt lat="43.317042" lon="-5.783932">
        <ele>219.007</ele>
        <time>2015-01-25T13:32:48Z</time>
      </trkpt>
      <trkpt lat="43.316965" lon="-5.783787">
        <ele>223.02</ele>
        <time>2015-01-25T13:32:57Z</time>
      </trkpt>
      <trkpt lat="43.316937" lon="-5.783613">
        <ele>223.029</ele>
        <time>2015-01-25T13:33:06Z</time>
      </trkpt>
      <trkpt lat="43.316889" lon="-5.783454">
        <ele>221.085</ele>
        <time>2015-01-25T13:33:15Z</time>
      </trkpt>
      <trkpt lat="43.31683" lon="-5.783278">
        <ele>221.088</ele>
        <time>2015-01-25T13:33:24Z</time>
      </trkpt>
      <trkpt lat="43.316794" lon="-5.783091">
        <ele>225.036</ele>
        <time>2015-01-25T13:33:33Z</time>
      </trkpt>
      <trkpt lat="43.316724" lon="-5.782977">
        <ele>224.045</ele>
        <time>2015-01-25T13:33:39Z</time>
      </trkpt>
      <trkpt lat="43.316665" lon="-5.782835">
        <ele>228.072</ele>
        <time>2015-01-25T13:33:48Z</time>
      </trkpt>
      <trkpt lat="43.316612" lon="-5.782674">
        <ele>228.041</ele>
        <time>2015-01-25T13:33:57Z</time>
      </trkpt>
      <trkpt lat="43.316534" lon="-5.782562">
        <ele>229.081</ele>
        <time>2015-01-25T13:34:06Z</time>
      </trkpt>
      <trkpt lat="43.316475" lon="-5.782464">
        <ele>233.009</ele>
        <time>2015-01-25T13:34:15Z</time>
      </trkpt>
      <trkpt lat="43.316394" lon="-5.782332">
        <ele>227.007</ele>
        <time>2015-01-25T13:34:24Z</time>
      </trkpt>
      <trkpt lat="43.316344" lon="-5.782228">
        <ele>228.082</ele>
        <time>2015-01-25T13:34:30Z</time>
      </trkpt>
      <trkpt lat="43.316278" lon="-5.782109">
        <ele>228.021</ele>
        <time>2015-01-25T13:34:39Z</time>
      </trkpt>
      <trkpt lat="43.316217" lon="-5.78198">
        <ele>232.037</ele>
        <time>2015-01-25T13:34:51Z</time>
      </trkpt>
      <trkpt lat="43.31614" lon="-5.78187">
        <ele>231.06</ele>
        <time>2015-01-25T13:35:00Z</time>
      </trkpt>
      <trkpt lat="43.316087" lon="-5.781766">
        <ele>233.048</ele>
        <time>2015-01-25T13:35:06Z</time>
      </trkpt>
      <trkpt lat="43.316025" lon="-5.781652">
        <ele>227.087</ele>
        <time>2015-01-25T13:35:15Z</time>
      </trkpt>
      <trkpt lat="43.315969" lon="-5.781552">
        <ele>230.094</ele>
        <time>2015-01-25T13:35:21Z</time>
      </trkpt>
      <trkpt lat="43.315897" lon="-5.78143">
        <ele>237.033</ele>
        <time>2015-01-25T13:35:27Z</time>
      </trkpt>
      <trkpt lat="43.315839" lon="-5.781291">
        <ele>237.023</ele>
        <time>2015-01-25T13:35:36Z</time>
      </trkpt>
      <trkpt lat="43.31578" lon="-5.781161">
        <ele>242.015</ele>
        <time>2015-01-25T13:35:45Z</time>
      </trkpt>
      <trkpt lat="43.315722" lon="-5.781026">
        <ele>247.007</ele>
        <time>2015-01-25T13:35:54Z</time>
      </trkpt>
      <trkpt lat="43.315658" lon="-5.780906">
        <ele>251.041</ele>
        <time>2015-01-25T13:36:03Z</time>
      </trkpt>
      <trkpt lat="43.31556" lon="-5.780816">
        <ele>250.04</ele>
        <time>2015-01-25T13:36:12Z</time>
      </trkpt>
      <trkpt lat="43.315461" lon="-5.780715">
        <ele>253.016</ele>
        <time>2015-01-25T13:36:21Z</time>
      </trkpt>
      <trkpt lat="43.315369" lon="-5.780664">
        <ele>256.049</ele>
        <time>2015-01-25T13:36:30Z</time>
      </trkpt>
      <trkpt lat="43.315273" lon="-5.780539">
        <ele>260.037</ele>
        <time>2015-01-25T13:36:39Z</time>
      </trkpt>
      <trkpt lat="43.315216" lon="-5.78043">
        <ele>261.076</ele>
        <time>2015-01-25T13:36:45Z</time>
      </trkpt>
      <trkpt lat="43.315127" lon="-5.780342">
        <ele>262.063</ele>
        <time>2015-01-25T13:36:54Z</time>
      </trkpt>
      <trkpt lat="43.315014" lon="-5.780255">
        <ele>262.083</ele>
        <time>2015-01-25T13:37:06Z</time>
      </trkpt>
      <trkpt lat="43.314907" lon="-5.780175">
        <ele>258.025</ele>
        <time>2015-01-25T13:37:15Z</time>
      </trkpt>
      <trkpt lat="43.314813" lon="-5.780112">
        <ele>255.017</ele>
        <time>2015-01-25T13:37:24Z</time>
      </trkpt>
      <trkpt lat="43.314705" lon="-5.78011">
        <ele>252.007</ele>
        <time>2015-01-25T13:37:33Z</time>
      </trkpt>
      <trkpt lat="43.314623" lon="-5.780115">
        <ele>252.056</ele>
        <time>2015-01-25T13:37:45Z</time>
      </trkpt>
      <trkpt lat="43.314514" lon="-5.780183">
        <ele>254.045</ele>
        <time>2015-01-25T13:37:54Z</time>
      </trkpt>
      <trkpt lat="43.314422" lon="-5.780215">
        <ele>260.021</ele>
        <time>2015-01-25T13:38:03Z</time>
      </trkpt>
      <trkpt lat="43.314312" lon="-5.780229">
        <ele>262.024</ele>
        <time>2015-01-25T13:38:12Z</time>
      </trkpt>
      <trkpt lat="43.314219" lon="-5.780192">
        <ele>263.012</ele>
        <time>2015-01-25T13:38:21Z</time>
      </trkpt>
      <trkpt lat="43.314132" lon="-5.780154">
        <ele>265.051</ele>
        <time>2015-01-25T13:38:27Z</time>
      </trkpt>
      <trkpt lat="43.31403" lon="-5.780073">
        <ele>272.068</ele>
        <time>2015-01-25T13:38:36Z</time>
      </trkpt>
      <trkpt lat="43.313936" lon="-5.780017">
        <ele>272.076</ele>
        <time>2015-01-25T13:38:45Z</time>
      </trkpt>
      <trkpt lat="43.313824" lon="-5.780021">
        <ele>269.09</ele>
        <time>2015-01-25T13:38:54Z</time>
      </trkpt>
      <trkpt lat="43.313705" lon="-5.780004">
        <ele>273.019</ele>
        <time>2015-01-25T13:39:06Z</time>
      </trkpt>
      <trkpt lat="43.31359" lon="-5.779946">
        <ele>281.007</ele>
        <time>2015-01-25T13:39:18Z</time>
      </trkpt>
      <trkpt lat="43.313488" lon="-5.779899">
        <ele>286.035</ele>
        <time>2015-01-25T13:39:27Z</time>
      </trkpt>
      <trkpt lat="43.31337" lon="-5.779862">
        <ele>289.044</ele>
        <time>2015-01-25T13:39:36Z</time>
      </trkpt>
      <trkpt lat="43.313263" lon="-5.779836">
        <ele>282.09</ele>
        <time>2015-01-25T13:39:45Z</time>
      </trkpt>
      <trkpt lat="43.313147" lon="-5.77979">
        <ele>279.053</ele>
        <time>2015-01-25T13:39:54Z</time>
      </trkpt>
      <trkpt lat="43.313042" lon="-5.779759">
        <ele>279.041</ele>
        <time>2015-01-25T13:40:03Z</time>
      </trkpt>
      <trkpt lat="43.312916" lon="-5.779716">
        <ele>282.08</ele>
        <time>2015-01-25T13:40:12Z</time>
      </trkpt>
      <trkpt lat="43.312802" lon="-5.779669">
        <ele>287.057</ele>
        <time>2015-01-25T13:40:21Z</time>
      </trkpt>
      <trkpt lat="43.312721" lon="-5.779564">
        <ele>286.063</ele>
        <time>2015-01-25T13:40:30Z</time>
      </trkpt>
      <trkpt lat="43.312623" lon="-5.779464">
        <ele>290.044</ele>
        <time>2015-01-25T13:40:39Z</time>
      </trkpt>
      <trkpt lat="43.312536" lon="-5.779381">
        <ele>291.018</ele>
        <time>2015-01-25T13:40:48Z</time>
      </trkpt>
      <trkpt lat="43.312433" lon="-5.779321">
        <ele>294.007</ele>
        <time>2015-01-25T13:40:57Z</time>
      </trkpt>
      <trkpt lat="43.312321" lon="-5.779311">
        <ele>295.034</ele>
        <time>2015-01-25T13:41:06Z</time>
      </trkpt>
      <trkpt lat="43.312191" lon="-5.779293">
        <ele>294.073</ele>
        <time>2015-01-25T13:41:15Z</time>
      </trkpt>
      <trkpt lat="43.312131" lon="-5.779266">
        <ele>299.069</ele>
        <time>2015-01-25T13:41:27Z</time>
      </trkpt>
      <trkpt lat="43.312075" lon="-5.779202">
        <ele>300.062</ele>
        <time>2015-01-25T13:41:39Z</time>
      </trkpt>
      <trkpt lat="43.31198" lon="-5.779192">
        <ele>299.07</ele>
        <time>2015-01-25T13:41:48Z</time>
      </trkpt>
      <trkpt lat="43.311883" lon="-5.779151">
        <ele>304.039</ele>
        <time>2015-01-25T13:42:00Z</time>
      </trkpt>
      <trkpt lat="43.31182" lon="-5.779098">
        <ele>299.066</ele>
        <time>2015-01-25T13:42:12Z</time>
      </trkpt>
      <trkpt lat="43.311767" lon="-5.779108">
        <ele>299.035</ele>
        <time>2015-01-25T13:42:24Z</time>
      </trkpt>
      <trkpt lat="43.311671" lon="-5.779123">
        <ele>300.086</ele>
        <time>2015-01-25T13:42:36Z</time>
      </trkpt>
      <trkpt lat="43.311619" lon="-5.779123">
        <ele>306.014</ele>
        <time>2015-01-25T13:42:48Z</time>
      </trkpt>
      <trkpt lat="43.311545" lon="-5.779137">
        <ele>312.007</ele>
        <time>2015-01-25T13:43:00Z</time>
      </trkpt>
      <trkpt lat="43.311501" lon="-5.779153">
        <ele>318.011</ele>
        <time>2015-01-25T13:43:21Z</time>
      </trkpt>
      <trkpt lat="43.311424" lon="-5.779145">
        <ele>327.09</ele>
        <time>2015-01-25T13:43:33Z</time>
      </trkpt>
      <trkpt lat="43.311365" lon="-5.779169">
        <ele>332.076</ele>
        <time>2015-01-25T13:43:45Z</time>
      </trkpt>
      <trkpt lat="43.311338" lon="-5.779226">
        <ele>327.089</ele>
        <time>2015-01-25T13:43:57Z</time>
      </trkpt>
      <trkpt lat="43.311262" lon="-5.779079">
        <ele>325.087</ele>
        <time>2015-01-25T13:44:09Z</time>
      </trkpt>
      <trkpt lat="43.311191" lon="-5.779017">
        <ele>327.046</ele>
        <time>2015-01-25T13:44:21Z</time>
      </trkpt>
      <trkpt lat="43.311102" lon="-5.779034">
        <ele>334.013</ele>
        <time>2015-01-25T13:44:33Z</time>
      </trkpt>
      <trkpt lat="43.311061" lon="-5.779">
        <ele>329.015</ele>
        <time>2015-01-25T13:44:45Z</time>
      </trkpt>
      <trkpt lat="43.310999" lon="-5.779025">
        <ele>329.065</ele>
        <time>2015-01-25T13:44:57Z</time>
      </trkpt>
      <trkpt lat="43.310957" lon="-5.778991">
        <ele>327.011</ele>
        <time>2015-01-25T13:45:12Z</time>
      </trkpt>
      <trkpt lat="43.310881" lon="-5.778922">
        <ele>337.007</ele>
        <time>2015-01-25T13:45:24Z</time>
      </trkpt>
      <trkpt lat="43.310812" lon="-5.778892">
        <ele>338.039</ele>
        <time>2015-01-25T13:45:36Z</time>
      </trkpt>
      <trkpt lat="43.310751" lon="-5.778869">
        <ele>344.018</ele>
        <time>2015-01-25T13:45:51Z</time>
      </trkpt>
      <trkpt lat="43.310666" lon="-5.778841">
        <ele>342.054</ele>
        <time>2015-01-25T13:46:03Z</time>
      </trkpt>
      <trkpt lat="43.310595" lon="-5.778801">
        <ele>341.087</ele>
        <time>2015-01-25T13:46:15Z</time>
      </trkpt>
      <trkpt lat="43.310503" lon="-5.778787">
        <ele>340.065</ele>
        <time>2015-01-25T13:46:27Z</time>
      </trkpt>
      <trkpt lat="43.310438" lon="-5.77876">
        <ele>337.094</ele>
        <time>2015-01-25T13:46:39Z</time>
      </trkpt>
      <trkpt lat="43.31039" lon="-5.778724">
        <ele>336.051</ele>
        <time>2015-01-25T13:46:51Z</time>
      </trkpt>
      <trkpt lat="43.310345" lon="-5.778711">
        <ele>340.065</ele>
        <time>2015-01-25T13:47:03Z</time>
      </trkpt>
      <trkpt lat="43.310292" lon="-5.778719">
        <ele>341.068</ele>
        <time>2015-01-25T13:47:18Z</time>
      </trkpt>
      <trkpt lat="43.31022" lon="-5.778708">
        <ele>347.014</ele>
        <time>2015-01-25T13:47:30Z</time>
      </trkpt>
      <trkpt lat="43.310118" lon="-5.778648">
        <ele>347.007</ele>
        <time>2015-01-25T13:47:42Z</time>
      </trkpt>
      <trkpt lat="43.310056" lon="-5.778633">
        <ele>349.054</ele>
        <time>2015-01-25T13:47:54Z</time>
      </trkpt>
      <trkpt lat="43.310007" lon="-5.77861">
        <ele>346.043</ele>
        <time>2015-01-25T13:48:06Z</time>
      </trkpt>
      <trkpt lat="43.309935" lon="-5.778583">
        <ele>349.039</ele>
        <time>2015-01-25T13:48:24Z</time>
      </trkpt>
      <trkpt lat="43.309886" lon="-5.778551">
        <ele>351.042</ele>
        <time>2015-01-25T13:48:36Z</time>
      </trkpt>
      <trkpt lat="43.309826" lon="-5.778504">
        <ele>353.08</ele>
        <time>2015-01-25T13:48:48Z</time>
      </trkpt>
      <trkpt lat="43.309782" lon="-5.778482">
        <ele>353.069</ele>
        <time>2015-01-25T13:49:00Z</time>
      </trkpt>
      <trkpt lat="43.309705" lon="-5.778429">
        <ele>353.076</ele>
        <time>2015-01-25T13:49:12Z</time>
      </trkpt>
      <trkpt lat="43.309647" lon="-5.778323">
        <ele>357.069</ele>
        <time>2015-01-25T13:49:24Z</time>
      </trkpt>
      <trkpt lat="43.3096" lon="-5.7783">
        <ele>360.004</ele>
        <time>2015-01-25T13:49:45Z</time>
      </trkpt>
      <trkpt lat="43.309548" lon="-5.778227">
        <ele>363.024</ele>
        <time>2015-01-25T13:50:03Z</time>
      </trkpt>
      <trkpt lat="43.309482" lon="-5.778151">
        <ele>369.007</ele>
        <time>2015-01-25T13:50:15Z</time>
      </trkpt>
      <trkpt lat="43.309434" lon="-5.778106">
        <ele>371.074</ele>
        <time>2015-01-25T13:50:27Z</time>
      </trkpt>
      <trkpt lat="43.309376" lon="-5.778048">
        <ele>380.033</ele>
        <time>2015-01-25T13:50:39Z</time>
      </trkpt>
      <trkpt lat="43.309323" lon="-5.778021">
        <ele>381.049</ele>
        <time>2015-01-25T13:50:57Z</time>
      </trkpt>
      <trkpt lat="43.309219" lon="-5.777931">
        <ele>379.032</ele>
        <time>2015-01-25T13:51:09Z</time>
      </trkpt>
      <trkpt lat="43.309114" lon="-5.777905">
        <ele>380.01</ele>
        <time>2015-01-25T13:51:18Z</time>
      </trkpt>
      <trkpt lat="43.309018" lon="-5.777996">
        <ele>380.079</ele>
        <time>2015-01-25T13:51:24Z</time>
      </trkpt>
      <trkpt lat="43.308927" lon="-5.778077">
        <ele>368.016</ele>
        <time>2015-01-25T13:51:33Z</time>
      </trkpt>
      <trkpt lat="43.308815" lon="-5.778088">
        <ele>371.042</ele>
        <time>2015-01-25T13:51:42Z</time>
      </trkpt>
      <trkpt lat="43.308714" lon="-5.778072">
        <ele>370.022</ele>
        <time>2015-01-25T13:51:48Z</time>
      </trkpt>
      <trkpt lat="43.308617" lon="-5.778067">
        <ele>371.014</ele>
        <time>2015-01-25T13:51:54Z</time>
      </trkpt>
      <trkpt lat="43.308488" lon="-5.778006">
        <ele>370.007</ele>
        <time>2015-01-25T13:52:03Z</time>
      </trkpt>
      <trkpt lat="43.308455" lon="-5.777905">
        <ele>371.082</ele>
        <time>2015-01-25T13:52:15Z</time>
      </trkpt>
      <trkpt lat="43.308531" lon="-5.77786">
        <ele>371.081</ele>
        <time>2015-01-25T13:52:27Z</time>
      </trkpt>
      <trkpt lat="43.308652" lon="-5.7778">
        <ele>376.057</ele>
        <time>2015-01-25T13:52:36Z</time>
      </trkpt>
      <trkpt lat="43.308755" lon="-5.777787">
        <ele>384.02</ele>
        <time>2015-01-25T13:52:45Z</time>
      </trkpt>
      <trkpt lat="43.308878" lon="-5.777753">
        <ele>379.018</ele>
        <time>2015-01-25T13:52:54Z</time>
      </trkpt>
      <trkpt lat="43.30894" lon="-5.777643">
        <ele>380.087</ele>
        <time>2015-01-25T13:53:03Z</time>
      </trkpt>
      <trkpt lat="43.308933" lon="-5.777495">
        <ele>383.074</ele>
        <time>2015-01-25T13:53:12Z</time>
      </trkpt>
      <trkpt lat="43.308807" lon="-5.777533">
        <ele>385.046</ele>
        <time>2015-01-25T13:53:21Z</time>
      </trkpt>
      <trkpt lat="43.30871" lon="-5.777529">
        <ele>383.088</ele>
        <time>2015-01-25T13:53:30Z</time>
      </trkpt>
      <trkpt lat="43.308619" lon="-5.77747">
        <ele>378.016</ele>
        <time>2015-01-25T13:53:39Z</time>
      </trkpt>
      <trkpt lat="43.30852" lon="-5.777412">
        <ele>381.007</ele>
        <time>2015-01-25T13:53:45Z</time>
      </trkpt>
      <trkpt lat="43.308382" lon="-5.777355">
        <ele>389.042</ele>
        <time>2015-01-25T13:53:51Z</time>
      </trkpt>
      <trkpt lat="43.308243" lon="-5.777297">
        <ele>391.071</ele>
        <time>2015-01-25T13:53:57Z</time>
      </trkpt>
      <trkpt lat="43.308155" lon="-5.777426">
        <ele>387.097</ele>
        <time>2015-01-25T13:54:06Z</time>
      </trkpt>
      <trkpt lat="43.308141" lon="-5.777574">
        <ele>384.07</ele>
        <time>2015-01-25T13:54:15Z</time>
      </trkpt>
      <trkpt lat="43.308109" lon="-5.777722">
        <ele>388.078</ele>
        <time>2015-01-25T13:54:24Z</time>
      </trkpt>
      <trkpt lat="43.308065" lon="-5.777869">
        <ele>391.067</ele>
        <time>2015-01-25T13:54:33Z</time>
      </trkpt>
      <trkpt lat="43.307968" lon="-5.777973">
        <ele>393.014</ele>
        <time>2015-01-25T13:54:42Z</time>
      </trkpt>
      <trkpt lat="43.307886" lon="-5.778067">
        <ele>388.029</ele>
        <time>2015-01-25T13:54:51Z</time>
      </trkpt>
      <trkpt lat="43.307788" lon="-5.778188">
        <ele>390</ele>
        <time>2015-01-25T13:55:00Z</time>
      </trkpt>
      <trkpt lat="43.307725" lon="-5.778287">
        <ele>391.02</ele>
        <time>2015-01-25T13:55:09Z</time>
      </trkpt>
      <trkpt lat="43.307647" lon="-5.778419">
        <ele>394.007</ele>
        <time>2015-01-25T13:55:18Z</time>
      </trkpt>
      <trkpt lat="43.307637" lon="-5.778585">
        <ele>389.07</ele>
        <time>2015-01-25T13:55:27Z</time>
      </trkpt>
      <trkpt lat="43.307652" lon="-5.778648">
        <ele>389.089</ele>
        <time>2015-01-25T13:55:39Z</time>
      </trkpt>
      <trkpt lat="43.307672" lon="-5.778659">
        <ele>390.065</ele>
        <time>2015-01-25T13:56:09Z</time>
      </trkpt>
      <trkpt lat="43.307729" lon="-5.778706">
        <ele>397.068</ele>
        <time>2015-01-25T13:56:33Z</time>
      </trkpt>
      <trkpt lat="43.307815" lon="-5.77883">
        <ele>397.056</ele>
        <time>2015-01-25T13:56:42Z</time>
      </trkpt>
      <trkpt lat="43.307899" lon="-5.778924">
        <ele>397.035</ele>
        <time>2015-01-25T13:56:51Z</time>
      </trkpt>
      <trkpt lat="43.307854" lon="-5.778914">
        <ele>394.052</ele>
        <time>2015-01-25T13:57:03Z</time>
      </trkpt>
      <trkpt lat="43.307841" lon="-5.778942">
        <ele>397.072</ele>
        <time>2015-01-25T13:57:33Z</time>
      </trkpt>
      <trkpt lat="43.307835" lon="-5.778992">
        <ele>406.013</ele>
        <time>2015-01-25T13:58:03Z</time>
      </trkpt>
      <trkpt lat="43.307752" lon="-5.778977">
        <ele>406.014</ele>
        <time>2015-01-25T13:58:15Z</time>
      </trkpt>
      <trkpt lat="43.307703" lon="-5.778978">
        <ele>413.007</ele>
        <time>2015-01-25T13:58:30Z</time>
      </trkpt>
      <trkpt lat="43.307632" lon="-5.778916">
        <ele>420.085</ele>
        <time>2015-01-25T13:58:42Z</time>
      </trkpt>
      <trkpt lat="43.307583" lon="-5.778988">
        <ele>419.064</ele>
        <time>2015-01-25T13:58:54Z</time>
      </trkpt>
      <trkpt lat="43.307537" lon="-5.779027">
        <ele>426.01</ele>
        <time>2015-01-25T13:59:06Z</time>
      </trkpt>
      <trkpt lat="43.307486" lon="-5.779">
        <ele>427.073</ele>
        <time>2015-01-25T13:59:24Z</time>
      </trkpt>
      <trkpt lat="43.307442" lon="-5.778967">
        <ele>430.011</ele>
        <time>2015-01-25T13:59:36Z</time>
      </trkpt>
      <trkpt lat="43.307393" lon="-5.778962">
        <ele>431.05</ele>
        <time>2015-01-25T13:59:48Z</time>
      </trkpt>
      <trkpt lat="43.307341" lon="-5.778985">
        <ele>433.087</ele>
        <time>2015-01-25T14:00:03Z</time>
      </trkpt>
      <trkpt lat="43.307279" lon="-5.778982">
        <ele>441.031</ele>
        <time>2015-01-25T14:00:15Z</time>
      </trkpt>
      <trkpt lat="43.307235" lon="-5.779057">
        <ele>441.061</ele>
        <time>2015-01-25T14:00:27Z</time>
      </trkpt>
      <trkpt lat="43.307148" lon="-5.779085">
        <ele>442.007</ele>
        <time>2015-01-25T14:00:39Z</time>
      </trkpt>
      <trkpt lat="43.3071" lon="-5.779111">
        <ele>444.007</ele>
        <time>2015-01-25T14:00:51Z</time>
      </trkpt>
      <trkpt lat="43.307049" lon="-5.77916">
        <ele>449.041</ele>
        <time>2015-01-25T14:01:03Z</time>
      </trkpt>
      <trkpt lat="43.307015" lon="-5.779205">
        <ele>448.09</ele>
        <time>2015-01-25T14:01:15Z</time>
      </trkpt>
      <trkpt lat="43.306922" lon="-5.779179">
        <ele>445.046</ele>
        <time>2015-01-25T14:01:27Z</time>
      </trkpt>
      <trkpt lat="43.306863" lon="-5.779084">
        <ele>449.059</ele>
        <time>2015-01-25T14:01:33Z</time>
      </trkpt>
      <trkpt lat="43.306882" lon="-5.77891">
        <ele>449.077</ele>
        <time>2015-01-25T14:01:42Z</time>
      </trkpt>
      <trkpt lat="43.306847" lon="-5.77874">
        <ele>446.056</ele>
        <time>2015-01-25T14:01:51Z</time>
      </trkpt>
      <trkpt lat="43.306779" lon="-5.778657">
        <ele>448.063</ele>
        <time>2015-01-25T14:02:03Z</time>
      </trkpt>
      <trkpt lat="43.306718" lon="-5.778598">
        <ele>448.067</ele>
        <time>2015-01-25T14:02:15Z</time>
      </trkpt>
      <trkpt lat="43.306679" lon="-5.778548">
        <ele>449.081</ele>
        <time>2015-01-25T14:02:27Z</time>
      </trkpt>
      <trkpt lat="43.306623" lon="-5.778499">
        <ele>451.019</ele>
        <time>2015-01-25T14:02:39Z</time>
      </trkpt>
      <trkpt lat="43.30658" lon="-5.77847">
        <ele>452.007</ele>
        <time>2015-01-25T14:03:03Z</time>
      </trkpt>
      <trkpt lat="43.306458" lon="-5.77846">
        <ele>455.014</ele>
        <time>2015-01-25T14:03:12Z</time>
      </trkpt>
      <trkpt lat="43.306328" lon="-5.778457">
        <ele>459.093</ele>
        <time>2015-01-25T14:03:21Z</time>
      </trkpt>
      <trkpt lat="43.306199" lon="-5.778442">
        <ele>462.069</ele>
        <time>2015-01-25T14:03:30Z</time>
      </trkpt>
      <trkpt lat="43.306107" lon="-5.778391">
        <ele>463.092</ele>
        <time>2015-01-25T14:03:39Z</time>
      </trkpt>
      <trkpt lat="43.306083" lon="-5.778225">
        <ele>463.02</ele>
        <time>2015-01-25T14:03:48Z</time>
      </trkpt>
      <trkpt lat="43.306012" lon="-5.778107">
        <ele>464.029</ele>
        <time>2015-01-25T14:03:57Z</time>
      </trkpt>
      <trkpt lat="43.306035" lon="-5.777961">
        <ele>465.056</ele>
        <time>2015-01-25T14:04:06Z</time>
      </trkpt>
      <trkpt lat="43.3061" lon="-5.777803">
        <ele>467.072</ele>
        <time>2015-01-25T14:04:15Z</time>
      </trkpt>
      <trkpt lat="43.306176" lon="-5.777728">
        <ele>469.013</ele>
        <time>2015-01-25T14:04:21Z</time>
      </trkpt>
      <trkpt lat="43.30622" lon="-5.777571">
        <ele>472.014</ele>
        <time>2015-01-25T14:04:30Z</time>
      </trkpt>
      <trkpt lat="43.306276" lon="-5.777433">
        <ele>472.007</ele>
        <time>2015-01-25T14:04:42Z</time>
      </trkpt>
      <trkpt lat="43.306366" lon="-5.777381">
        <ele>472.025</ele>
        <time>2015-01-25T14:04:45Z</time>
      </trkpt>
      <trkpt lat="43.306446" lon="-5.777299">
        <ele>476.034</ele>
        <time>2015-01-25T14:04:51Z</time>
      </trkpt>
      <trkpt lat="43.30651" lon="-5.777188">
        <ele>476.06</ele>
        <time>2015-01-25T14:05:00Z</time>
      </trkpt>
      <trkpt lat="43.306626" lon="-5.777142">
        <ele>478.033</ele>
        <time>2015-01-25T14:05:09Z</time>
      </trkpt>
      <trkpt lat="43.306718" lon="-5.777118">
        <ele>477.081</ele>
        <time>2015-01-25T14:05:15Z</time>
      </trkpt>
      <trkpt lat="43.30672" lon="-5.776982">
        <ele>479.05</ele>
        <time>2015-01-25T14:05:24Z</time>
      </trkpt>
      <trkpt lat="43.306612" lon="-5.777037">
        <ele>481.077</ele>
        <time>2015-01-25T14:05:33Z</time>
      </trkpt>
      <trkpt lat="43.306503" lon="-5.777081">
        <ele>481.013</ele>
        <time>2015-01-25T14:05:42Z</time>
      </trkpt>
      <trkpt lat="43.306366" lon="-5.777088">
        <ele>479.043</ele>
        <time>2015-01-25T14:05:51Z</time>
      </trkpt>
      <trkpt lat="43.306274" lon="-5.777138">
        <ele>482.007</ele>
        <time>2015-01-25T14:06:00Z</time>
      </trkpt>
      <trkpt lat="43.306183" lon="-5.77716">
        <ele>483.007</ele>
        <time>2015-01-25T14:06:12Z</time>
      </trkpt>
      <trkpt lat="43.306074" lon="-5.777225">
        <ele>483.099</ele>
        <time>2015-01-25T14:06:21Z</time>
      </trkpt>
      <trkpt lat="43.305964" lon="-5.777295">
        <ele>488.098</ele>
        <time>2015-01-25T14:06:30Z</time>
      </trkpt>
      <trkpt lat="43.30587" lon="-5.777331">
        <ele>488.074</ele>
        <time>2015-01-25T14:06:39Z</time>
      </trkpt>
      <trkpt lat="43.305766" lon="-5.777391">
        <ele>489.087</ele>
        <time>2015-01-25T14:06:48Z</time>
      </trkpt>
      <trkpt lat="43.305656" lon="-5.777389">
        <ele>491.035</ele>
        <time>2015-01-25T14:07:00Z</time>
      </trkpt>
      <trkpt lat="43.305712" lon="-5.777297">
        <ele>492.064</ele>
        <time>2015-01-25T14:07:12Z</time>
      </trkpt>
      <trkpt lat="43.305803" lon="-5.777233">
        <ele>494.061</ele>
        <time>2015-01-25T14:07:21Z</time>
      </trkpt>
      <trkpt lat="43.305889" lon="-5.777186">
        <ele>497.089</ele>
        <time>2015-01-25T14:07:30Z</time>
      </trkpt>
      <trkpt lat="43.305949" lon="-5.777047">
        <ele>499.006</ele>
        <time>2015-01-25T14:07:39Z</time>
      </trkpt>
      <trkpt lat="43.306031" lon="-5.776942">
        <ele>498.026</ele>
        <time>2015-01-25T14:07:48Z</time>
      </trkpt>
      <trkpt lat="43.30609" lon="-5.776821">
        <ele>501.007</ele>
        <time>2015-01-25T14:07:57Z</time>
      </trkpt>
      <trkpt lat="43.306147" lon="-5.776701">
        <ele>499.096</ele>
        <time>2015-01-25T14:08:03Z</time>
      </trkpt>
      <trkpt lat="43.306196" lon="-5.776582">
        <ele>497.075</ele>
        <time>2015-01-25T14:08:09Z</time>
      </trkpt>
      <trkpt lat="43.306176" lon="-5.776435">
        <ele>496.041</ele>
        <time>2015-01-25T14:08:15Z</time>
      </trkpt>
      <trkpt lat="43.306256" lon="-5.77644">
        <ele>497.054</ele>
        <time>2015-01-25T14:08:33Z</time>
      </trkpt>
      <trkpt lat="43.306241" lon="-5.776312">
        <ele>494.062</ele>
        <time>2015-01-25T14:08:39Z</time>
      </trkpt>
      <trkpt lat="43.306226" lon="-5.776125">
        <ele>493.011</ele>
        <time>2015-01-25T14:08:45Z</time>
      </trkpt>
      <trkpt lat="43.30622" lon="-5.775995">
        <ele>491.028</ele>
        <time>2015-01-25T14:08:51Z</time>
      </trkpt>
      <trkpt lat="43.306189" lon="-5.775824">
        <ele>492.088</ele>
        <time>2015-01-25T14:09:00Z</time>
      </trkpt>
      <trkpt lat="43.306131" lon="-5.77572">
        <ele>495.024</ele>
        <time>2015-01-25T14:09:06Z</time>
      </trkpt>
      <trkpt lat="43.306064" lon="-5.775616">
        <ele>496.026</ele>
        <time>2015-01-25T14:09:15Z</time>
      </trkpt>
      <trkpt lat="43.306016" lon="-5.775512">
        <ele>502.007</ele>
        <time>2015-01-25T14:09:27Z</time>
      </trkpt>
      <trkpt lat="43.30601" lon="-5.775357">
        <ele>508.026</ele>
        <time>2015-01-25T14:09:36Z</time>
      </trkpt>
      <trkpt lat="43.305954" lon="-5.775255">
        <ele>509.015</ele>
        <time>2015-01-25T14:09:42Z</time>
      </trkpt>
      <trkpt lat="43.305881" lon="-5.775175">
        <ele>510.061</ele>
        <time>2015-01-25T14:09:48Z</time>
      </trkpt>
      <trkpt lat="43.305817" lon="-5.775068">
        <ele>511.094</ele>
        <time>2015-01-25T14:09:54Z</time>
      </trkpt>
      <trkpt lat="43.305834" lon="-5.774903">
        <ele>509.072</ele>
        <time>2015-01-25T14:10:03Z</time>
      </trkpt>
      <trkpt lat="43.305885" lon="-5.774796">
        <ele>511.021</ele>
        <time>2015-01-25T14:10:09Z</time>
      </trkpt>
      <trkpt lat="43.305931" lon="-5.774676">
        <ele>510.018</ele>
        <time>2015-01-25T14:10:15Z</time>
      </trkpt>
      <trkpt lat="43.30591" lon="-5.774513">
        <ele>515.052</ele>
        <time>2015-01-25T14:10:24Z</time>
      </trkpt>
      <trkpt lat="43.305905" lon="-5.774367">
        <ele>514.053</ele>
        <time>2015-01-25T14:10:30Z</time>
      </trkpt>
      <trkpt lat="43.305819" lon="-5.774256">
        <ele>514.008</ele>
        <time>2015-01-25T14:10:36Z</time>
      </trkpt>
      <trkpt lat="43.305762" lon="-5.774153">
        <ele>515.007</ele>
        <time>2015-01-25T14:10:42Z</time>
      </trkpt>
      <trkpt lat="43.305674" lon="-5.774062">
        <ele>519.063</ele>
        <time>2015-01-25T14:10:48Z</time>
      </trkpt>
      <trkpt lat="43.305692" lon="-5.773944">
        <ele>514.082</ele>
        <time>2015-01-25T14:11:00Z</time>
      </trkpt>
      <trkpt lat="43.305797" lon="-5.773879">
        <ele>513.018</ele>
        <time>2015-01-25T14:11:06Z</time>
      </trkpt>
      <trkpt lat="43.305934" lon="-5.773888">
        <ele>518.091</ele>
        <time>2015-01-25T14:11:12Z</time>
      </trkpt>
      <trkpt lat="43.30604" lon="-5.773911">
        <ele>521.099</ele>
        <time>2015-01-25T14:11:18Z</time>
      </trkpt>
      <trkpt lat="43.306134" lon="-5.773944">
        <ele>520.028</ele>
        <time>2015-01-25T14:11:24Z</time>
      </trkpt>
      <trkpt lat="43.306243" lon="-5.773897">
        <ele>526.085</ele>
        <time>2015-01-25T14:11:33Z</time>
      </trkpt>
      <trkpt lat="43.306357" lon="-5.773861">
        <ele>525.076</ele>
        <time>2015-01-25T14:11:42Z</time>
      </trkpt>
      <trkpt lat="43.306473" lon="-5.77387">
        <ele>527.09</ele>
        <time>2015-01-25T14:11:51Z</time>
      </trkpt>
      <trkpt lat="43.306575" lon="-5.773865">
        <ele>526.019</ele>
        <time>2015-01-25T14:12:00Z</time>
      </trkpt>
      <trkpt lat="43.306675" lon="-5.773837">
        <ele>524.007</ele>
        <time>2015-01-25T14:12:09Z</time>
      </trkpt>
      <trkpt lat="43.306546" lon="-5.773847">
        <ele>511.065</ele>
        <time>2015-01-25T14:12:15Z</time>
      </trkpt>
      <trkpt lat="43.306662" lon="-5.773813">
        <ele>521.094</ele>
        <time>2015-01-25T14:12:24Z</time>
      </trkpt>
      <trkpt lat="43.306812" lon="-5.773835">
        <ele>529.07</ele>
        <time>2015-01-25T14:12:33Z</time>
      </trkpt>
      <trkpt lat="43.306984" lon="-5.773828">
        <ele>533.013</ele>
        <time>2015-01-25T14:12:39Z</time>
      </trkpt>
      <trkpt lat="43.307089" lon="-5.773788">
        <ele>534.091</ele>
        <time>2015-01-25T14:12:45Z</time>
      </trkpt>
      <trkpt lat="43.307211" lon="-5.773716">
        <ele>538.07</ele>
        <time>2015-01-25T14:12:54Z</time>
      </trkpt>
      <trkpt lat="43.307297" lon="-5.773652">
        <ele>535.097</ele>
        <time>2015-01-25T14:13:00Z</time>
      </trkpt>
      <trkpt lat="43.307406" lon="-5.77359">
        <ele>536.031</ele>
        <time>2015-01-25T14:13:09Z</time>
      </trkpt>
      <trkpt lat="43.307487" lon="-5.773525">
        <ele>537.061</ele>
        <time>2015-01-25T14:13:15Z</time>
      </trkpt>
      <trkpt lat="43.307549" lon="-5.773413">
        <ele>534.007</ele>
        <time>2015-01-25T14:13:27Z</time>
      </trkpt>
      <trkpt lat="43.307648" lon="-5.773299">
        <ele>537.007</ele>
        <time>2015-01-25T14:13:36Z</time>
      </trkpt>
      <trkpt lat="43.307697" lon="-5.773193">
        <ele>538.081</ele>
        <time>2015-01-25T14:13:42Z</time>
      </trkpt>
      <trkpt lat="43.307802" lon="-5.773172">
        <ele>540.07</ele>
        <time>2015-01-25T14:13:48Z</time>
      </trkpt>
      <trkpt lat="43.307839" lon="-5.773082">
        <ele>543.096</ele>
        <time>2015-01-25T14:14:00Z</time>
      </trkpt>
      <trkpt lat="43.307911" lon="-5.773002">
        <ele>543.089</ele>
        <time>2015-01-25T14:14:06Z</time>
      </trkpt>
      <trkpt lat="43.308012" lon="-5.772883">
        <ele>545.047</ele>
        <time>2015-01-25T14:14:15Z</time>
      </trkpt>
      <trkpt lat="43.308109" lon="-5.772798">
        <ele>547.066</ele>
        <time>2015-01-25T14:14:24Z</time>
      </trkpt>
      <trkpt lat="43.308185" lon="-5.772694">
        <ele>550.073</ele>
        <time>2015-01-25T14:14:33Z</time>
      </trkpt>
      <trkpt lat="43.308227" lon="-5.772653">
        <ele>551.035</ele>
        <time>2015-01-25T14:14:45Z</time>
      </trkpt>
      <trkpt lat="43.308274" lon="-5.772574">
        <ele>551.086</ele>
        <time>2015-01-25T14:14:57Z</time>
      </trkpt>
      <trkpt lat="43.308234" lon="-5.772532">
        <ele>550.014</ele>
        <time>2015-01-25T14:15:09Z</time>
      </trkpt>
      <trkpt lat="43.30814" lon="-5.772587">
        <ele>551.007</ele>
        <time>2015-01-25T14:15:15Z</time>
      </trkpt>
      <trkpt lat="43.308046" lon="-5.772625">
        <ele>555.091</ele>
        <time>2015-01-25T14:15:24Z</time>
      </trkpt>
      <trkpt lat="43.308002" lon="-5.772669">
        <ele>557.05</ele>
        <time>2015-01-25T14:15:39Z</time>
      </trkpt>
      <trkpt lat="43.307891" lon="-5.772675">
        <ele>558.016</ele>
        <time>2015-01-25T14:15:48Z</time>
      </trkpt>
      <trkpt lat="43.307771" lon="-5.77271">
        <ele>555.099</ele>
        <time>2015-01-25T14:15:57Z</time>
      </trkpt>
      <trkpt lat="43.307667" lon="-5.77275">
        <ele>550.077</ele>
        <time>2015-01-25T14:16:03Z</time>
      </trkpt>
      <trkpt lat="43.30756" lon="-5.77282">
        <ele>552.056</ele>
        <time>2015-01-25T14:16:12Z</time>
      </trkpt>
      <trkpt lat="43.307457" lon="-5.772898">
        <ele>552.083</ele>
        <time>2015-01-25T14:16:21Z</time>
      </trkpt>
      <trkpt lat="43.30737" lon="-5.772965">
        <ele>553.069</ele>
        <time>2015-01-25T14:16:27Z</time>
      </trkpt>
      <trkpt lat="43.307317" lon="-5.773007">
        <ele>554.004</ele>
        <time>2015-01-25T14:16:39Z</time>
      </trkpt>
      <trkpt lat="43.307248" lon="-5.773">
        <ele>552.024</ele>
        <time>2015-01-25T14:16:51Z</time>
      </trkpt>
      <trkpt lat="43.307196" lon="-5.773036">
        <ele>552.007</ele>
        <time>2015-01-25T14:17:03Z</time>
      </trkpt>
      <trkpt lat="43.307141" lon="-5.773041">
        <ele>552.054</ele>
        <time>2015-01-25T14:17:21Z</time>
      </trkpt>
      <trkpt lat="43.307026" lon="-5.773067">
        <ele>552.043</ele>
        <time>2015-01-25T14:17:30Z</time>
      </trkpt>
      <trkpt lat="43.306983" lon="-5.773099">
        <ele>554.019</ele>
        <time>2015-01-25T14:17:42Z</time>
      </trkpt>
      <trkpt lat="43.306933" lon="-5.773049">
        <ele>558.042</ele>
        <time>2015-01-25T14:18:00Z</time>
      </trkpt>
      <trkpt lat="43.306874" lon="-5.773013">
        <ele>556.02</ele>
        <time>2015-01-25T14:18:12Z</time>
      </trkpt>
      <trkpt lat="43.30682" lon="-5.772956">
        <ele>557.039</ele>
        <time>2015-01-25T14:18:24Z</time>
      </trkpt>
      <trkpt lat="43.306761" lon="-5.772903">
        <ele>558.056</ele>
        <time>2015-01-25T14:18:36Z</time>
      </trkpt>
      <trkpt lat="43.306721" lon="-5.772884">
        <ele>561.045</ele>
        <time>2015-01-25T14:19:06Z</time>
      </trkpt>
      <trkpt lat="43.306682" lon="-5.772835">
        <ele>565.047</ele>
        <time>2015-01-25T14:19:36Z</time>
      </trkpt>
      <trkpt lat="43.306637" lon="-5.7728">
        <ele>566.011</ele>
        <time>2015-01-25T14:19:48Z</time>
      </trkpt>
      <trkpt lat="43.30657" lon="-5.772719">
        <ele>568.007</ele>
        <time>2015-01-25T14:20:00Z</time>
      </trkpt>
      <trkpt lat="43.306486" lon="-5.77264">
        <ele>570.072</ele>
        <time>2015-01-25T14:20:12Z</time>
      </trkpt>
      <trkpt lat="43.306462" lon="-5.772531">
        <ele>575.041</ele>
        <time>2015-01-25T14:20:24Z</time>
      </trkpt>
      <trkpt lat="43.30641" lon="-5.77245">
        <ele>573.077</ele>
        <time>2015-01-25T14:20:36Z</time>
      </trkpt>
      <trkpt lat="43.306391" lon="-5.772378">
        <ele>579.03</ele>
        <time>2015-01-25T14:20:51Z</time>
      </trkpt>
      <trkpt lat="43.306371" lon="-5.772308">
        <ele>579.018</ele>
        <time>2015-01-25T14:21:06Z</time>
      </trkpt>
      <trkpt lat="43.306358" lon="-5.772241">
        <ele>580.097</ele>
        <time>2015-01-25T14:21:18Z</time>
      </trkpt>
      <trkpt lat="43.306347" lon="-5.772144">
        <ele>582.054</ele>
        <time>2015-01-25T14:21:30Z</time>
      </trkpt>
      <trkpt lat="43.30635" lon="-5.772042">
        <ele>585.085</ele>
        <time>2015-01-25T14:21:42Z</time>
      </trkpt>
      <trkpt lat="43.306318" lon="-5.771991">
        <ele>586.089</ele>
        <time>2015-01-25T14:21:57Z</time>
      </trkpt>
      <trkpt lat="43.306269" lon="-5.771947">
        <ele>588.017</ele>
        <time>2015-01-25T14:22:24Z</time>
      </trkpt>
      <trkpt lat="43.306203" lon="-5.771902">
        <ele>590.007</ele>
        <time>2015-01-25T14:22:36Z</time>
      </trkpt>
      <trkpt lat="43.306181" lon="-5.771846">
        <ele>589.096</ele>
        <time>2015-01-25T14:22:57Z</time>
      </trkpt>
      <trkpt lat="43.306117" lon="-5.771809">
        <ele>590.095</ele>
        <time>2015-01-25T14:23:24Z</time>
      </trkpt>
      <trkpt lat="43.306058" lon="-5.77178">
        <ele>591.091</ele>
        <time>2015-01-25T14:23:42Z</time>
      </trkpt>
      <trkpt lat="43.305954" lon="-5.771744">
        <ele>592.084</ele>
        <time>2015-01-25T14:23:51Z</time>
      </trkpt>
      <trkpt lat="43.305866" lon="-5.77163">
        <ele>595.082</ele>
        <time>2015-01-25T14:24:03Z</time>
      </trkpt>
      <trkpt lat="43.305777" lon="-5.7716">
        <ele>593.061</ele>
        <time>2015-01-25T14:24:15Z</time>
      </trkpt>
      <trkpt lat="43.305654" lon="-5.77161">
        <ele>595.068</ele>
        <time>2015-01-25T14:24:24Z</time>
      </trkpt>
      <trkpt lat="43.305538" lon="-5.771646">
        <ele>598.093</ele>
        <time>2015-01-25T14:24:33Z</time>
      </trkpt>
      <trkpt lat="43.305447" lon="-5.771722">
        <ele>595.065</ele>
        <time>2015-01-25T14:24:42Z</time>
      </trkpt>
      <trkpt lat="43.305349" lon="-5.771808">
        <ele>597.021</ele>
        <time>2015-01-25T14:24:51Z</time>
      </trkpt>
      <trkpt lat="43.305256" lon="-5.77183">
        <ele>600.007</ele>
        <time>2015-01-25T14:25:03Z</time>
      </trkpt>
      <trkpt lat="43.305211" lon="-5.771839">
        <ele>602.047</ele>
        <time>2015-01-25T14:25:18Z</time>
      </trkpt>
      <trkpt lat="43.305164" lon="-5.771871">
        <ele>603.056</ele>
        <time>2015-01-25T14:25:30Z</time>
      </trkpt>
      <trkpt lat="43.305105" lon="-5.771883">
        <ele>599.072</ele>
        <time>2015-01-25T14:25:45Z</time>
      </trkpt>
      <trkpt lat="43.305008" lon="-5.771895">
        <ele>601.095</ele>
        <time>2015-01-25T14:25:51Z</time>
      </trkpt>
      <trkpt lat="43.304881" lon="-5.771902">
        <ele>601.023</ele>
        <time>2015-01-25T14:26:00Z</time>
      </trkpt>
      <trkpt lat="43.304833" lon="-5.771868">
        <ele>601.082</ele>
        <time>2015-01-25T14:26:12Z</time>
      </trkpt>
      <trkpt lat="43.304704" lon="-5.771867">
        <ele>604.049</ele>
        <time>2015-01-25T14:26:21Z</time>
      </trkpt>
      <trkpt lat="43.304637" lon="-5.771901">
        <ele>602.059</ele>
        <time>2015-01-25T14:26:36Z</time>
      </trkpt>
      <trkpt lat="43.304585" lon="-5.77196">
        <ele>605.003</ele>
        <time>2015-01-25T14:26:48Z</time>
      </trkpt>
      <trkpt lat="43.304544" lon="-5.772021">
        <ele>614.023</ele>
        <time>2015-01-25T14:27:03Z</time>
      </trkpt>
      <trkpt lat="43.304428" lon="-5.772042">
        <ele>612.007</ele>
        <time>2015-01-25T14:27:12Z</time>
      </trkpt>
      <trkpt lat="43.304324" lon="-5.772063">
        <ele>610.053</ele>
        <time>2015-01-25T14:27:18Z</time>
      </trkpt>
      <trkpt lat="43.304197" lon="-5.772053">
        <ele>612.032</ele>
        <time>2015-01-25T14:27:24Z</time>
      </trkpt>
      <trkpt lat="43.304098" lon="-5.772067">
        <ele>613.038</ele>
        <time>2015-01-25T14:27:30Z</time>
      </trkpt>
      <trkpt lat="43.303994" lon="-5.772156">
        <ele>612.011</ele>
        <time>2015-01-25T14:27:39Z</time>
      </trkpt>
      <trkpt lat="43.30394" lon="-5.772313">
        <ele>615.019</ele>
        <time>2015-01-25T14:27:45Z</time>
      </trkpt>
      <trkpt lat="43.303968" lon="-5.772478">
        <ele>611.058</ele>
        <time>2015-01-25T14:27:54Z</time>
      </trkpt>
      <trkpt lat="43.303928" lon="-5.772598">
        <ele>609.085</ele>
        <time>2015-01-25T14:28:00Z</time>
      </trkpt>
      <trkpt lat="43.303907" lon="-5.772746">
        <ele>609.065</ele>
        <time>2015-01-25T14:28:06Z</time>
      </trkpt>
      <trkpt lat="43.3039" lon="-5.772871">
        <ele>606.068</ele>
        <time>2015-01-25T14:28:12Z</time>
      </trkpt>
      <trkpt lat="43.303806" lon="-5.772973">
        <ele>611.014</ele>
        <time>2015-01-25T14:28:21Z</time>
      </trkpt>
      <trkpt lat="43.303705" lon="-5.773106">
        <ele>609.007</ele>
        <time>2015-01-25T14:28:30Z</time>
      </trkpt>
      <trkpt lat="43.303601" lon="-5.773272">
        <ele>609.054</ele>
        <time>2015-01-25T14:28:36Z</time>
      </trkpt>
      <trkpt lat="43.303573" lon="-5.773425">
        <ele>609.023</ele>
        <time>2015-01-25T14:28:42Z</time>
      </trkpt>
      <trkpt lat="43.303576" lon="-5.773567">
        <ele>611.039</ele>
        <time>2015-01-25T14:28:48Z</time>
      </trkpt>
      <trkpt lat="43.303607" lon="-5.77372">
        <ele>610.052</ele>
        <time>2015-01-25T14:28:54Z</time>
      </trkpt>
      <trkpt lat="43.303628" lon="-5.773852">
        <ele>607.03</ele>
        <time>2015-01-25T14:29:00Z</time>
      </trkpt>
      <trkpt lat="43.303657" lon="-5.773994">
        <ele>607.069</ele>
        <time>2015-01-25T14:29:06Z</time>
      </trkpt>
      <trkpt lat="43.303684" lon="-5.774142">
        <ele>608.046</ele>
        <time>2015-01-25T14:29:12Z</time>
      </trkpt>
      <trkpt lat="43.303711" lon="-5.774307">
        <ele>609.045</ele>
        <time>2015-01-25T14:29:18Z</time>
      </trkpt>
      <trkpt lat="43.30375" lon="-5.774431">
        <ele>611.047</ele>
        <time>2015-01-25T14:29:24Z</time>
      </trkpt>
      <trkpt lat="43.303796" lon="-5.774548">
        <ele>612.011</ele>
        <time>2015-01-25T14:29:30Z</time>
      </trkpt>
      <trkpt lat="43.303846" lon="-5.77467">
        <ele>615.007</ele>
        <time>2015-01-25T14:29:39Z</time>
      </trkpt>
      <trkpt lat="43.303911" lon="-5.774785">
        <ele>613.052</ele>
        <time>2015-01-25T14:29:51Z</time>
      </trkpt>
      <trkpt lat="43.303962" lon="-5.774947">
        <ele>616.061</ele>
        <time>2015-01-25T14:30:00Z</time>
      </trkpt>
      <trkpt lat="43.304001" lon="-5.775112">
        <ele>620.057</ele>
        <time>2015-01-25T14:30:09Z</time>
      </trkpt>
      <trkpt lat="43.304024" lon="-5.775246">
        <ele>619.03</ele>
        <time>2015-01-25T14:30:15Z</time>
      </trkpt>
      <trkpt lat="43.304079" lon="-5.775401">
        <ele>619.028</ele>
        <time>2015-01-25T14:30:24Z</time>
      </trkpt>
      <trkpt lat="43.304088" lon="-5.775528">
        <ele>621.087</ele>
        <time>2015-01-25T14:30:30Z</time>
      </trkpt>
      <trkpt lat="43.304036" lon="-5.775648">
        <ele>622.044</ele>
        <time>2015-01-25T14:30:36Z</time>
      </trkpt>
      <trkpt lat="43.303934" lon="-5.77573">
        <ele>619.054</ele>
        <time>2015-01-25T14:30:48Z</time>
      </trkpt>
      <trkpt lat="43.303867" lon="-5.775861">
        <ele>620.056</ele>
        <time>2015-01-25T14:30:57Z</time>
      </trkpt>
      <trkpt lat="43.303796" lon="-5.77596">
        <ele>622.011</ele>
        <time>2015-01-25T14:31:06Z</time>
      </trkpt>
      <trkpt lat="43.303704" lon="-5.776058">
        <ele>623.007</ele>
        <time>2015-01-25T14:31:15Z</time>
      </trkpt>
      <trkpt lat="43.303597" lon="-5.776151">
        <ele>624.093</ele>
        <time>2015-01-25T14:31:24Z</time>
      </trkpt>
      <trkpt lat="43.303514" lon="-5.776216">
        <ele>626.062</ele>
        <time>2015-01-25T14:31:30Z</time>
      </trkpt>
      <trkpt lat="43.303453" lon="-5.776311">
        <ele>629.088</ele>
        <time>2015-01-25T14:31:36Z</time>
      </trkpt>
      <trkpt lat="43.303382" lon="-5.776436">
        <ele>630.011</ele>
        <time>2015-01-25T14:31:45Z</time>
      </trkpt>
      <trkpt lat="43.303332" lon="-5.776547">
        <ele>629.029</ele>
        <time>2015-01-25T14:31:54Z</time>
      </trkpt>
      <trkpt lat="43.303294" lon="-5.776702">
        <ele>632.058</ele>
        <time>2015-01-25T14:32:03Z</time>
      </trkpt>
      <trkpt lat="43.303266" lon="-5.776831">
        <ele>634.035</ele>
        <time>2015-01-25T14:32:12Z</time>
      </trkpt>
      <trkpt lat="43.303218" lon="-5.776939">
        <ele>635.083</ele>
        <time>2015-01-25T14:32:18Z</time>
      </trkpt>
      <trkpt lat="43.303146" lon="-5.777042">
        <ele>635.025</ele>
        <time>2015-01-25T14:32:24Z</time>
      </trkpt>
      <trkpt lat="43.303078" lon="-5.777135">
        <ele>632.017</ele>
        <time>2015-01-25T14:32:36Z</time>
      </trkpt>
      <trkpt lat="43.303037" lon="-5.777251">
        <ele>631.007</ele>
        <time>2015-01-25T14:32:45Z</time>
      </trkpt>
      <trkpt lat="43.303032" lon="-5.777389">
        <ele>633.016</ele>
        <time>2015-01-25T14:32:57Z</time>
      </trkpt>
      <trkpt lat="43.303039" lon="-5.777375">
        <ele>633.045</ele>
        <time>2015-01-25T14:33:27Z</time>
      </trkpt>
      <trkpt lat="43.303045" lon="-5.777281">
        <ele>635.051</ele>
        <time>2015-01-25T14:33:42Z</time>
      </trkpt>
      <trkpt lat="43.303059" lon="-5.777153">
        <ele>635.074</ele>
        <time>2015-01-25T14:33:48Z</time>
      </trkpt>
      <trkpt lat="43.302983" lon="-5.777027">
        <ele>637.092</ele>
        <time>2015-01-25T14:33:57Z</time>
      </trkpt>
      <trkpt lat="43.302937" lon="-5.777">
        <ele>638.031</ele>
        <time>2015-01-25T14:34:09Z</time>
      </trkpt>
      <trkpt lat="43.302944" lon="-5.77699">
        <ele>638.068</ele>
        <time>2015-01-25T14:34:39Z</time>
      </trkpt>
      <trkpt lat="43.302877" lon="-5.776919">
        <ele>639.059</ele>
        <time>2015-01-25T14:35:00Z</time>
      </trkpt>
      <trkpt lat="43.302786" lon="-5.776833">
        <ele>640.003</ele>
        <time>2015-01-25T14:35:06Z</time>
      </trkpt>
      <trkpt lat="43.302724" lon="-5.776728">
        <ele>639.023</ele>
        <time>2015-01-25T14:35:12Z</time>
      </trkpt>
      <trkpt lat="43.302681" lon="-5.776615">
        <ele>640.007</ele>
        <time>2015-01-25T14:35:18Z</time>
      </trkpt>
      <trkpt lat="43.302625" lon="-5.776451">
        <ele>640.043</ele>
        <time>2015-01-25T14:35:27Z</time>
      </trkpt>
      <trkpt lat="43.302585" lon="-5.776329">
        <ele>639.012</ele>
        <time>2015-01-25T14:35:33Z</time>
      </trkpt>
      <trkpt lat="43.302518" lon="-5.776224">
        <ele>639.048</ele>
        <time>2015-01-25T14:35:39Z</time>
      </trkpt>
      <trkpt lat="43.302424" lon="-5.77611">
        <ele>639.021</ele>
        <time>2015-01-25T14:35:48Z</time>
      </trkpt>
      <trkpt lat="43.302335" lon="-5.776029">
        <ele>641.019</ele>
        <time>2015-01-25T14:35:57Z</time>
      </trkpt>
      <trkpt lat="43.302241" lon="-5.775933">
        <ele>645.068</ele>
        <time>2015-01-25T14:36:06Z</time>
      </trkpt>
      <trkpt lat="43.302157" lon="-5.775848">
        <ele>646.025</ele>
        <time>2015-01-25T14:36:15Z</time>
      </trkpt>
      <trkpt lat="43.302069" lon="-5.775737">
        <ele>650.023</ele>
        <time>2015-01-25T14:36:24Z</time>
      </trkpt>
      <trkpt lat="43.302022" lon="-5.775582">
        <ele>651.083</ele>
        <time>2015-01-25T14:36:33Z</time>
      </trkpt>
      <trkpt lat="43.301971" lon="-5.775419">
        <ele>653.011</ele>
        <time>2015-01-25T14:36:42Z</time>
      </trkpt>
      <trkpt lat="43.301892" lon="-5.775288">
        <ele>654.007</ele>
        <time>2015-01-25T14:36:51Z</time>
      </trkpt>
      <trkpt lat="43.301819" lon="-5.775212">
        <ele>653.04</ele>
        <time>2015-01-25T14:36:57Z</time>
      </trkpt>
      <trkpt lat="43.301725" lon="-5.775101">
        <ele>655.069</ele>
        <time>2015-01-25T14:37:06Z</time>
      </trkpt>
      <trkpt lat="43.301626" lon="-5.775064">
        <ele>655.075</ele>
        <time>2015-01-25T14:37:15Z</time>
      </trkpt>
      <trkpt lat="43.30152" lon="-5.775058">
        <ele>655.058</ele>
        <time>2015-01-25T14:37:24Z</time>
      </trkpt>
      <trkpt lat="43.301406" lon="-5.775031">
        <ele>656.066</ele>
        <time>2015-01-25T14:37:33Z</time>
      </trkpt>
      <trkpt lat="43.301317" lon="-5.774999">
        <ele>657.085</ele>
        <time>2015-01-25T14:37:39Z</time>
      </trkpt>
      <trkpt lat="43.301223" lon="-5.774868">
        <ele>658.052</ele>
        <time>2015-01-25T14:37:48Z</time>
      </trkpt>
      <trkpt lat="43.301183" lon="-5.774738">
        <ele>658.076</ele>
        <time>2015-01-25T14:37:54Z</time>
      </trkpt>
      <trkpt lat="43.301132" lon="-5.77459">
        <ele>659.09</ele>
        <time>2015-01-25T14:38:03Z</time>
      </trkpt>
      <trkpt lat="43.301029" lon="-5.774469">
        <ele>657.019</ele>
        <time>2015-01-25T14:38:12Z</time>
      </trkpt>
      <trkpt lat="43.300935" lon="-5.774441">
        <ele>658.007</ele>
        <time>2015-01-25T14:38:18Z</time>
      </trkpt>
      <trkpt lat="43.300815" lon="-5.77441">
        <ele>661.045</ele>
        <time>2015-01-25T14:38:27Z</time>
      </trkpt>
      <trkpt lat="43.300692" lon="-5.774351">
        <ele>663.064</ele>
        <time>2015-01-25T14:38:36Z</time>
      </trkpt>
      <trkpt lat="43.300607" lon="-5.774304">
        <ele>661.01</ele>
        <time>2015-01-25T14:38:42Z</time>
      </trkpt>
      <trkpt lat="43.300484" lon="-5.774266">
        <ele>663.013</ele>
        <time>2015-01-25T14:38:51Z</time>
      </trkpt>
      <trkpt lat="43.300402" lon="-5.77421">
        <ele>662.041</ele>
        <time>2015-01-25T14:38:57Z</time>
      </trkpt>
      <trkpt lat="43.300315" lon="-5.774173">
        <ele>664.09</ele>
        <time>2015-01-25T14:39:06Z</time>
      </trkpt>
      <trkpt lat="43.300181" lon="-5.77411">
        <ele>664.087</ele>
        <time>2015-01-25T14:39:15Z</time>
      </trkpt>
      <trkpt lat="43.300084" lon="-5.774">
        <ele>663.045</ele>
        <time>2015-01-25T14:39:24Z</time>
      </trkpt>
      <trkpt lat="43.299996" lon="-5.773914">
        <ele>664.047</ele>
        <time>2015-01-25T14:39:33Z</time>
      </trkpt>
      <trkpt lat="43.299887" lon="-5.773826">
        <ele>664.011</ele>
        <time>2015-01-25T14:39:42Z</time>
      </trkpt>
      <trkpt lat="43.299801" lon="-5.77379">
        <ele>664.007</ele>
        <time>2015-01-25T14:39:48Z</time>
      </trkpt>
      <trkpt lat="43.299711" lon="-5.773729">
        <ele>666.082</ele>
        <time>2015-01-25T14:39:54Z</time>
      </trkpt>
      <trkpt lat="43.299646" lon="-5.773593">
        <ele>669.091</ele>
        <time>2015-01-25T14:40:03Z</time>
      </trkpt>
      <trkpt lat="43.299533" lon="-5.773532">
        <ele>670.077</ele>
        <time>2015-01-25T14:40:12Z</time>
      </trkpt>
      <trkpt lat="43.29944" lon="-5.773489">
        <ele>671.07</ele>
        <time>2015-01-25T14:40:18Z</time>
      </trkpt>
      <trkpt lat="43.299333" lon="-5.77342">
        <ele>673.058</ele>
        <time>2015-01-25T14:40:27Z</time>
      </trkpt>
      <trkpt lat="43.299223" lon="-5.773367">
        <ele>673.017</ele>
        <time>2015-01-25T14:40:36Z</time>
      </trkpt>
      <trkpt lat="43.299147" lon="-5.773291">
        <ele>672.014</ele>
        <time>2015-01-25T14:40:45Z</time>
      </trkpt>
      <trkpt lat="43.299039" lon="-5.773259">
        <ele>671.025</ele>
        <time>2015-01-25T14:40:54Z</time>
      </trkpt>
      <trkpt lat="43.298945" lon="-5.77329">
        <ele>673.026</ele>
        <time>2015-01-25T14:41:00Z</time>
      </trkpt>
      <trkpt lat="43.298838" lon="-5.773349">
        <ele>674.008</ele>
        <time>2015-01-25T14:41:09Z</time>
      </trkpt>
      <trkpt lat="43.298759" lon="-5.773414">
        <ele>676.007</ele>
        <time>2015-01-25T14:41:15Z</time>
      </trkpt>
      <trkpt lat="43.29869" lon="-5.773509">
        <ele>678.03</ele>
        <time>2015-01-25T14:41:24Z</time>
      </trkpt>
      <trkpt lat="43.298597" lon="-5.773577">
        <ele>678.059</ele>
        <time>2015-01-25T14:41:33Z</time>
      </trkpt>
      <trkpt lat="43.298484" lon="-5.773666">
        <ele>676.055</ele>
        <time>2015-01-25T14:41:42Z</time>
      </trkpt>
      <trkpt lat="43.298359" lon="-5.773732">
        <ele>676.098</ele>
        <time>2015-01-25T14:41:51Z</time>
      </trkpt>
      <trkpt lat="43.298264" lon="-5.773768">
        <ele>675.076</ele>
        <time>2015-01-25T14:41:57Z</time>
      </trkpt>
      <trkpt lat="43.298149" lon="-5.773794">
        <ele>677.015</ele>
        <time>2015-01-25T14:42:06Z</time>
      </trkpt>
      <trkpt lat="43.29804" lon="-5.773723">
        <ele>678.082</ele>
        <time>2015-01-25T14:42:15Z</time>
      </trkpt>
      <trkpt lat="43.297955" lon="-5.773668">
        <ele>682.024</ele>
        <time>2015-01-25T14:42:24Z</time>
      </trkpt>
      <trkpt lat="43.297901" lon="-5.773628">
        <ele>687.004</ele>
        <time>2015-01-25T14:42:36Z</time>
      </trkpt>
      <trkpt lat="43.297819" lon="-5.773602">
        <ele>690.014</ele>
        <time>2015-01-25T14:42:48Z</time>
      </trkpt>
      <trkpt lat="43.297758" lon="-5.773596">
        <ele>689.007</ele>
        <time>2015-01-25T14:43:00Z</time>
      </trkpt>
      <trkpt lat="43.297677" lon="-5.773576">
        <ele>693.04</ele>
        <time>2015-01-25T14:43:12Z</time>
      </trkpt>
      <trkpt lat="43.297595" lon="-5.773597">
        <ele>694.029</ele>
        <time>2015-01-25T14:43:24Z</time>
      </trkpt>
      <trkpt lat="43.297523" lon="-5.773597">
        <ele>693.075</ele>
        <time>2015-01-25T14:43:36Z</time>
      </trkpt>
      <trkpt lat="43.297453" lon="-5.773609">
        <ele>691.078</ele>
        <time>2015-01-25T14:43:48Z</time>
      </trkpt>
      <trkpt lat="43.297341" lon="-5.773662">
        <ele>690.046</ele>
        <time>2015-01-25T14:43:54Z</time>
      </trkpt>
      <trkpt lat="43.297241" lon="-5.773688">
        <ele>689.055</ele>
        <time>2015-01-25T14:44:00Z</time>
      </trkpt>
      <trkpt lat="43.297144" lon="-5.773714">
        <ele>691.032</ele>
        <time>2015-01-25T14:44:06Z</time>
      </trkpt>
      <trkpt lat="43.297044" lon="-5.773728">
        <ele>692.027</ele>
        <time>2015-01-25T14:44:12Z</time>
      </trkpt>
      <trkpt lat="43.296905" lon="-5.773739">
        <ele>698.068</ele>
        <time>2015-01-25T14:44:21Z</time>
      </trkpt>
      <trkpt lat="43.296815" lon="-5.773717">
        <ele>701.014</ele>
        <time>2015-01-25T14:44:27Z</time>
      </trkpt>
      <trkpt lat="43.296693" lon="-5.773679">
        <ele>705.007</ele>
        <time>2015-01-25T14:44:36Z</time>
      </trkpt>
      <trkpt lat="43.296649" lon="-5.7737">
        <ele>704.05</ele>
        <time>2015-01-25T14:44:54Z</time>
      </trkpt>
      <trkpt lat="43.296603" lon="-5.773689">
        <ele>704.069</ele>
        <time>2015-01-25T14:45:06Z</time>
      </trkpt>
      <trkpt lat="43.296619" lon="-5.773692">
        <ele>705.065</ele>
        <time>2015-01-25T14:45:36Z</time>
      </trkpt>
      <trkpt lat="43.296575" lon="-5.773666">
        <ele>708.028</ele>
        <time>2015-01-25T14:46:00Z</time>
      </trkpt>
      <trkpt lat="43.296443" lon="-5.773652">
        <ele>708.026</ele>
        <time>2015-01-25T14:46:09Z</time>
      </trkpt>
      <trkpt lat="43.296343" lon="-5.773662">
        <ele>711.025</ele>
        <time>2015-01-25T14:46:15Z</time>
      </trkpt>
      <trkpt lat="43.296231" lon="-5.77363">
        <ele>714.022</ele>
        <time>2015-01-25T14:46:24Z</time>
      </trkpt>
      <trkpt lat="43.296181" lon="-5.773639">
        <ele>718.042</ele>
        <time>2015-01-25T14:46:39Z</time>
      </trkpt>
      <trkpt lat="43.296108" lon="-5.773612">
        <ele>720.022</ele>
        <time>2015-01-25T14:46:51Z</time>
      </trkpt>
      <trkpt lat="43.296103" lon="-5.773624">
        <ele>717.014</ele>
        <time>2015-01-25T14:47:21Z</time>
      </trkpt>
      <trkpt lat="43.296105" lon="-5.773605">
        <ele>716.007</ele>
        <time>2015-01-25T14:47:52Z</time>
      </trkpt>
      <trkpt lat="43.296108" lon="-5.773592">
        <ele>712.082</ele>
        <time>2015-01-25T14:48:23Z</time>
      </trkpt>
      <trkpt lat="43.296119" lon="-5.773599">
        <ele>711.081</ele>
        <time>2015-01-25T14:48:53Z</time>
      </trkpt>
      <trkpt lat="43.296133" lon="-5.773634">
        <ele>711.027</ele>
        <time>2015-01-25T14:49:23Z</time>
      </trkpt>
      <trkpt lat="43.296133" lon="-5.773634">
        <ele>711.01</ele>
        <time>2015-01-25T14:49:53Z</time>
      </trkpt>
      <trkpt lat="43.296129" lon="-5.773652">
        <ele>712.038</ele>
        <time>2015-01-25T14:50:23Z</time>
      </trkpt>
      <trkpt lat="43.296136" lon="-5.773633">
        <ele>712.087</ele>
        <time>2015-01-25T14:50:53Z</time>
      </trkpt>
      <trkpt lat="43.296188" lon="-5.773625">
        <ele>712.014</ele>
        <time>2015-01-25T14:51:14Z</time>
      </trkpt>
      <trkpt lat="43.296176" lon="-5.773628">
        <ele>715.063</ele>
        <time>2015-01-25T14:51:44Z</time>
      </trkpt>
      <trkpt lat="43.296125" lon="-5.77361">
        <ele>717.044</ele>
        <time>2015-01-25T14:51:59Z</time>
      </trkpt>
      <trkpt lat="43.296016" lon="-5.773626">
        <ele>715.018</ele>
        <time>2015-01-25T14:52:11Z</time>
      </trkpt>
      <trkpt lat="43.296006" lon="-5.773651">
        <ele>715.007</ele>
        <time>2015-01-25T14:52:41Z</time>
      </trkpt>
      <trkpt lat="43.295967" lon="-5.773625">
        <ele>713.014</ele>
        <time>2015-01-25T14:53:11Z</time>
      </trkpt>
      <trkpt lat="43.295899" lon="-5.773537">
        <ele>709.013</ele>
        <time>2015-01-25T14:53:17Z</time>
      </trkpt>
      <trkpt lat="43.295814" lon="-5.773444">
        <ele>707.059</ele>
        <time>2015-01-25T14:53:23Z</time>
      </trkpt>
      <trkpt lat="43.295749" lon="-5.773355">
        <ele>704.012</ele>
        <time>2015-01-25T14:53:29Z</time>
      </trkpt>
      <trkpt lat="43.295705" lon="-5.773284">
        <ele>702.04</ele>
        <time>2015-01-25T14:53:41Z</time>
      </trkpt>
      <trkpt lat="43.295632" lon="-5.773112">
        <ele>699.039</ele>
        <time>2015-01-25T14:53:53Z</time>
      </trkpt>
      <trkpt lat="43.295576" lon="-5.772976">
        <ele>699.076</ele>
        <time>2015-01-25T14:53:56Z</time>
      </trkpt>
      <trkpt lat="43.295404" lon="-5.772965">
        <ele>696.084</ele>
        <time>2015-01-25T14:54:02Z</time>
      </trkpt>
      <trkpt lat="43.295311" lon="-5.773022">
        <ele>694.007</ele>
        <time>2015-01-25T14:54:05Z</time>
      </trkpt>
      <trkpt lat="43.29514" lon="-5.772994">
        <ele>690.017</ele>
        <time>2015-01-25T14:54:11Z</time>
      </trkpt>
      <trkpt lat="43.295045" lon="-5.773011">
        <ele>689.007</ele>
        <time>2015-01-25T14:54:14Z</time>
      </trkpt>
      <trkpt lat="43.294941" lon="-5.773008">
        <ele>689.086</ele>
        <time>2015-01-25T14:54:17Z</time>
      </trkpt>
      <trkpt lat="43.29481" lon="-5.772929">
        <ele>687.095</ele>
        <time>2015-01-25T14:54:23Z</time>
      </trkpt>
      <trkpt lat="43.294704" lon="-5.772921">
        <ele>685.031</ele>
        <time>2015-01-25T14:54:29Z</time>
      </trkpt>
      <trkpt lat="43.294564" lon="-5.772891">
        <ele>683.054</ele>
        <time>2015-01-25T14:54:35Z</time>
      </trkpt>
      <trkpt lat="43.294464" lon="-5.772806">
        <ele>683.032</ele>
        <time>2015-01-25T14:54:41Z</time>
      </trkpt>
      <trkpt lat="43.294352" lon="-5.772761">
        <ele>685.021</ele>
        <time>2015-01-25T14:54:53Z</time>
      </trkpt>
      <trkpt lat="43.294239" lon="-5.77274">
        <ele>686.078</ele>
        <time>2015-01-25T14:54:59Z</time>
      </trkpt>
      <trkpt lat="43.294084" lon="-5.772688">
        <ele>687.054</ele>
        <time>2015-01-25T14:55:05Z</time>
      </trkpt>
      <trkpt lat="43.293983" lon="-5.772707">
        <ele>686.056</ele>
        <time>2015-01-25T14:55:08Z</time>
      </trkpt>
      <trkpt lat="43.293893" lon="-5.772696">
        <ele>684.011</ele>
        <time>2015-01-25T14:55:11Z</time>
      </trkpt>
      <trkpt lat="43.293745" lon="-5.772623">
        <ele>682.007</ele>
        <time>2015-01-25T14:55:17Z</time>
      </trkpt>
      <trkpt lat="43.293635" lon="-5.772547">
        <ele>679.043</ele>
        <time>2015-01-25T14:55:23Z</time>
      </trkpt>
      <trkpt lat="43.293536" lon="-5.772551">
        <ele>677.042</ele>
        <time>2015-01-25T14:55:29Z</time>
      </trkpt>
      <trkpt lat="43.29343" lon="-5.772584">
        <ele>678.018</ele>
        <time>2015-01-25T14:55:35Z</time>
      </trkpt>
      <trkpt lat="43.293265" lon="-5.772602">
        <ele>678.051</ele>
        <time>2015-01-25T14:55:41Z</time>
      </trkpt>
      <trkpt lat="43.293158" lon="-5.772619">
        <ele>678.099</ele>
        <time>2015-01-25T14:55:47Z</time>
      </trkpt>
      <trkpt lat="43.29307" lon="-5.772663">
        <ele>678.078</ele>
        <time>2015-01-25T14:55:53Z</time>
      </trkpt>
      <trkpt lat="43.292982" lon="-5.772705">
        <ele>676.065</ele>
        <time>2015-01-25T14:55:59Z</time>
      </trkpt>
      <trkpt lat="43.29288" lon="-5.772724">
        <ele>676.038</ele>
        <time>2015-01-25T14:56:08Z</time>
      </trkpt>
      <trkpt lat="43.292736" lon="-5.772722">
        <ele>674.07</ele>
        <time>2015-01-25T14:56:20Z</time>
      </trkpt>
      <trkpt lat="43.292675" lon="-5.772577">
        <ele>673.017</ele>
        <time>2015-01-25T14:56:26Z</time>
      </trkpt>
      <trkpt lat="43.292656" lon="-5.772487">
        <ele>672.007</ele>
        <time>2015-01-25T14:56:38Z</time>
      </trkpt>
      <trkpt lat="43.292635" lon="-5.772481">
        <ele>670.021</ele>
        <time>2015-01-25T14:57:08Z</time>
      </trkpt>
      <trkpt lat="43.292537" lon="-5.772459">
        <ele>668.03</ele>
        <time>2015-01-25T14:57:17Z</time>
      </trkpt>
      <trkpt lat="43.29246" lon="-5.772493">
        <ele>665.046</ele>
        <time>2015-01-25T14:57:32Z</time>
      </trkpt>
      <trkpt lat="43.292415" lon="-5.77248">
        <ele>664.079</ele>
        <time>2015-01-25T14:57:44Z</time>
      </trkpt>
      <trkpt lat="43.292373" lon="-5.772411">
        <ele>661.047</ele>
        <time>2015-01-25T14:57:56Z</time>
      </trkpt>
      <trkpt lat="43.292331" lon="-5.77236">
        <ele>660.016</ele>
        <time>2015-01-25T14:58:08Z</time>
      </trkpt>
      <trkpt lat="43.292292" lon="-5.7723">
        <ele>655.093</ele>
        <time>2015-01-25T14:58:20Z</time>
      </trkpt>
      <trkpt lat="43.292199" lon="-5.772158">
        <ele>649.043</ele>
        <time>2015-01-25T14:58:32Z</time>
      </trkpt>
      <trkpt lat="43.292121" lon="-5.772009">
        <ele>645.064</ele>
        <time>2015-01-25T14:58:38Z</time>
      </trkpt>
      <trkpt lat="43.292037" lon="-5.771797">
        <ele>640.01</ele>
        <time>2015-01-25T14:58:44Z</time>
      </trkpt>
      <trkpt lat="43.291963" lon="-5.771656">
        <ele>637.007</ele>
        <time>2015-01-25T14:58:50Z</time>
      </trkpt>
      <trkpt lat="43.291874" lon="-5.771573">
        <ele>636.042</ele>
        <time>2015-01-25T14:58:56Z</time>
      </trkpt>
      <trkpt lat="43.291779" lon="-5.771479">
        <ele>637.011</ele>
        <time>2015-01-25T14:59:02Z</time>
      </trkpt>
      <trkpt lat="43.291615" lon="-5.77144">
        <ele>637.097</ele>
        <time>2015-01-25T14:59:08Z</time>
      </trkpt>
      <trkpt lat="43.291523" lon="-5.771431">
        <ele>637.05</ele>
        <time>2015-01-25T14:59:11Z</time>
      </trkpt>
      <trkpt lat="43.291364" lon="-5.771429">
        <ele>637.028</ele>
        <time>2015-01-25T14:59:17Z</time>
      </trkpt>
      <trkpt lat="43.291251" lon="-5.771469">
        <ele>636.017</ele>
        <time>2015-01-25T14:59:23Z</time>
      </trkpt>
      <trkpt lat="43.291104" lon="-5.77142">
        <ele>635.014</ele>
        <time>2015-01-25T14:59:29Z</time>
      </trkpt>
      <trkpt lat="43.290973" lon="-5.771437">
        <ele>632.043</ele>
        <time>2015-01-25T14:59:35Z</time>
      </trkpt>
      <trkpt lat="43.290812" lon="-5.771445">
        <ele>629.064</ele>
        <time>2015-01-25T14:59:41Z</time>
      </trkpt>
      <trkpt lat="43.290641" lon="-5.771354">
        <ele>626.01</ele>
        <time>2015-01-25T14:59:47Z</time>
      </trkpt>
      <trkpt lat="43.290539" lon="-5.771333">
        <ele>624.007</ele>
        <time>2015-01-25T14:59:50Z</time>
      </trkpt>
      <trkpt lat="43.290432" lon="-5.771326">
        <ele>623.062</ele>
        <time>2015-01-25T14:59:53Z</time>
      </trkpt>
      <trkpt lat="43.290343" lon="-5.77131">
        <ele>621.021</ele>
        <time>2015-01-25T14:59:56Z</time>
      </trkpt>
      <trkpt lat="43.290163" lon="-5.771296">
        <ele>618.087</ele>
        <time>2015-01-25T15:00:02Z</time>
      </trkpt>
      <trkpt lat="43.289973" lon="-5.7713">
        <ele>616.03</ele>
        <time>2015-01-25T15:00:08Z</time>
      </trkpt>
      <trkpt lat="43.28987" lon="-5.771261">
        <ele>614.018</ele>
        <time>2015-01-25T15:00:14Z</time>
      </trkpt>
      <trkpt lat="43.289714" lon="-5.771083">
        <ele>612.057</ele>
        <time>2015-01-25T15:00:20Z</time>
      </trkpt>
      <trkpt lat="43.289609" lon="-5.771035">
        <ele>611.094</ele>
        <time>2015-01-25T15:00:23Z</time>
      </trkpt>
      <trkpt lat="43.289508" lon="-5.770995">
        <ele>610.093</ele>
        <time>2015-01-25T15:00:29Z</time>
      </trkpt>
      <trkpt lat="43.289424" lon="-5.770869">
        <ele>609.065</ele>
        <time>2015-01-25T15:00:38Z</time>
      </trkpt>
      <trkpt lat="43.289316" lon="-5.770795">
        <ele>608.021</ele>
        <time>2015-01-25T15:00:44Z</time>
      </trkpt>
      <trkpt lat="43.28917" lon="-5.770836">
        <ele>610.007</ele>
        <time>2015-01-25T15:00:50Z</time>
      </trkpt>
      <trkpt lat="43.289068" lon="-5.770808">
        <ele>609.047</ele>
        <time>2015-01-25T15:00:53Z</time>
      </trkpt>
      <trkpt lat="43.288911" lon="-5.770779">
        <ele>608.066</ele>
        <time>2015-01-25T15:00:59Z</time>
      </trkpt>
      <trkpt lat="43.288809" lon="-5.77077">
        <ele>610.052</ele>
        <time>2015-01-25T15:01:05Z</time>
      </trkpt>
      <trkpt lat="43.288714" lon="-5.770771">
        <ele>611.045</ele>
        <time>2015-01-25T15:01:14Z</time>
      </trkpt>
      <trkpt lat="43.288659" lon="-5.770812">
        <ele>613.033</ele>
        <time>2015-01-25T15:01:26Z</time>
      </trkpt>
      <trkpt lat="43.288592" lon="-5.770889">
        <ele>613.052</ele>
        <time>2015-01-25T15:01:38Z</time>
      </trkpt>
      <trkpt lat="43.288518" lon="-5.77084">
        <ele>614.019</ele>
        <time>2015-01-25T15:01:50Z</time>
      </trkpt>
      <trkpt lat="43.288431" lon="-5.770879">
        <ele>614.079</ele>
        <time>2015-01-25T15:02:02Z</time>
      </trkpt>
      <trkpt lat="43.288312" lon="-5.770897">
        <ele>613.005</ele>
        <time>2015-01-25T15:02:08Z</time>
      </trkpt>
      <trkpt lat="43.28822" lon="-5.770936">
        <ele>613.025</ele>
        <time>2015-01-25T15:02:14Z</time>
      </trkpt>
      <trkpt lat="43.288154" lon="-5.77102">
        <ele>613.007</ele>
        <time>2015-01-25T15:02:20Z</time>
      </trkpt>
      <trkpt lat="43.288105" lon="-5.771078">
        <ele>614.065</ele>
        <time>2015-01-25T15:02:32Z</time>
      </trkpt>
      <trkpt lat="43.288011" lon="-5.771176">
        <ele>613.024</ele>
        <time>2015-01-25T15:02:38Z</time>
      </trkpt>
      <trkpt lat="43.287889" lon="-5.771326">
        <ele>609.08</ele>
        <time>2015-01-25T15:02:44Z</time>
      </trkpt>
      <trkpt lat="43.287844" lon="-5.771445">
        <ele>607.063</ele>
        <time>2015-01-25T15:02:47Z</time>
      </trkpt>
      <trkpt lat="43.287764" lon="-5.771623">
        <ele>606.061</ele>
        <time>2015-01-25T15:02:53Z</time>
      </trkpt>
      <trkpt lat="43.287722" lon="-5.771764">
        <ele>606.07</ele>
        <time>2015-01-25T15:02:59Z</time>
      </trkpt>
      <trkpt lat="43.287671" lon="-5.771901">
        <ele>605.017</ele>
        <time>2015-01-25T15:03:05Z</time>
      </trkpt>
      <trkpt lat="43.28761" lon="-5.771996">
        <ele>605.079</ele>
        <time>2015-01-25T15:03:11Z</time>
      </trkpt>
      <trkpt lat="43.287564" lon="-5.772105">
        <ele>607.005</ele>
        <time>2015-01-25T15:03:17Z</time>
      </trkpt>
      <trkpt lat="43.287504" lon="-5.772218">
        <ele>609.025</ele>
        <time>2015-01-25T15:03:23Z</time>
      </trkpt>
      <trkpt lat="43.287437" lon="-5.772316">
        <ele>612.007</ele>
        <time>2015-01-25T15:03:29Z</time>
      </trkpt>
      <trkpt lat="43.287361" lon="-5.77241">
        <ele>614.025</ele>
        <time>2015-01-25T15:03:35Z</time>
      </trkpt>
      <trkpt lat="43.287284" lon="-5.772544">
        <ele>618.074</ele>
        <time>2015-01-25T15:03:44Z</time>
      </trkpt>
      <trkpt lat="43.287225" lon="-5.772688">
        <ele>619.04</ele>
        <time>2015-01-25T15:03:53Z</time>
      </trkpt>
      <trkpt lat="43.287188" lon="-5.772828">
        <ele>618.063</ele>
        <time>2015-01-25T15:04:02Z</time>
      </trkpt>
      <trkpt lat="43.287153" lon="-5.772984">
        <ele>618.071</ele>
        <time>2015-01-25T15:04:11Z</time>
      </trkpt>
      <trkpt lat="43.287105" lon="-5.7731">
        <ele>618.09</ele>
        <time>2015-01-25T15:04:20Z</time>
      </trkpt>
      <trkpt lat="43.28704" lon="-5.773244">
        <ele>619.057</ele>
        <time>2015-01-25T15:04:29Z</time>
      </trkpt>
      <trkpt lat="43.28699" lon="-5.773399">
        <ele>619.056</ele>
        <time>2015-01-25T15:04:38Z</time>
      </trkpt>
      <trkpt lat="43.28692" lon="-5.773534">
        <ele>620.059</ele>
        <time>2015-01-25T15:04:47Z</time>
      </trkpt>
      <trkpt lat="43.286844" lon="-5.773678">
        <ele>620.014</ele>
        <time>2015-01-25T15:04:56Z</time>
      </trkpt>
      <trkpt lat="43.286808" lon="-5.773797">
        <ele>623.007</ele>
        <time>2015-01-25T15:05:02Z</time>
      </trkpt>
      <trkpt lat="43.286751" lon="-5.77393">
        <ele>628.063</ele>
        <time>2015-01-25T15:05:11Z</time>
      </trkpt>
      <trkpt lat="43.286731" lon="-5.774008">
        <ele>627.062</ele>
        <time>2015-01-25T15:05:23Z</time>
      </trkpt>
      <trkpt lat="43.286711" lon="-5.774081">
        <ele>629.088</ele>
        <time>2015-01-25T15:05:35Z</time>
      </trkpt>
      <trkpt lat="43.286682" lon="-5.774155">
        <ele>630.051</ele>
        <time>2015-01-25T15:05:47Z</time>
      </trkpt>
      <trkpt lat="43.286577" lon="-5.774236">
        <ele>632.019</ele>
        <time>2015-01-25T15:05:56Z</time>
      </trkpt>
      <trkpt lat="43.286458" lon="-5.774301">
        <ele>631.098</ele>
        <time>2015-01-25T15:06:05Z</time>
      </trkpt>
      <trkpt lat="43.286371" lon="-5.774388">
        <ele>631.085</ele>
        <time>2015-01-25T15:06:14Z</time>
      </trkpt>
      <trkpt lat="43.28628" lon="-5.774474">
        <ele>631.058</ele>
        <time>2015-01-25T15:06:23Z</time>
      </trkpt>
      <trkpt lat="43.2862" lon="-5.774557">
        <ele>631.052</ele>
        <time>2015-01-25T15:06:29Z</time>
      </trkpt>
      <trkpt lat="43.286116" lon="-5.774634">
        <ele>630.017</ele>
        <time>2015-01-25T15:06:35Z</time>
      </trkpt>
      <trkpt lat="43.28603" lon="-5.77467">
        <ele>630.007</ele>
        <time>2015-01-25T15:06:41Z</time>
      </trkpt>
      <trkpt lat="43.285983" lon="-5.774684">
        <ele>630.033</ele>
        <time>2015-01-25T15:07:08Z</time>
      </trkpt>
      <trkpt lat="43.285935" lon="-5.774736">
        <ele>629.042</ele>
        <time>2015-01-25T15:07:20Z</time>
      </trkpt>
      <trkpt lat="43.285843" lon="-5.774776">
        <ele>631.038</ele>
        <time>2015-01-25T15:07:32Z</time>
      </trkpt>
      <trkpt lat="43.285753" lon="-5.774811">
        <ele>631.051</ele>
        <time>2015-01-25T15:07:38Z</time>
      </trkpt>
      <trkpt lat="43.285659" lon="-5.774841">
        <ele>632.089</ele>
        <time>2015-01-25T15:07:44Z</time>
      </trkpt>
      <trkpt lat="43.285576" lon="-5.774898">
        <ele>633.088</ele>
        <time>2015-01-25T15:07:50Z</time>
      </trkpt>
      <trkpt lat="43.285489" lon="-5.774954">
        <ele>634.065</ele>
        <time>2015-01-25T15:07:56Z</time>
      </trkpt>
      <trkpt lat="43.285392" lon="-5.774992">
        <ele>633.053</ele>
        <time>2015-01-25T15:08:02Z</time>
      </trkpt>
      <trkpt lat="43.285283" lon="-5.77508">
        <ele>633.004</ele>
        <time>2015-01-25T15:08:08Z</time>
      </trkpt>
      <trkpt lat="43.285061" lon="-5.77518">
        <ele>631.014</ele>
        <time>2015-01-25T15:08:14Z</time>
      </trkpt>
      <trkpt lat="43.28491" lon="-5.775255">
        <ele>631.007</ele>
        <time>2015-01-25T15:08:17Z</time>
      </trkpt>
      <trkpt lat="43.284765" lon="-5.775308">
        <ele>630.023</ele>
        <time>2015-01-25T15:08:20Z</time>
      </trkpt>
      <trkpt lat="43.284642" lon="-5.775412">
        <ele>628.042</ele>
        <time>2015-01-25T15:08:23Z</time>
      </trkpt>
      <trkpt lat="43.284593" lon="-5.775541">
        <ele>619.028</ele>
        <time>2015-01-25T15:08:26Z</time>
      </trkpt>
      <trkpt lat="43.284501" lon="-5.775626">
        <ele>618.061</ele>
        <time>2015-01-25T15:08:29Z</time>
      </trkpt>
      <trkpt lat="43.284371" lon="-5.775713">
        <ele>618.059</ele>
        <time>2015-01-25T15:08:35Z</time>
      </trkpt>
      <trkpt lat="43.284279" lon="-5.77583">
        <ele>622.098</ele>
        <time>2015-01-25T15:08:41Z</time>
      </trkpt>
      <trkpt lat="43.284181" lon="-5.775962">
        <ele>624.045</ele>
        <time>2015-01-25T15:08:47Z</time>
      </trkpt>
      <trkpt lat="43.284072" lon="-5.776092">
        <ele>628.097</ele>
        <time>2015-01-25T15:08:53Z</time>
      </trkpt>
      <trkpt lat="43.283963" lon="-5.776198">
        <ele>629.023</ele>
        <time>2015-01-25T15:08:59Z</time>
      </trkpt>
      <trkpt lat="43.283897" lon="-5.776297">
        <ele>629.025</ele>
        <time>2015-01-25T15:09:05Z</time>
      </trkpt>
      <trkpt lat="43.283838" lon="-5.776411">
        <ele>628.007</ele>
        <time>2015-01-25T15:09:17Z</time>
      </trkpt>
      <trkpt lat="43.283757" lon="-5.776545">
        <ele>627.097</ele>
        <time>2015-01-25T15:09:23Z</time>
      </trkpt>
      <trkpt lat="43.283686" lon="-5.776712">
        <ele>624.026</ele>
        <time>2015-01-25T15:09:29Z</time>
      </trkpt>
      <trkpt lat="43.283628" lon="-5.776884">
        <ele>621.052</ele>
        <time>2015-01-25T15:09:35Z</time>
      </trkpt>
      <trkpt lat="43.283616" lon="-5.776954">
        <ele>621.025</ele>
        <time>2015-01-25T15:09:47Z</time>
      </trkpt>
      <trkpt lat="43.28361" lon="-5.777025">
        <ele>620.033</ele>
        <time>2015-01-25T15:10:11Z</time>
      </trkpt>
      <trkpt lat="43.283558" lon="-5.777102">
        <ele>621.072</ele>
        <time>2015-01-25T15:10:32Z</time>
      </trkpt>
      <trkpt lat="43.28352" lon="-5.77722">
        <ele>621.079</ele>
        <time>2015-01-25T15:10:38Z</time>
      </trkpt>
      <trkpt lat="43.283477" lon="-5.777337">
        <ele>624.032</ele>
        <time>2015-01-25T15:10:44Z</time>
      </trkpt>
      <trkpt lat="43.283383" lon="-5.777418">
        <ele>627.092</ele>
        <time>2015-01-25T15:10:50Z</time>
      </trkpt>
      <trkpt lat="43.283291" lon="-5.777461">
        <ele>628.011</ele>
        <time>2015-01-25T15:10:56Z</time>
      </trkpt>
      <trkpt lat="43.28317" lon="-5.777519">
        <ele>629.007</ele>
        <time>2015-01-25T15:11:05Z</time>
      </trkpt>
      <trkpt lat="43.283056" lon="-5.777585">
        <ele>631.061</ele>
        <time>2015-01-25T15:11:14Z</time>
      </trkpt>
      <trkpt lat="43.28298" lon="-5.777654">
        <ele>631.04</ele>
        <time>2015-01-25T15:11:20Z</time>
      </trkpt>
      <trkpt lat="43.282917" lon="-5.777744">
        <ele>630.096</ele>
        <time>2015-01-25T15:11:26Z</time>
      </trkpt>
      <trkpt lat="43.282799" lon="-5.777833">
        <ele>632.089</ele>
        <time>2015-01-25T15:11:32Z</time>
      </trkpt>
      <trkpt lat="43.282676" lon="-5.777942">
        <ele>634.027</ele>
        <time>2015-01-25T15:11:38Z</time>
      </trkpt>
      <trkpt lat="43.282555" lon="-5.778115">
        <ele>629.076</ele>
        <time>2015-01-25T15:11:44Z</time>
      </trkpt>
      <trkpt lat="43.282506" lon="-5.778238">
        <ele>628.063</ele>
        <time>2015-01-25T15:11:47Z</time>
      </trkpt>
      <trkpt lat="43.28246" lon="-5.778354">
        <ele>627.024</ele>
        <time>2015-01-25T15:11:50Z</time>
      </trkpt>
      <trkpt lat="43.282403" lon="-5.778487">
        <ele>626.004</ele>
        <time>2015-01-25T15:11:53Z</time>
      </trkpt>
      <trkpt lat="43.282325" lon="-5.778616">
        <ele>626.014</ele>
        <time>2015-01-25T15:11:56Z</time>
      </trkpt>
      <trkpt lat="43.282247" lon="-5.778791">
        <ele>626.007</ele>
        <time>2015-01-25T15:12:02Z</time>
      </trkpt>
      <trkpt lat="43.282163" lon="-5.778957">
        <ele>628.07</ele>
        <time>2015-01-25T15:12:08Z</time>
      </trkpt>
      <trkpt lat="43.282075" lon="-5.779138">
        <ele>632.029</ele>
        <time>2015-01-25T15:12:14Z</time>
      </trkpt>
      <trkpt lat="43.281995" lon="-5.77933">
        <ele>634.015</ele>
        <time>2015-01-25T15:12:20Z</time>
      </trkpt>
      <trkpt lat="43.281915" lon="-5.77951">
        <ele>635.098</ele>
        <time>2015-01-25T15:12:26Z</time>
      </trkpt>
      <trkpt lat="43.281796" lon="-5.779725">
        <ele>634.096</ele>
        <time>2015-01-25T15:12:32Z</time>
      </trkpt>
      <trkpt lat="43.281729" lon="-5.779883">
        <ele>631.035</ele>
        <time>2015-01-25T15:12:35Z</time>
      </trkpt>
      <trkpt lat="43.281687" lon="-5.780002">
        <ele>630.062</ele>
        <time>2015-01-25T15:12:38Z</time>
      </trkpt>
      <trkpt lat="43.281602" lon="-5.780257">
        <ele>628.035</ele>
        <time>2015-01-25T15:12:44Z</time>
      </trkpt>
      <trkpt lat="43.281555" lon="-5.780385">
        <ele>627.086</ele>
        <time>2015-01-25T15:12:47Z</time>
      </trkpt>
      <trkpt lat="43.281469" lon="-5.780542">
        <ele>628.014</ele>
        <time>2015-01-25T15:12:53Z</time>
      </trkpt>
      <trkpt lat="43.281383" lon="-5.780628">
        <ele>628.007</ele>
        <time>2015-01-25T15:12:59Z</time>
      </trkpt>
      <trkpt lat="43.28131" lon="-5.780705">
        <ele>630.011</ele>
        <time>2015-01-25T15:13:05Z</time>
      </trkpt>
      <trkpt lat="43.281241" lon="-5.78079">
        <ele>632.07</ele>
        <time>2015-01-25T15:13:11Z</time>
      </trkpt>
      <trkpt lat="43.281166" lon="-5.780926">
        <ele>634.056</ele>
        <time>2015-01-25T15:13:20Z</time>
      </trkpt>
      <trkpt lat="43.28111" lon="-5.781076">
        <ele>636.039</ele>
        <time>2015-01-25T15:13:32Z</time>
      </trkpt>
      <trkpt lat="43.28104" lon="-5.781219">
        <ele>637.057</ele>
        <time>2015-01-25T15:13:41Z</time>
      </trkpt>
      <trkpt lat="43.280891" lon="-5.781281">
        <ele>637.046</ele>
        <time>2015-01-25T15:13:50Z</time>
      </trkpt>
      <trkpt lat="43.280792" lon="-5.78138">
        <ele>638.033</ele>
        <time>2015-01-25T15:13:56Z</time>
      </trkpt>
      <trkpt lat="43.280692" lon="-5.781502">
        <ele>637.047</ele>
        <time>2015-01-25T15:14:02Z</time>
      </trkpt>
      <trkpt lat="43.280572" lon="-5.781623">
        <ele>636.029</ele>
        <time>2015-01-25T15:14:08Z</time>
      </trkpt>
      <trkpt lat="43.280478" lon="-5.781728">
        <ele>638.021</ele>
        <time>2015-01-25T15:14:14Z</time>
      </trkpt>
      <trkpt lat="43.280403" lon="-5.78185">
        <ele>640.007</ele>
        <time>2015-01-25T15:14:20Z</time>
      </trkpt>
      <trkpt lat="43.280332" lon="-5.78195">
        <ele>640.012</ele>
        <time>2015-01-25T15:14:26Z</time>
      </trkpt>
      <trkpt lat="43.280277" lon="-5.782062">
        <ele>642.091</ele>
        <time>2015-01-25T15:14:32Z</time>
      </trkpt>
      <trkpt lat="43.280193" lon="-5.78219">
        <ele>643.067</ele>
        <time>2015-01-25T15:14:38Z</time>
      </trkpt>
      <trkpt lat="43.280053" lon="-5.782331">
        <ele>642.01</ele>
        <time>2015-01-25T15:14:44Z</time>
      </trkpt>
      <trkpt lat="43.279964" lon="-5.782369">
        <ele>641.078</ele>
        <time>2015-01-25T15:14:47Z</time>
      </trkpt>
      <trkpt lat="43.279868" lon="-5.782382">
        <ele>642.017</ele>
        <time>2015-01-25T15:14:50Z</time>
      </trkpt>
      <trkpt lat="43.279697" lon="-5.782463">
        <ele>642.034</ele>
        <time>2015-01-25T15:14:56Z</time>
      </trkpt>
      <trkpt lat="43.279585" lon="-5.782555">
        <ele>640.066</ele>
        <time>2015-01-25T15:14:59Z</time>
      </trkpt>
      <trkpt lat="43.279465" lon="-5.782645">
        <ele>638.029</ele>
        <time>2015-01-25T15:15:05Z</time>
      </trkpt>
      <trkpt lat="43.279425" lon="-5.782783">
        <ele>635.021</ele>
        <time>2015-01-25T15:15:11Z</time>
      </trkpt>
      <trkpt lat="43.278632" lon="-5.784157">
        <ele>610.177</ele>
        <time>2013-12-28T12:03:12Z</time>
      </trkpt>
      <trkpt lat="43.278685" lon="-5.784718">
        <ele>602.91</ele>
        <time>2013-12-28T12:03:21Z</time>
      </trkpt>
      <trkpt lat="43.278646" lon="-5.785235">
        <ele>598.187</ele>
        <time>2013-12-28T12:03:32Z</time>
      </trkpt>
      <trkpt lat="43.278637" lon="-5.785281">
        <ele>597.642</ele>
        <time>2013-12-28T12:03:33Z</time>
      </trkpt>
      <trkpt lat="43.278524" lon="-5.785807">
        <ele>593.32</ele>
        <time>2013-12-28T12:03:42Z</time>
      </trkpt>
      <trkpt lat="43.278515" lon="-5.785855">
        <ele>592.842</ele>
        <time>2013-12-28T12:03:43Z</time>
      </trkpt>
      <trkpt lat="43.278585" lon="-5.786083">
        <ele>590.474</ele>
        <time>2013-12-28T12:03:49Z</time>
      </trkpt>
      <trkpt lat="43.278719" lon="-5.786199">
        <ele>587.531</ele>
        <time>2013-12-28T12:03:53Z</time>
      </trkpt>
      <trkpt lat="43.278787" lon="-5.786337">
        <ele>586.161</ele>
        <time>2013-12-28T12:03:56Z</time>
      </trkpt>
      <trkpt lat="43.278949" lon="-5.786474">
        <ele>584.107</ele>
        <time>2013-12-28T12:04:00Z</time>
      </trkpt>
      <trkpt lat="43.279018" lon="-5.786526">
        <ele>583.707</ele>
        <time>2013-12-28T12:04:02Z</time>
      </trkpt>
      <trkpt lat="43.27888" lon="-5.786627">
        <ele>580.378</ele>
        <time>2013-12-28T12:04:09Z</time>
      </trkpt>
      <trkpt lat="43.278803" lon="-5.786597">
        <ele>579.351</ele>
        <time>2013-12-28T12:04:11Z</time>
      </trkpt>
      <trkpt lat="43.278623" lon="-5.786554">
        <ele>577.448</ele>
        <time>2013-12-28T12:04:15Z</time>
      </trkpt>
      <trkpt lat="43.278499" lon="-5.786541">
        <ele>576.493</ele>
        <time>2013-12-28T12:04:18Z</time>
      </trkpt>
      <trkpt lat="43.278277" lon="-5.786585">
        <ele>574.041</ele>
        <time>2013-12-28T12:04:22Z</time>
      </trkpt>
      <trkpt lat="43.278119" lon="-5.786438">
        <ele>572.653</ele>
        <time>2013-12-28T12:04:28Z</time>
      </trkpt>
      <trkpt lat="43.277972" lon="-5.785787">
        <ele>565.935</ele>
        <time>2013-12-28T12:04:37Z</time>
      </trkpt>
      <trkpt lat="43.27784" lon="-5.785748">
        <ele>563.066</ele>
        <time>2013-12-28T12:04:43Z</time>
      </trkpt>
      <trkpt lat="43.277749" lon="-5.785686">
        <ele>561.529</ele>
        <time>2013-12-28T12:04:55Z</time>
      </trkpt>
      <trkpt lat="43.277697" lon="-5.785611">
        <ele>561.121</ele>
        <time>2013-12-28T12:05:04Z</time>
      </trkpt>
      <trkpt lat="43.277565" lon="-5.785405">
        <ele>559.607</ele>
        <time>2013-12-28T12:05:11Z</time>
      </trkpt>
      <trkpt lat="43.277239" lon="-5.785326">
        <ele>554.321</ele>
        <time>2013-12-28T12:05:22Z</time>
      </trkpt>
      <trkpt lat="43.276931" lon="-5.785029">
        <ele>560.614</ele>
        <time>2013-12-28T12:05:35Z</time>
      </trkpt>
      <trkpt lat="43.276674" lon="-5.784968">
        <ele>555.331</ele>
        <time>2013-12-28T12:05:45Z</time>
      </trkpt>
      <trkpt lat="43.276518" lon="-5.78502">
        <ele>552.436</ele>
        <time>2013-12-28T12:05:49Z</time>
      </trkpt>
      <trkpt lat="43.276195" lon="-5.784934">
        <ele>549.164</ele>
        <time>2013-12-28T12:06:00Z</time>
      </trkpt>
      <trkpt lat="43.276142" lon="-5.784923">
        <ele>549.156</ele>
        <time>2013-12-28T12:06:05Z</time>
      </trkpt>
      <trkpt lat="43.275729" lon="-5.784741">
        <ele>550.558</ele>
        <time>2013-12-28T12:06:18Z</time>
      </trkpt>
      <trkpt lat="43.275312" lon="-5.784448">
        <ele>551.548</ele>
        <time>2013-12-28T12:06:31Z</time>
      </trkpt>
      <trkpt lat="43.275245" lon="-5.784439">
        <ele>552.461</ele>
        <time>2013-12-28T12:06:34Z</time>
      </trkpt>
      <trkpt lat="43.275159" lon="-5.784484">
        <ele>553.917</ele>
        <time>2013-12-28T12:06:45Z</time>
      </trkpt>
      <trkpt lat="43.274902" lon="-5.784587">
        <ele>555.307</ele>
        <time>2013-12-28T12:06:58Z</time>
      </trkpt>
      <trkpt lat="43.274774" lon="-5.784585">
        <ele>554.839</ele>
        <time>2013-12-28T12:07:10Z</time>
      </trkpt>
      <trkpt lat="43.274652" lon="-5.784657">
        <ele>553.992</ele>
        <time>2013-12-28T12:07:44Z</time>
      </trkpt>
      <trkpt lat="43.274287" lon="-5.784952">
        <ele>548.139</ele>
        <time>2013-12-28T12:07:57Z</time>
      </trkpt>
      <trkpt lat="43.274236" lon="-5.784906">
        <ele>546.634</ele>
        <time>2013-12-28T12:08:01Z</time>
      </trkpt>
      <trkpt lat="43.274146" lon="-5.78485">
        <ele>543.892</ele>
        <time>2013-12-28T12:08:12Z</time>
      </trkpt>
      <trkpt lat="43.273904" lon="-5.784795">
        <ele>536.154</ele>
        <time>2013-12-28T12:08:26Z</time>
      </trkpt>
      <trkpt lat="43.273723" lon="-5.784679">
        <ele>531.336</ele>
        <time>2013-12-28T12:08:37Z</time>
      </trkpt>
      <trkpt lat="43.273574" lon="-5.784544">
        <ele>527.486</ele>
        <time>2013-12-28T12:08:43Z</time>
      </trkpt>
      <trkpt lat="43.273151" lon="-5.784615">
        <ele>521.26</ele>
        <time>2013-12-28T12:08:54Z</time>
      </trkpt>
      <trkpt lat="43.272718" lon="-5.784574">
        <ele>511.126</ele>
        <time>2013-12-28T12:09:06Z</time>
      </trkpt>
      <trkpt lat="43.272571" lon="-5.784737">
        <ele>507.707</ele>
        <time>2013-12-28T12:09:13Z</time>
      </trkpt>
      <trkpt lat="43.272372" lon="-5.784856">
        <ele>501.573</ele>
        <time>2013-12-28T12:09:24Z</time>
      </trkpt>
      <trkpt lat="43.271864" lon="-5.784776">
        <ele>490.956</ele>
        <time>2013-12-28T12:09:38Z</time>
      </trkpt>
      <trkpt lat="43.271668" lon="-5.784763">
        <ele>488.583</ele>
        <time>2013-12-28T12:09:43Z</time>
      </trkpt>
      <trkpt lat="43.271574" lon="-5.78475">
        <ele>487.568</ele>
        <time>2013-12-28T12:09:45Z</time>
      </trkpt>
      <trkpt lat="43.271436" lon="-5.784748">
        <ele>486.166</ele>
        <time>2013-12-28T12:09:48Z</time>
      </trkpt>
      <trkpt lat="43.271152" lon="-5.784359">
        <ele>480.878</ele>
        <time>2013-12-28T12:09:58Z</time>
      </trkpt>
      <trkpt lat="43.270901" lon="-5.784188">
        <ele>472.14</ele>
        <time>2013-12-28T12:10:08Z</time>
      </trkpt>
      <trkpt lat="43.270686" lon="-5.784085">
        <ele>463.536</ele>
        <time>2013-12-28T12:10:18Z</time>
      </trkpt>
      <trkpt lat="43.270358" lon="-5.784158">
        <ele>454.417</ele>
        <time>2013-12-28T12:10:30Z</time>
      </trkpt>
      <trkpt lat="43.27008" lon="-5.78433">
        <ele>449.118</ele>
        <time>2013-12-28T12:10:39Z</time>
      </trkpt>
      <trkpt lat="43.269922" lon="-5.784373">
        <ele>447.607</ele>
        <time>2013-12-28T12:10:43Z</time>
      </trkpt>
      <trkpt lat="43.269826" lon="-5.784315">
        <ele>447.678</ele>
        <time>2013-12-28T12:10:54Z</time>
      </trkpt>
      <trkpt lat="43.269793" lon="-5.784068">
        <ele>448.141</ele>
        <time>2013-12-28T12:11:02Z</time>
      </trkpt>
      <trkpt lat="43.269803" lon="-5.783886">
        <ele>443.828</ele>
        <time>2013-12-28T12:11:05Z</time>
      </trkpt>
      <trkpt lat="43.269696" lon="-5.783769">
        <ele>439.513</ele>
        <time>2013-12-28T12:11:09Z</time>
      </trkpt>
      <trkpt lat="43.269555" lon="-5.783687">
        <ele>436.131</ele>
        <time>2013-12-28T12:11:12Z</time>
      </trkpt>
      <trkpt lat="43.269407" lon="-5.783756">
        <ele>431.813</ele>
        <time>2013-12-28T12:11:16Z</time>
      </trkpt>
      <trkpt lat="43.269329" lon="-5.78386">
        <ele>427.925</ele>
        <time>2013-12-28T12:11:19Z</time>
      </trkpt>
      <trkpt lat="43.269232" lon="-5.783946">
        <ele>425.037</ele>
        <time>2013-12-28T12:11:22Z</time>
      </trkpt>
      <trkpt lat="43.269194" lon="-5.784133">
        <ele>423.649</ele>
        <time>2013-12-28T12:11:27Z</time>
      </trkpt>
      <trkpt lat="43.269212" lon="-5.784314">
        <ele>424.113</ele>
        <time>2013-12-28T12:11:31Z</time>
      </trkpt>
      <trkpt lat="43.269187" lon="-5.784417">
        <ele>423.107</ele>
        <time>2013-12-28T12:11:34Z</time>
      </trkpt>
      <trkpt lat="43.269222" lon="-5.784558">
        <ele>419.838</ele>
        <time>2013-12-28T12:11:38Z</time>
      </trkpt>
      <trkpt lat="43.269333" lon="-5.784844">
        <ele>414.921</ele>
        <time>2013-12-28T12:11:46Z</time>
      </trkpt>
      <trkpt lat="43.269176" lon="-5.785268">
        <ele>407.728</ele>
        <time>2013-12-28T12:11:56Z</time>
      </trkpt>
      <trkpt lat="43.268975" lon="-5.785552">
        <ele>400.023</ele>
        <time>2013-12-28T12:12:05Z</time>
      </trkpt>
      <trkpt lat="43.268771" lon="-5.785579">
        <ele>394.391</ele>
        <time>2013-12-28T12:12:12Z</time>
      </trkpt>
      <trkpt lat="43.268121" lon="-5.785424">
        <ele>385.623</ele>
        <time>2013-12-28T12:12:22Z</time>
      </trkpt>
      <trkpt lat="43.263126" lon="-5.781492">
        <ele>205.28</ele>
        <time>2016-06-05T11:26:14Z</time>
      </trkpt>
      <trkpt lat="43.262974" lon="-5.781277">
        <ele>205.22</ele>
        <time>2016-06-05T11:26:18Z</time>
      </trkpt>
      <trkpt lat="43.262908" lon="-5.781221">
        <ele>205.44</ele>
        <time>2016-06-05T11:26:20Z</time>
      </trkpt>
      <trkpt lat="43.262886" lon="-5.781188">
        <ele>205.86</ele>
        <time>2016-06-05T11:26:21Z</time>
      </trkpt>
      <trkpt lat="43.262901" lon="-5.781096">
        <ele>206.42</ele>
        <time>2016-06-05T11:26:23Z</time>
      </trkpt>
      <trkpt lat="43.262943" lon="-5.781034">
        <ele>206.89</ele>
        <time>2016-06-05T11:26:24Z</time>
      </trkpt>
      <trkpt lat="43.263004" lon="-5.780969">
        <ele>207.44</ele>
        <time>2016-06-05T11:26:25Z</time>
      </trkpt>
      <trkpt lat="43.263096" lon="-5.78091">
        <ele>208.23</ele>
        <time>2016-06-05T11:26:26Z</time>
      </trkpt>
      <trkpt lat="43.263309" lon="-5.780844">
        <ele>209.5</ele>
        <time>2016-06-05T11:26:28Z</time>
      </trkpt>
      <trkpt lat="43.263415" lon="-5.780821">
        <ele>210.89</ele>
        <time>2016-06-05T11:26:29Z</time>
      </trkpt>
      <trkpt lat="43.263519" lon="-5.780782">
        <ele>211.21</ele>
        <time>2016-06-05T11:26:30Z</time>
      </trkpt>
      <trkpt lat="43.263773" lon="-5.78052">
        <ele>211.41</ele>
        <time>2016-06-05T11:26:33Z</time>
      </trkpt>
      <trkpt lat="43.263934" lon="-5.780317">
        <ele>210.69</ele>
        <time>2016-06-05T11:26:35Z</time>
      </trkpt>
      <trkpt lat="43.264127" lon="-5.780174">
        <ele>211.44</ele>
        <time>2016-06-05T11:26:37Z</time>
      </trkpt>
      <trkpt lat="43.264321" lon="-5.780037">
        <ele>212.25</ele>
        <time>2016-06-05T11:26:39Z</time>
      </trkpt>
      <trkpt lat="43.264409" lon="-5.779929">
        <ele>212.08</ele>
        <time>2016-06-05T11:26:40Z</time>
      </trkpt>
      <trkpt lat="43.264575" lon="-5.779677">
        <ele>212.85</ele>
        <time>2016-06-05T11:26:42Z</time>
      </trkpt>
      <trkpt lat="43.264671" lon="-5.779565">
        <ele>214.04</ele>
        <time>2016-06-05T11:26:43Z</time>
      </trkpt>
      <trkpt lat="43.264777" lon="-5.779464">
        <ele>214.86</ele>
        <time>2016-06-05T11:26:44Z</time>
      </trkpt>
      <trkpt lat="43.264996" lon="-5.779277">
        <ele>216.46</ele>
        <time>2016-06-05T11:26:46Z</time>
      </trkpt>
      <trkpt lat="43.265327" lon="-5.779009">
        <ele>217.85</ele>
        <time>2016-06-05T11:26:49Z</time>
      </trkpt>
      <trkpt lat="43.265431" lon="-5.778909">
        <ele>218.22</ele>
        <time>2016-06-05T11:26:50Z</time>
      </trkpt>
      <trkpt lat="43.265541" lon="-5.778829">
        <ele>219.21</ele>
        <time>2016-06-05T11:26:51Z</time>
      </trkpt>
      <trkpt lat="43.265661" lon="-5.778787">
        <ele>221.01</ele>
        <time>2016-06-05T11:26:52Z</time>
      </trkpt>
      <trkpt lat="43.265784" lon="-5.778766">
        <ele>221.63</ele>
        <time>2016-06-05T11:26:53Z</time>
      </trkpt>
      <trkpt lat="43.265909" lon="-5.778746">
        <ele>223.43</ele>
        <time>2016-06-05T11:26:54Z</time>
      </trkpt>
      <trkpt lat="43.266035" lon="-5.778726">
        <ele>224.63</ele>
        <time>2016-06-05T11:26:55Z</time>
      </trkpt>
      <trkpt lat="43.26616" lon="-5.778708">
        <ele>226.26</ele>
        <time>2016-06-05T11:26:56Z</time>
      </trkpt>
      <trkpt lat="43.266287" lon="-5.778685">
        <ele>226.61</ele>
        <time>2016-06-05T11:26:57Z</time>
      </trkpt>
      <trkpt lat="43.266413" lon="-5.778653">
        <ele>226.83</ele>
        <time>2016-06-05T11:26:58Z</time>
      </trkpt>
      <trkpt lat="43.266536" lon="-5.778599">
        <ele>227.26</ele>
        <time>2016-06-05T11:26:59Z</time>
      </trkpt>
      <trkpt lat="43.266651" lon="-5.778524">
        <ele>228.41</ele>
        <time>2016-06-05T11:27:00Z</time>
      </trkpt>
      <trkpt lat="43.266762" lon="-5.778438">
        <ele>229.47</ele>
        <time>2016-06-05T11:27:01Z</time>
      </trkpt>
      <trkpt lat="43.266983" lon="-5.778266">
        <ele>229.82</ele>
        <time>2016-06-05T11:27:03Z</time>
      </trkpt>
      <trkpt lat="43.267202" lon="-5.778093">
        <ele>231.01</ele>
        <time>2016-06-05T11:27:05Z</time>
      </trkpt>
      <trkpt lat="43.267423" lon="-5.777933">
        <ele>232.83</ele>
        <time>2016-06-05T11:27:07Z</time>
      </trkpt>
      <trkpt lat="43.26753" lon="-5.777849">
        <ele>234.01</ele>
        <time>2016-06-05T11:27:08Z</time>
      </trkpt>
      <trkpt lat="43.26774" lon="-5.777668">
        <ele>235.49</ele>
        <time>2016-06-05T11:27:10Z</time>
      </trkpt>
      <trkpt lat="43.267833" lon="-5.777558">
        <ele>235.89</ele>
        <time>2016-06-05T11:27:11Z</time>
      </trkpt>
      <trkpt lat="43.26803" lon="-5.777371">
        <ele>236.42</ele>
        <time>2016-06-05T11:27:13Z</time>
      </trkpt>
      <trkpt lat="43.268143" lon="-5.777323">
        <ele>237.62</ele>
        <time>2016-06-05T11:27:14Z</time>
      </trkpt>
      <trkpt lat="43.268259" lon="-5.777304">
        <ele>238.47</ele>
        <time>2016-06-05T11:27:15Z</time>
      </trkpt>
      <trkpt lat="43.268377" lon="-5.777307">
        <ele>239.69</ele>
        <time>2016-06-05T11:27:16Z</time>
      </trkpt>
      <trkpt lat="43.268496" lon="-5.777328">
        <ele>240.7</ele>
        <time>2016-06-05T11:27:17Z</time>
      </trkpt>
      <trkpt lat="43.268615" lon="-5.777339">
        <ele>243.42</ele>
        <time>2016-06-05T11:27:18Z</time>
      </trkpt>
      <trkpt lat="43.268733" lon="-5.777326">
        <ele>244.23</ele>
        <time>2016-06-05T11:27:19Z</time>
      </trkpt>
      <trkpt lat="43.268847" lon="-5.777275">
        <ele>244.61</ele>
        <time>2016-06-05T11:27:20Z</time>
      </trkpt>
      <trkpt lat="43.269041" lon="-5.777101">
        <ele>244.81</ele>
        <time>2016-06-05T11:27:22Z</time>
      </trkpt>
      <trkpt lat="43.269128" lon="-5.776995">
        <ele>245.29</ele>
        <time>2016-06-05T11:27:23Z</time>
      </trkpt>
      <trkpt lat="43.269219" lon="-5.776894">
        <ele>246.23</ele>
        <time>2016-06-05T11:27:24Z</time>
      </trkpt>
      <trkpt lat="43.269435" lon="-5.776764">
        <ele>247.69</ele>
        <time>2016-06-05T11:27:26Z</time>
      </trkpt>
      <trkpt lat="43.269667" lon="-5.776695">
        <ele>249.05</ele>
        <time>2016-06-05T11:27:28Z</time>
      </trkpt>
      <trkpt lat="43.269785" lon="-5.776665">
        <ele>250.03</ele>
        <time>2016-06-05T11:27:29Z</time>
      </trkpt>
      <trkpt lat="43.269901" lon="-5.776637">
        <ele>251.43</ele>
        <time>2016-06-05T11:27:30Z</time>
      </trkpt>
      <trkpt lat="43.270016" lon="-5.776606">
        <ele>252.64</ele>
        <time>2016-06-05T11:27:31Z</time>
      </trkpt>
      <trkpt lat="43.27031" lon="-5.776358">
        <ele>253.89</ele>
        <time>2016-06-05T11:27:34Z</time>
      </trkpt>
      <trkpt lat="43.270392" lon="-5.776251">
        <ele>254.24</ele>
        <time>2016-06-05T11:27:35Z</time>
      </trkpt>
      <trkpt lat="43.270487" lon="-5.776178">
        <ele>255.02</ele>
        <time>2016-06-05T11:27:36Z</time>
      </trkpt>
      <trkpt lat="43.270589" lon="-5.776133">
        <ele>255.61</ele>
        <time>2016-06-05T11:27:37Z</time>
      </trkpt>
      <trkpt lat="43.270695" lon="-5.776106">
        <ele>256.2</ele>
        <time>2016-06-05T11:27:38Z</time>
      </trkpt>
      <trkpt lat="43.270804" lon="-5.776079">
        <ele>256.83</ele>
        <time>2016-06-05T11:27:39Z</time>
      </trkpt>
      <trkpt lat="43.270911" lon="-5.77603">
        <ele>257.41</ele>
        <time>2016-06-05T11:27:40Z</time>
      </trkpt>
      <trkpt lat="43.2712" lon="-5.775805">
        <ele>258.62</ele>
        <time>2016-06-05T11:27:43Z</time>
      </trkpt>
      <trkpt lat="43.271375" lon="-5.775616">
        <ele>259.64</ele>
        <time>2016-06-05T11:27:45Z</time>
      </trkpt>
      <trkpt lat="43.271466" lon="-5.775523">
        <ele>260.88</ele>
        <time>2016-06-05T11:27:46Z</time>
      </trkpt>
      <trkpt lat="43.271749" lon="-5.77528">
        <ele>262.64</ele>
        <time>2016-06-05T11:27:49Z</time>
      </trkpt>
      <trkpt lat="43.271949" lon="-5.775151">
        <ele>263.88</ele>
        <time>2016-06-05T11:27:51Z</time>
      </trkpt>
      <trkpt lat="43.272048" lon="-5.775078">
        <ele>264.27</ele>
        <time>2016-06-05T11:27:52Z</time>
      </trkpt>
      <trkpt lat="43.272216" lon="-5.774878">
        <ele>264.69</ele>
        <time>2016-06-05T11:27:54Z</time>
      </trkpt>
      <trkpt lat="43.272426" lon="-5.774538">
        <ele>265.21</ele>
        <time>2016-06-05T11:27:57Z</time>
      </trkpt>
      <trkpt lat="43.272512" lon="-5.774452">
        <ele>265.81</ele>
        <time>2016-06-05T11:27:58Z</time>
      </trkpt>
      <trkpt lat="43.272603" lon="-5.774391">
        <ele>266.42</ele>
        <time>2016-06-05T11:27:59Z</time>
      </trkpt>
      <trkpt lat="43.272806" lon="-5.774299">
        <ele>267.05</ele>
        <time>2016-06-05T11:28:01Z</time>
      </trkpt>
      <trkpt lat="43.273015" lon="-5.774252">
        <ele>267.5</ele>
        <time>2016-06-05T11:28:03Z</time>
      </trkpt>
      <trkpt lat="43.273119" lon="-5.77423">
        <ele>268.22</ele>
        <time>2016-06-05T11:28:04Z</time>
      </trkpt>
      <trkpt lat="43.273218" lon="-5.774181">
        <ele>269.1</ele>
        <time>2016-06-05T11:28:05Z</time>
      </trkpt>
      <trkpt lat="43.273304" lon="-5.774101">
        <ele>270.06</ele>
        <time>2016-06-05T11:28:06Z</time>
      </trkpt>
      <trkpt lat="43.273373" lon="-5.773993">
        <ele>270.64</ele>
        <time>2016-06-05T11:28:07Z</time>
      </trkpt>
      <trkpt lat="43.273438" lon="-5.773876">
        <ele>270.84</ele>
        <time>2016-06-05T11:28:08Z</time>
      </trkpt>
      <trkpt lat="43.273593" lon="-5.773663">
        <ele>272.1</ele>
        <time>2016-06-05T11:28:10Z</time>
      </trkpt>
      <trkpt lat="43.27368" lon="-5.773576">
        <ele>273.28</ele>
        <time>2016-06-05T11:28:11Z</time>
      </trkpt>
      <trkpt lat="43.273781" lon="-5.773509">
        <ele>274.25</ele>
        <time>2016-06-05T11:28:12Z</time>
      </trkpt>
      <trkpt lat="43.274072" lon="-5.773289">
        <ele>275.01</ele>
        <time>2016-06-05T11:28:15Z</time>
      </trkpt>
      <trkpt lat="43.274166" lon="-5.773206">
        <ele>275.61</ele>
        <time>2016-06-05T11:28:16Z</time>
      </trkpt>
      <trkpt lat="43.274443" lon="-5.772956">
        <ele>276.44</ele>
        <time>2016-06-05T11:28:19Z</time>
      </trkpt>
      <trkpt lat="43.274686" lon="-5.772654">
        <ele>277.61</ele>
        <time>2016-06-05T11:28:22Z</time>
      </trkpt>
      <trkpt lat="43.274915" lon="-5.772334">
        <ele>279.04</ele>
        <time>2016-06-05T11:28:25Z</time>
      </trkpt>
      <trkpt lat="43.275006" lon="-5.77225">
        <ele>279.67</ele>
        <time>2016-06-05T11:28:26Z</time>
      </trkpt>
      <trkpt lat="43.275096" lon="-5.772176">
        <ele>280.28</ele>
        <time>2016-06-05T11:28:27Z</time>
      </trkpt>
      <trkpt lat="43.275286" lon="-5.77208">
        <ele>281.49</ele>
        <time>2016-06-05T11:28:29Z</time>
      </trkpt>
      <trkpt lat="43.275376" lon="-5.772033">
        <ele>283.06</ele>
        <time>2016-06-05T11:28:30Z</time>
      </trkpt>
      <trkpt lat="43.275462" lon="-5.771966">
        <ele>284.08</ele>
        <time>2016-06-05T11:28:31Z</time>
      </trkpt>
      <trkpt lat="43.275654" lon="-5.771695">
        <ele>285.64</ele>
        <time>2016-06-05T11:28:34Z</time>
      </trkpt>
      <trkpt lat="43.275877" lon="-5.771345">
        <ele>287.47</ele>
        <time>2016-06-05T11:28:38Z</time>
      </trkpt>
      <trkpt lat="43.275926" lon="-5.771265">
        <ele>287.61</ele>
        <time>2016-06-05T11:28:39Z</time>
      </trkpt>
      <trkpt lat="43.276097" lon="-5.771002">
        <ele>288.22</ele>
        <time>2016-06-05T11:28:43Z</time>
      </trkpt>
      <trkpt lat="43.276123" lon="-5.770945">
        <ele>288.41</ele>
        <time>2016-06-05T11:28:44Z</time>
      </trkpt>
      <trkpt lat="43.27621" lon="-5.77076">
        <ele>287.86</ele>
        <time>2016-06-05T11:28:48Z</time>
      </trkpt>
      <trkpt lat="43.276275" lon="-5.770685">
        <ele>287.44</ele>
        <time>2016-06-05T11:28:50Z</time>
      </trkpt>
      <trkpt lat="43.276371" lon="-5.770606">
        <ele>286.23</ele>
        <time>2016-06-05T11:28:53Z</time>
      </trkpt>
      <trkpt lat="43.276403" lon="-5.770576">
        <ele>285.41</ele>
        <time>2016-06-05T11:28:54Z</time>
      </trkpt>
      <trkpt lat="43.276436" lon="-5.770551">
        <ele>285.23</ele>
        <time>2016-06-05T11:28:55Z</time>
      </trkpt>
      <trkpt lat="43.276538" lon="-5.770467">
        <ele>284.82</ele>
        <time>2016-06-05T11:28:58Z</time>
      </trkpt>
      <trkpt lat="43.276655" lon="-5.770388">
        <ele>283.85</ele>
        <time>2016-06-05T11:29:01Z</time>
      </trkpt>
      <trkpt lat="43.276695" lon="-5.770364">
        <ele>283.65</ele>
        <time>2016-06-05T11:29:02Z</time>
      </trkpt>
      <trkpt lat="43.276807" lon="-5.770293">
        <ele>282.66</ele>
        <time>2016-06-05T11:29:05Z</time>
      </trkpt>
      <trkpt lat="43.276879" lon="-5.770253">
        <ele>282.01</ele>
        <time>2016-06-05T11:29:07Z</time>
      </trkpt>
      <trkpt lat="43.276946" lon="-5.7702">
        <ele>281.42</ele>
        <time>2016-06-05T11:29:09Z</time>
      </trkpt>
      <trkpt lat="43.277086" lon="-5.770034">
        <ele>280.64</ele>
        <time>2016-06-05T11:29:13Z</time>
      </trkpt>
      <trkpt lat="43.277124" lon="-5.769984">
        <ele>280.46</ele>
        <time>2016-06-05T11:29:14Z</time>
      </trkpt>
      <trkpt lat="43.277164" lon="-5.769933">
        <ele>280.28</ele>
        <time>2016-06-05T11:29:15Z</time>
      </trkpt>
      <trkpt lat="43.277287" lon="-5.769718">
        <ele>279.25</ele>
        <time>2016-06-05T11:29:19Z</time>
      </trkpt>
      <trkpt lat="43.277409" lon="-5.769498">
        <ele>278.46</ele>
        <time>2016-06-05T11:29:23Z</time>
      </trkpt>
      <trkpt lat="43.277448" lon="-5.769442">
        <ele>278.66</ele>
        <time>2016-06-05T11:29:24Z</time>
      </trkpt>
      <trkpt lat="43.277466" lon="-5.769378">
        <ele>278.68</ele>
        <time>2016-06-05T11:29:25Z</time>
      </trkpt>
      <trkpt lat="43.277507" lon="-5.769249">
        <ele>278.49</ele>
        <time>2016-06-05T11:29:27Z</time>
      </trkpt>
      <trkpt lat="43.277523" lon="-5.769105">
        <ele>278.82</ele>
        <time>2016-06-05T11:29:29Z</time>
      </trkpt>
      <trkpt lat="43.277531" lon="-5.769025">
        <ele>279.27</ele>
        <time>2016-06-05T11:29:30Z</time>
      </trkpt>
      <trkpt lat="43.277633" lon="-5.768878">
        <ele>279.81</ele>
        <time>2016-06-05T11:29:32Z</time>
      </trkpt>
      <trkpt lat="43.277673" lon="-5.768781">
        <ele>280.21</ele>
        <time>2016-06-05T11:29:33Z</time>
      </trkpt>
      <trkpt lat="43.277694" lon="-5.768548">
        <ele>281.84</ele>
        <time>2016-06-05T11:29:35Z</time>
      </trkpt>
      <trkpt lat="43.277675" lon="-5.768434">
        <ele>282.81</ele>
        <time>2016-06-05T11:29:36Z</time>
      </trkpt>
      <trkpt lat="43.277644" lon="-5.768328">
        <ele>284.06</ele>
        <time>2016-06-05T11:29:37Z</time>
      </trkpt>
      <trkpt lat="43.277565" lon="-5.76826">
        <ele>285.63</ele>
        <time>2016-06-05T11:29:38Z</time>
      </trkpt>
      <trkpt lat="43.277484" lon="-5.768212">
        <ele>287.04</ele>
        <time>2016-06-05T11:29:39Z</time>
      </trkpt>
      <trkpt lat="43.277408" lon="-5.7682">
        <ele>288.49</ele>
        <time>2016-06-05T11:29:40Z</time>
      </trkpt>
      <trkpt lat="43.277335" lon="-5.768222">
        <ele>289.89</ele>
        <time>2016-06-05T11:29:41Z</time>
      </trkpt>
      <trkpt lat="43.277268" lon="-5.768281">
        <ele>292.23</ele>
        <time>2016-06-05T11:29:42Z</time>
      </trkpt>
      <trkpt lat="43.27719" lon="-5.768354">
        <ele>293.08</ele>
        <time>2016-06-05T11:29:43Z</time>
      </trkpt>
      <trkpt lat="43.27699" lon="-5.768537">
        <ele>293.87</ele>
        <time>2016-06-05T11:29:46Z</time>
      </trkpt>
      <trkpt lat="43.276943" lon="-5.768593">
        <ele>294.01</ele>
        <time>2016-06-05T11:29:47Z</time>
      </trkpt>
      <trkpt lat="43.276858" lon="-5.768712">
        <ele>294.22</ele>
        <time>2016-06-05T11:29:49Z</time>
      </trkpt>
      <trkpt lat="43.276815" lon="-5.768768">
        <ele>294.2</ele>
        <time>2016-06-05T11:29:50Z</time>
      </trkpt>
      <trkpt lat="43.276754" lon="-5.768918">
        <ele>294.06</ele>
        <time>2016-06-05T11:29:52Z</time>
      </trkpt>
      <trkpt lat="43.276724" lon="-5.769026">
        <ele>293.43</ele>
        <time>2016-06-05T11:29:54Z</time>
      </trkpt>
      <trkpt lat="43.276673" lon="-5.769102">
        <ele>292.48</ele>
        <time>2016-06-05T11:29:56Z</time>
      </trkpt>
      <trkpt lat="43.27664" lon="-5.769096">
        <ele>292.5</ele>
        <time>2016-06-05T11:29:57Z</time>
      </trkpt>
      <trkpt lat="43.276608" lon="-5.769041">
        <ele>292.85</ele>
        <time>2016-06-05T11:29:58Z</time>
      </trkpt>
      <trkpt lat="43.276599" lon="-5.768927">
        <ele>293.64</ele>
        <time>2016-06-05T11:29:59Z</time>
      </trkpt>
      <trkpt lat="43.27658" lon="-5.768829">
        <ele>294.44</ele>
        <time>2016-06-05T11:30:00Z</time>
      </trkpt>
      <trkpt lat="43.276559" lon="-5.768732">
        <ele>295.23</ele>
        <time>2016-06-05T11:30:01Z</time>
      </trkpt>
      <trkpt lat="43.276527" lon="-5.768635">
        <ele>295.68</ele>
        <time>2016-06-05T11:30:02Z</time>
      </trkpt>
      <trkpt lat="43.276477" lon="-5.768541">
        <ele>296.21</ele>
        <time>2016-06-05T11:30:03Z</time>
      </trkpt>
      <trkpt lat="43.276378" lon="-5.76837">
        <ele>297.61</ele>
        <time>2016-06-05T11:30:05Z</time>
      </trkpt>
      <trkpt lat="43.276334" lon="-5.768298">
        <ele>300.67</ele>
        <time>2016-06-05T11:30:06Z</time>
      </trkpt>
      <trkpt lat="43.276292" lon="-5.768229">
        <ele>302.23</ele>
        <time>2016-06-05T11:30:07Z</time>
      </trkpt>
      <trkpt lat="43.276249" lon="-5.76815">
        <ele>303.82</ele>
        <time>2016-06-05T11:30:08Z</time>
      </trkpt>
      <trkpt lat="43.276195" lon="-5.76807">
        <ele>305.49</ele>
        <time>2016-06-05T11:30:09Z</time>
      </trkpt>
      <trkpt lat="43.276144" lon="-5.76799">
        <ele>307.26</ele>
        <time>2016-06-05T11:30:10Z</time>
      </trkpt>
      <trkpt lat="43.276101" lon="-5.767912">
        <ele>308.83</ele>
        <time>2016-06-05T11:30:11Z</time>
      </trkpt>
      <trkpt lat="43.276055" lon="-5.767822">
        <ele>310.27</ele>
        <time>2016-06-05T11:30:12Z</time>
      </trkpt>
      <trkpt lat="43.276008" lon="-5.767729">
        <ele>311.68</ele>
        <time>2016-06-05T11:30:13Z</time>
      </trkpt>
      <trkpt lat="43.275968" lon="-5.767639">
        <ele>312.62</ele>
        <time>2016-06-05T11:30:14Z</time>
      </trkpt>
      <trkpt lat="43.2759" lon="-5.767481">
        <ele>314.08</ele>
        <time>2016-06-05T11:30:16Z</time>
      </trkpt>
      <trkpt lat="43.27587" lon="-5.767407">
        <ele>314.61</ele>
        <time>2016-06-05T11:30:17Z</time>
      </trkpt>
      <trkpt lat="43.275839" lon="-5.767273">
        <ele>315.43</ele>
        <time>2016-06-05T11:30:20Z</time>
      </trkpt>
      <trkpt lat="43.275838" lon="-5.767239">
        <ele>315.46</ele>
        <time>2016-06-05T11:30:21Z</time>
      </trkpt>
      <trkpt lat="43.275837" lon="-5.767209">
        <ele>315.49</ele>
        <time>2016-06-05T11:30:22Z</time>
      </trkpt>
      <trkpt lat="43.275838" lon="-5.767186">
        <ele>316.66</ele>
        <time>2016-06-05T11:30:34Z</time>
      </trkpt>
      <trkpt lat="43.27583" lon="-5.767141">
        <ele>317.84</ele>
        <time>2016-06-05T11:30:36Z</time>
      </trkpt>
      <trkpt lat="43.275817" lon="-5.767089">
        <ele>318.5</ele>
        <time>2016-06-05T11:30:37Z</time>
      </trkpt>
      <trkpt lat="43.275796" lon="-5.767012">
        <ele>319.25</ele>
        <time>2016-06-05T11:30:38Z</time>
      </trkpt>
      <trkpt lat="43.275732" lon="-5.766808">
        <ele>321.24</ele>
        <time>2016-06-05T11:30:40Z</time>
      </trkpt>
      <trkpt lat="43.275676" lon="-5.766581">
        <ele>322.68</ele>
        <time>2016-06-05T11:30:42Z</time>
      </trkpt>
      <trkpt lat="43.275655" lon="-5.766442">
        <ele>323.47</ele>
        <time>2016-06-05T11:30:43Z</time>
      </trkpt>
      <trkpt lat="43.275614" lon="-5.766305">
        <ele>324.27</ele>
        <time>2016-06-05T11:30:45Z</time>
      </trkpt>
      <trkpt lat="43.275604" lon="-5.766232">
        <ele>324.41</ele>
        <time>2016-06-05T11:30:46Z</time>
      </trkpt>
      <trkpt lat="43.275596" lon="-5.766164">
        <ele>324.82</ele>
        <time>2016-06-05T11:30:47Z</time>
      </trkpt>
      <trkpt lat="43.275595" lon="-5.766091">
        <ele>325.46</ele>
        <time>2016-06-05T11:30:48Z</time>
      </trkpt>
      <trkpt lat="43.275605" lon="-5.766016">
        <ele>326.09</ele>
        <time>2016-06-05T11:30:49Z</time>
      </trkpt>
      <trkpt lat="43.275605" lon="-5.765958">
        <ele>326.43</ele>
        <time>2016-06-05T11:30:50Z</time>
      </trkpt>
      <trkpt lat="43.27558" lon="-5.765917">
        <ele>326.68</ele>
        <time>2016-06-05T11:30:51Z</time>
      </trkpt>
      <trkpt lat="43.27557" lon="-5.765863">
        <ele>327.08</ele>
        <time>2016-06-05T11:30:52Z</time>
      </trkpt>
      <trkpt lat="43.275531" lon="-5.765858">
        <ele>327.81</ele>
        <time>2016-06-05T11:30:53Z</time>
      </trkpt>
      <trkpt lat="43.2755" lon="-5.765872">
        <ele>330.23</ele>
        <time>2016-06-05T11:30:54Z</time>
      </trkpt>
      <trkpt lat="43.275475" lon="-5.765904">
        <ele>331.82</ele>
        <time>2016-06-05T11:30:55Z</time>
      </trkpt>
      <trkpt lat="43.27544" lon="-5.765957">
        <ele>333.81</ele>
        <time>2016-06-05T11:30:56Z</time>
      </trkpt>
      <trkpt lat="43.275421" lon="-5.766033">
        <ele>335.68</ele>
        <time>2016-06-05T11:30:57Z</time>
      </trkpt>
      <trkpt lat="43.275403" lon="-5.766135">
        <ele>337.41</ele>
        <time>2016-06-05T11:30:58Z</time>
      </trkpt>
      <trkpt lat="43.275378" lon="-5.766249">
        <ele>339.63</ele>
        <time>2016-06-05T11:30:59Z</time>
      </trkpt>
      <trkpt lat="43.275328" lon="-5.766354">
        <ele>342.02</ele>
        <time>2016-06-05T11:31:00Z</time>
      </trkpt>
      <trkpt lat="43.275273" lon="-5.766461">
        <ele>344.7</ele>
        <time>2016-06-05T11:31:01Z</time>
      </trkpt>
      <trkpt lat="43.275211" lon="-5.766567">
        <ele>346.83</ele>
        <time>2016-06-05T11:31:02Z</time>
      </trkpt>
      <trkpt lat="43.275156" lon="-5.766665">
        <ele>349.25</ele>
        <time>2016-06-05T11:31:03Z</time>
      </trkpt>
      <trkpt lat="43.275097" lon="-5.766747">
        <ele>351.48</ele>
        <time>2016-06-05T11:31:04Z</time>
      </trkpt>
      <trkpt lat="43.275039" lon="-5.766823">
        <ele>353.64</ele>
        <time>2016-06-05T11:31:05Z</time>
      </trkpt>
      <trkpt lat="43.27497" lon="-5.766892">
        <ele>355.82</ele>
        <time>2016-06-05T11:31:06Z</time>
      </trkpt>
      <trkpt lat="43.274895" lon="-5.766958">
        <ele>357.88</ele>
        <time>2016-06-05T11:31:07Z</time>
      </trkpt>
      <trkpt lat="43.274818" lon="-5.767015">
        <ele>360.1</ele>
        <time>2016-06-05T11:31:08Z</time>
      </trkpt>
      <trkpt lat="43.274738" lon="-5.767067">
        <ele>362.42</ele>
        <time>2016-06-05T11:31:09Z</time>
      </trkpt>
      <trkpt lat="43.274655" lon="-5.767116">
        <ele>365.01</ele>
        <time>2016-06-05T11:31:10Z</time>
      </trkpt>
      <trkpt lat="43.274568" lon="-5.767152">
        <ele>367.42</ele>
        <time>2016-06-05T11:31:11Z</time>
      </trkpt>
      <trkpt lat="43.274481" lon="-5.767199">
        <ele>369.69</ele>
        <time>2016-06-05T11:31:12Z</time>
      </trkpt>
      <trkpt lat="43.274394" lon="-5.767229">
        <ele>372.05</ele>
        <time>2016-06-05T11:31:13Z</time>
      </trkpt>
      <trkpt lat="43.274306" lon="-5.76725">
        <ele>374.27</ele>
        <time>2016-06-05T11:31:14Z</time>
      </trkpt>
      <trkpt lat="43.274218" lon="-5.767269">
        <ele>376.47</ele>
        <time>2016-06-05T11:31:15Z</time>
      </trkpt>
      <trkpt lat="43.274132" lon="-5.767294">
        <ele>378.25</ele>
        <time>2016-06-05T11:31:16Z</time>
      </trkpt>
      <trkpt lat="43.274057" lon="-5.767339">
        <ele>380.06</ele>
        <time>2016-06-05T11:31:17Z</time>
      </trkpt>
      <trkpt lat="43.273948" lon="-5.767499">
        <ele>384.08</ele>
        <time>2016-06-05T11:31:19Z</time>
      </trkpt>
      <trkpt lat="43.27392" lon="-5.767585">
        <ele>385.06</ele>
        <time>2016-06-05T11:31:20Z</time>
      </trkpt>
      <trkpt lat="43.273886" lon="-5.76767">
        <ele>386.68</ele>
        <time>2016-06-05T11:31:21Z</time>
      </trkpt>
      <trkpt lat="43.273825" lon="-5.767751">
        <ele>388.05</ele>
        <time>2016-06-05T11:31:22Z</time>
      </trkpt>
      <trkpt lat="43.273744" lon="-5.76779">
        <ele>389.41</ele>
        <time>2016-06-05T11:31:23Z</time>
      </trkpt>
      <trkpt lat="43.273562" lon="-5.767809">
        <ele>391.21</ele>
        <time>2016-06-05T11:31:25Z</time>
      </trkpt>
      <trkpt lat="43.273458" lon="-5.767822">
        <ele>392.26</ele>
        <time>2016-06-05T11:31:26Z</time>
      </trkpt>
      <trkpt lat="43.273356" lon="-5.767824">
        <ele>392.82</ele>
        <time>2016-06-05T11:31:27Z</time>
      </trkpt>
      <trkpt lat="43.273262" lon="-5.767838">
        <ele>393.65</ele>
        <time>2016-06-05T11:31:28Z</time>
      </trkpt>
      <trkpt lat="43.273066" lon="-5.767876">
        <ele>395.28</ele>
        <time>2016-06-05T11:31:30Z</time>
      </trkpt>
      <trkpt lat="43.272863" lon="-5.768035">
        <ele>397.26</ele>
        <time>2016-06-05T11:31:32Z</time>
      </trkpt>
      <trkpt lat="43.272763" lon="-5.76813">
        <ele>398.27</ele>
        <time>2016-06-05T11:31:33Z</time>
      </trkpt>
      <trkpt lat="43.272652" lon="-5.768207">
        <ele>399.28</ele>
        <time>2016-06-05T11:31:34Z</time>
      </trkpt>
      <trkpt lat="43.272543" lon="-5.768287">
        <ele>401.03</ele>
        <time>2016-06-05T11:31:35Z</time>
      </trkpt>
      <trkpt lat="43.272432" lon="-5.768351">
        <ele>402.88</ele>
        <time>2016-06-05T11:31:36Z</time>
      </trkpt>
      <trkpt lat="43.27232" lon="-5.768395">
        <ele>404.22</ele>
        <time>2016-06-05T11:31:37Z</time>
      </trkpt>
      <trkpt lat="43.272216" lon="-5.76843">
        <ele>404.81</ele>
        <time>2016-06-05T11:31:38Z</time>
      </trkpt>
      <trkpt lat="43.272117" lon="-5.768441">
        <ele>406.21</ele>
        <time>2016-06-05T11:31:39Z</time>
      </trkpt>
      <trkpt lat="43.272011" lon="-5.768444">
        <ele>407.82</ele>
        <time>2016-06-05T11:31:40Z</time>
      </trkpt>
      <trkpt lat="43.271896" lon="-5.768428">
        <ele>410.26</ele>
        <time>2016-06-05T11:31:41Z</time>
      </trkpt>
      <trkpt lat="43.271762" lon="-5.768424">
        <ele>415.84</ele>
        <time>2016-06-05T11:31:42Z</time>
      </trkpt>
      <trkpt lat="43.271633" lon="-5.768446">
        <ele>417.89</ele>
        <time>2016-06-05T11:31:43Z</time>
      </trkpt>
      <trkpt lat="43.271507" lon="-5.768496">
        <ele>418.87</ele>
        <time>2016-06-05T11:31:44Z</time>
      </trkpt>
      <trkpt lat="43.271417" lon="-5.768534">
        <ele>420.49</ele>
        <time>2016-06-05T11:31:45Z</time>
      </trkpt>
      <trkpt lat="43.271343" lon="-5.768568">
        <ele>421.63</ele>
        <time>2016-06-05T11:31:46Z</time>
      </trkpt>
      <trkpt lat="43.271272" lon="-5.768594">
        <ele>423.02</ele>
        <time>2016-06-05T11:31:47Z</time>
      </trkpt>
      <trkpt lat="43.271143" lon="-5.768608">
        <ele>423.88</ele>
        <time>2016-06-05T11:31:49Z</time>
      </trkpt>
      <trkpt lat="43.27108" lon="-5.768585">
        <ele>424.9</ele>
        <time>2016-06-05T11:31:50Z</time>
      </trkpt>
      <trkpt lat="43.271013" lon="-5.768535">
        <ele>425.61</ele>
        <time>2016-06-05T11:31:51Z</time>
      </trkpt>
      <trkpt lat="43.270905" lon="-5.768339">
        <ele>426.62</ele>
        <time>2016-06-05T11:31:53Z</time>
      </trkpt>
      <trkpt lat="43.270814" lon="-5.768122">
        <ele>427.25</ele>
        <time>2016-06-05T11:31:55Z</time>
      </trkpt>
      <trkpt lat="43.270778" lon="-5.768007">
        <ele>428.46</ele>
        <time>2016-06-05T11:31:56Z</time>
      </trkpt>
      <trkpt lat="43.270761" lon="-5.767888">
        <ele>429.63</ele>
        <time>2016-06-05T11:31:57Z</time>
      </trkpt>
      <trkpt lat="43.270758" lon="-5.767772">
        <ele>430.9</ele>
        <time>2016-06-05T11:31:58Z</time>
      </trkpt>
      <trkpt lat="43.270762" lon="-5.767667">
        <ele>431.82</ele>
        <time>2016-06-05T11:31:59Z</time>
      </trkpt>
      <trkpt lat="43.270759" lon="-5.767583">
        <ele>433.05</ele>
        <time>2016-06-05T11:32:00Z</time>
      </trkpt>
      <trkpt lat="43.270756" lon="-5.767458">
        <ele>434.07</ele>
        <time>2016-06-05T11:32:02Z</time>
      </trkpt>
      <trkpt lat="43.27076" lon="-5.767402">
        <ele>434.43</ele>
        <time>2016-06-05T11:32:03Z</time>
      </trkpt>
      <trkpt lat="43.270786" lon="-5.767298">
        <ele>435.44</ele>
        <time>2016-06-05T11:32:05Z</time>
      </trkpt>
      <trkpt lat="43.27081" lon="-5.767264">
        <ele>436.82</ele>
        <time>2016-06-05T11:32:06Z</time>
      </trkpt>
      <trkpt lat="43.270914" lon="-5.767226">
        <ele>438.01</ele>
        <time>2016-06-05T11:32:09Z</time>
      </trkpt>
      <trkpt lat="43.270942" lon="-5.767219">
        <ele>438.41</ele>
        <time>2016-06-05T11:32:10Z</time>
      </trkpt>
      <trkpt lat="43.270961" lon="-5.767214">
        <ele>439.06</ele>
        <time>2016-06-05T11:32:11Z</time>
      </trkpt>
      <trkpt lat="43.27098" lon="-5.767209">
        <ele>440.43</ele>
        <time>2016-06-05T11:32:12Z</time>
      </trkpt>
      <trkpt lat="43.270998" lon="-5.767213">
        <ele>442.06</ele>
        <time>2016-06-05T11:32:13Z</time>
      </trkpt>
      <trkpt lat="43.271031" lon="-5.767227">
        <ele>443.83</ele>
        <time>2016-06-05T11:32:14Z</time>
      </trkpt>
      <trkpt lat="43.27108" lon="-5.767234">
        <ele>445.65</ele>
        <time>2016-06-05T11:32:15Z</time>
      </trkpt>
      <trkpt lat="43.271149" lon="-5.767225">
        <ele>447.43</ele>
        <time>2016-06-05T11:32:16Z</time>
      </trkpt>
      <trkpt lat="43.271221" lon="-5.767194">
        <ele>448.85</ele>
        <time>2016-06-05T11:32:17Z</time>
      </trkpt>
      <trkpt lat="43.271283" lon="-5.767137">
        <ele>449.68</ele>
        <time>2016-06-05T11:32:18Z</time>
      </trkpt>
      <trkpt lat="43.271379" lon="-5.766968">
        <ele>450.89</ele>
        <time>2016-06-05T11:32:20Z</time>
      </trkpt>
      <trkpt lat="43.27142" lon="-5.766789">
        <ele>451.88</ele>
        <time>2016-06-05T11:32:22Z</time>
      </trkpt>
      <trkpt lat="43.271489" lon="-5.766661">
        <ele>452.21</ele>
        <time>2016-06-05T11:32:24Z</time>
      </trkpt>
      <trkpt lat="43.271577" lon="-5.766529">
        <ele>452.21</ele>
        <time>2016-06-05T11:32:27Z</time>
      </trkpt>
      <trkpt lat="43.271662" lon="-5.766407">
        <ele>451.62</ele>
        <time>2016-06-05T11:32:30Z</time>
      </trkpt>
      <trkpt lat="43.271757" lon="-5.766325">
        <ele>452.24</ele>
        <time>2016-06-05T11:32:33Z</time>
      </trkpt>
      <trkpt lat="43.27188" lon="-5.766304">
        <ele>453.45</ele>
        <time>2016-06-05T11:32:35Z</time>
      </trkpt>
      <trkpt lat="43.271965" lon="-5.766285">
        <ele>454.27</ele>
        <time>2016-06-05T11:32:36Z</time>
      </trkpt>
      <trkpt lat="43.272046" lon="-5.76629">
        <ele>455.28</ele>
        <time>2016-06-05T11:32:37Z</time>
      </trkpt>
      <trkpt lat="43.272222" lon="-5.766344">
        <ele>456.81</ele>
        <time>2016-06-05T11:32:39Z</time>
      </trkpt>
      <trkpt lat="43.272307" lon="-5.766374">
        <ele>457.23</ele>
        <time>2016-06-05T11:32:40Z</time>
      </trkpt>
      <trkpt lat="43.27239" lon="-5.76639">
        <ele>457.43</ele>
        <time>2016-06-05T11:32:41Z</time>
      </trkpt>
      <trkpt lat="43.272467" lon="-5.76639">
        <ele>457.89</ele>
        <time>2016-06-05T11:32:42Z</time>
      </trkpt>
      <trkpt lat="43.272631" lon="-5.76637">
        <ele>459.09</ele>
        <time>2016-06-05T11:32:44Z</time>
      </trkpt>
      <trkpt lat="43.272747" lon="-5.766334">
        <ele>459.81</ele>
        <time>2016-06-05T11:32:46Z</time>
      </trkpt>
      <trkpt lat="43.272791" lon="-5.7663">
        <ele>460.22</ele>
        <time>2016-06-05T11:32:47Z</time>
      </trkpt>
      <trkpt lat="43.272834" lon="-5.766259">
        <ele>460.7</ele>
        <time>2016-06-05T11:32:48Z</time>
      </trkpt>
      <trkpt lat="43.272918" lon="-5.766168">
        <ele>461.62</ele>
        <time>2016-06-05T11:32:50Z</time>
      </trkpt>
      <trkpt lat="43.272962" lon="-5.766123">
        <ele>462.22</ele>
        <time>2016-06-05T11:32:51Z</time>
      </trkpt>
      <trkpt lat="43.272985" lon="-5.766071">
        <ele>462.82</ele>
        <time>2016-06-05T11:32:52Z</time>
      </trkpt>
      <trkpt lat="43.272953" lon="-5.765855">
        <ele>463.83</ele>
        <time>2016-06-05T11:32:56Z</time>
      </trkpt>
      <trkpt lat="43.272926" lon="-5.765639">
        <ele>464.28</ele>
        <time>2016-06-05T11:33:02Z</time>
      </trkpt>
      <trkpt lat="43.272936" lon="-5.765572">
        <ele>463.85</ele>
        <time>2016-06-05T11:33:04Z</time>
      </trkpt>
      <trkpt lat="43.272949" lon="-5.765427">
        <ele>463.85</ele>
        <time>2016-06-05T11:33:09Z</time>
      </trkpt>
      <trkpt lat="43.272978" lon="-5.765263">
        <ele>463.89</ele>
        <time>2016-06-05T11:33:16Z</time>
      </trkpt>
      <trkpt lat="43.272995" lon="-5.765202">
        <ele>464.02</ele>
        <time>2016-06-05T11:33:18Z</time>
      </trkpt>
      <trkpt lat="43.273029" lon="-5.765105">
        <ele>464.41</ele>
        <time>2016-06-05T11:33:20Z</time>
      </trkpt>
      <trkpt lat="43.273101" lon="-5.764922">
        <ele>465.03</ele>
        <time>2016-06-05T11:33:23Z</time>
      </trkpt>
      <trkpt lat="43.273129" lon="-5.764871">
        <ele>465.04</ele>
        <time>2016-06-05T11:33:24Z</time>
      </trkpt>
      <trkpt lat="43.273157" lon="-5.764818">
        <ele>465.27</ele>
        <time>2016-06-05T11:33:25Z</time>
      </trkpt>
      <trkpt lat="43.273228" lon="-5.764656">
        <ele>465.85</ele>
        <time>2016-06-05T11:33:29Z</time>
      </trkpt>
      <trkpt lat="43.273231" lon="-5.764619">
        <ele>466.07</ele>
        <time>2016-06-05T11:33:30Z</time>
      </trkpt>
      <trkpt lat="43.273237" lon="-5.764588">
        <ele>466.29</ele>
        <time>2016-06-05T11:33:31Z</time>
      </trkpt>
      <trkpt lat="43.273222" lon="-5.764538">
        <ele>467.85</ele>
        <time>2016-06-05T11:33:55Z</time>
      </trkpt>
      <trkpt lat="43.265787" lon="-5.768479">
        <ele>436.118</ele>
      </trkpt>
      <trkpt lat="43.266102" lon="-5.768413">
        <ele>437.517</ele>
      </trkpt>
      <trkpt lat="43.266131" lon="-5.768429">
        <ele>437.536</ele>
      </trkpt>
      <trkpt lat="43.266256" lon="-5.76845">
        <ele>436.683</ele>
      </trkpt>
      <trkpt lat="43.266335" lon="-5.768437">
        <ele>434.728</ele>
      </trkpt>
      <trkpt lat="43.266411" lon="-5.768421">
        <ele>433.72</ele>
      </trkpt>
      <trkpt lat="43.266525" lon="-5.768312">
        <ele>432.312</ele>
      </trkpt>
      <trkpt lat="43.266645" lon="-5.768077">
        <ele>430.347</ele>
      </trkpt>
      <trkpt lat="43.266651" lon="-5.767867">
        <ele>428.993</ele>
      </trkpt>
      <trkpt lat="43.266678" lon="-5.767193">
        <ele>427.461</ele>
      </trkpt>
      <trkpt lat="43.26668" lon="-5.767097">
        <ele>427.407</ele>
      </trkpt>
      <trkpt lat="43.266682" lon="-5.76661">
        <ele>432.314</ele>
      </trkpt>
      <trkpt lat="43.266695" lon="-5.766411">
        <ele>434.768</ele>
      </trkpt>
      <trkpt lat="43.266896" lon="-5.765961">
        <ele>438.065</ele>
      </trkpt>
      <trkpt lat="43.266945" lon="-5.765924">
        <ele>438.538</ele>
      </trkpt>
      <trkpt lat="43.267102" lon="-5.765754">
        <ele>439.993</ele>
      </trkpt>
      <trkpt lat="43.267214" lon="-5.765584">
        <ele>441.425</ele>
      </trkpt>
      <trkpt lat="43.267329" lon="-5.765368">
        <ele>443.857</ele>
      </trkpt>
      <trkpt lat="43.267331" lon="-5.765025">
        <ele>445.272</ele>
      </trkpt>
      <trkpt lat="43.26747" lon="-5.764698">
        <ele>442.838</ele>
      </trkpt>
      <trkpt lat="43.267568" lon="-5.764574">
        <ele>442.896</ele>
      </trkpt>
      <trkpt lat="43.267614" lon="-5.764461">
        <ele>442.807</ele>
      </trkpt>
      <trkpt lat="43.267607" lon="-5.764432">
        <ele>442.807</ele>
      </trkpt>
      <trkpt lat="43.267717" lon="-5.764364">
        <ele>444.343</ele>
      </trkpt>
      <trkpt lat="43.267794" lon="-5.764406">
        <ele>444.813</ele>
      </trkpt>
      <trkpt lat="43.268086" lon="-5.764628">
        <ele>449.681</ele>
      </trkpt>
      <trkpt lat="43.268181" lon="-5.76467">
        <ele>452.036</ele>
      </trkpt>
      <trkpt lat="43.268328" lon="-5.764793">
        <ele>456.868</ele>
      </trkpt>
      <trkpt lat="43.268373" lon="-5.764815">
        <ele>457.27</ele>
      </trkpt>
      <trkpt lat="43.268666" lon="-5.764896">
        <ele>457.265</ele>
      </trkpt>
      <trkpt lat="43.268875" lon="-5.765009">
        <ele>456.331</ele>
      </trkpt>
      <trkpt lat="43.269054" lon="-5.765065">
        <ele>460.699</ele>
      </trkpt>
      <trkpt lat="43.269119" lon="-5.765084">
        <ele>462.107</ele>
      </trkpt>
      <trkpt lat="43.269249" lon="-5.765267">
        <ele>466.915</ele>
      </trkpt>
      <trkpt lat="43.269569" lon="-5.765434">
        <ele>467.805</ele>
      </trkpt>
      <trkpt lat="43.269637" lon="-5.765387">
        <ele>467.844</ele>
      </trkpt>
      <trkpt lat="43.269678" lon="-5.765349">
        <ele>468.361</ele>
      </trkpt>
      <trkpt lat="43.269924" lon="-5.765275">
        <ele>471.726</ele>
      </trkpt>
      <trkpt lat="43.27017" lon="-5.765367">
        <ele>473.128</ele>
      </trkpt>
      <trkpt lat="43.270291" lon="-5.765452">
        <ele>473.61</ele>
      </trkpt>
      <trkpt lat="43.270477" lon="-5.765683">
        <ele>473.645</ele>
      </trkpt>
      <trkpt lat="43.270679" lon="-5.765863">
        <ele>473.681</ele>
      </trkpt>
      <trkpt lat="43.270741" lon="-5.766033">
        <ele>472.659</ele>
      </trkpt>
      <trkpt lat="43.270824" lon="-5.766156">
        <ele>470.707</ele>
      </trkpt>
      <trkpt lat="43.270905" lon="-5.766177">
        <ele>470.209</ele>
      </trkpt>
      <trkpt lat="43.270996" lon="-5.766207">
        <ele>469.381</ele>
      </trkpt>
      <trkpt lat="43.271001" lon="-5.766213">
        <ele>469.341</ele>
      </trkpt>
      <trkpt lat="43.271038" lon="-5.766252">
        <ele>468.884</ele>
      </trkpt>
      <trkpt lat="43.271104" lon="-5.766381">
        <ele>467.839</ele>
      </trkpt>
      <trkpt lat="43.271191" lon="-5.76654">
        <ele>465.491</ele>
      </trkpt>
      <trkpt lat="43.271272" lon="-5.766612">
        <ele>463.543</ele>
      </trkpt>
      <trkpt lat="43.271416" lon="-5.766535">
        <ele>462.188</ele>
      </trkpt>
      <trkpt lat="43.271481" lon="-5.766491">
        <ele>460.164</ele>
      </trkpt>
      <trkpt lat="43.271523" lon="-5.766448">
        <ele>457.262</ele>
      </trkpt>
      <trkpt lat="43.271554" lon="-5.766433">
        <ele>456.307</ele>
      </trkpt>
      <trkpt lat="43.271633" lon="-5.76642">
        <ele>455.821</ele>
      </trkpt>
      <trkpt lat="43.271822" lon="-5.766282">
        <ele>455.856</ele>
      </trkpt>
      <trkpt lat="43.271926" lon="-5.76626">
        <ele>456.374</ele>
      </trkpt>
      <trkpt lat="43.27222" lon="-5.766321">
        <ele>460.159</ele>
      </trkpt>
      <trkpt lat="43.27262" lon="-5.766299">
        <ele>462.574</ele>
      </trkpt>
      <trkpt lat="43.272719" lon="-5.766286">
        <ele>463.556</ele>
      </trkpt>
      <trkpt lat="43.272926" lon="-5.766187">
        <ele>465.448</ele>
      </trkpt>
      <trkpt lat="43.273029" lon="-5.766012">
        <ele>467.893</ele>
      </trkpt>
      <trkpt lat="43.272954" lon="-5.765785">
        <ele>469.349</ele>
      </trkpt>
      <trkpt lat="43.27295" lon="-5.76579">
        <ele>468.387</ele>
      </trkpt>
      <trkpt lat="43.27295" lon="-5.765776">
        <ele>469.307</ele>
      </trkpt>
      <trkpt lat="43.272987" lon="-5.765496">
        <ele>468.817</ele>
      </trkpt>
      <trkpt lat="43.272993" lon="-5.765298">
        <ele>468.889</ele>
      </trkpt>
      <trkpt lat="43.273028" lon="-5.765078">
        <ele>469.328</ele>
      </trkpt>
      <trkpt lat="43.273231" lon="-5.764671">
        <ele>470.73</ele>
      </trkpt>
      <trkpt lat="43.273187" lon="-5.764266">
        <ele>469.345</ele>
      </trkpt>
      <trkpt lat="43.27319" lon="-5.764171">
        <ele>468.327</ele>
      </trkpt>
      <trkpt lat="43.273186" lon="-5.764102">
        <ele>467.869</ele>
      </trkpt>
      <trkpt lat="43.273132" lon="-5.76371">
        <ele>466.444</ele>
      </trkpt>
      <trkpt lat="43.273109" lon="-5.763394">
        <ele>465.46</ele>
      </trkpt>
      <trkpt lat="43.273163" lon="-5.763127">
        <ele>464.578</ele>
      </trkpt>
      <trkpt lat="43.273169" lon="-5.762911">
        <ele>464.007</ele>
      </trkpt>
      <trkpt lat="43.273135" lon="-5.762771">
        <ele>463.014</ele>
      </trkpt>
      <trkpt lat="43.273129" lon="-5.762671">
        <ele>462.186</ele>
      </trkpt>
      <trkpt lat="43.273165" lon="-5.762469">
        <ele>460.635</ele>
      </trkpt>
      <trkpt lat="43.273253" lon="-5.762335">
        <ele>459.721</ele>
      </trkpt>
      <trkpt lat="43.27333" lon="-5.762166">
        <ele>457.766</ele>
      </trkpt>
      <trkpt lat="43.273444" lon="-5.762026">
        <ele>456.318</ele>
      </trkpt>
      <trkpt lat="43.273592" lon="-5.762061">
        <ele>453.98</ele>
      </trkpt>
      <trkpt lat="43.273811" lon="-5.762191">
        <ele>452.015</ele>
      </trkpt>
      <trkpt lat="43.274054" lon="-5.762357">
        <ele>450.591</ele>
      </trkpt>
      <trkpt lat="43.274362" lon="-5.762454">
        <ele>451.049</ele>
      </trkpt>
      <trkpt lat="43.274448" lon="-5.762458">
        <ele>451.007</ele>
      </trkpt>
      <trkpt lat="43.274475" lon="-5.762444">
        <ele>450.522</ele>
      </trkpt>
      <trkpt lat="43.274554" lon="-5.762418">
        <ele>450.002</ele>
      </trkpt>
      <trkpt lat="43.274605" lon="-5.762382">
        <ele>449.649</ele>
      </trkpt>
      <trkpt lat="43.274722" lon="-5.762231">
        <ele>448.156</ele>
      </trkpt>
      <trkpt lat="43.274882" lon="-5.762069">
        <ele>451.581</ele>
      </trkpt>
      <trkpt lat="43.275003" lon="-5.761994">
        <ele>453.453</ele>
      </trkpt>
      <trkpt lat="43.275082" lon="-5.761913">
        <ele>455.395</ele>
      </trkpt>
      <trkpt lat="43.27525" lon="-5.761764">
        <ele>460.13</ele>
      </trkpt>
      <trkpt lat="43.275376" lon="-5.761694">
        <ele>462.186</ele>
      </trkpt>
      <trkpt lat="43.275575" lon="-5.761684">
        <ele>463.044</ele>
      </trkpt>
      <trkpt lat="43.275735" lon="-5.76171">
        <ele>464.907</ele>
      </trkpt>
      <trkpt lat="43.275898" lon="-5.761824">
        <ele>468.824</ele>
      </trkpt>
      <trkpt lat="43.276102" lon="-5.761983">
        <ele>473.131</ele>
      </trkpt>
      <trkpt lat="43.276196" lon="-5.76204">
        <ele>475.096</ele>
      </trkpt>
      <trkpt lat="43.276376" lon="-5.762134">
        <ele>477.984</ele>
      </trkpt>
      <trkpt lat="43.276454" lon="-5.762177">
        <ele>478.939</ele>
      </trkpt>
      <trkpt lat="43.27673" lon="-5.762209">
        <ele>482.791</ele>
      </trkpt>
      <trkpt lat="43.277003" lon="-5.76198">
        <ele>484.663</ele>
      </trkpt>
      <trkpt lat="43.27709" lon="-5.761769">
        <ele>487.178</ele>
      </trkpt>
      <trkpt lat="43.277169" lon="-5.761521">
        <ele>490.924</ele>
      </trkpt>
      <trkpt lat="43.27717" lon="-5.76138">
        <ele>494.332</ele>
      </trkpt>
      <trkpt lat="43.277189" lon="-5.761325">
        <ele>495.207</ele>
      </trkpt>
      <trkpt lat="43.277224" lon="-5.761214">
        <ele>497.127</ele>
      </trkpt>
      <trkpt lat="43.277216" lon="-5.761087">
        <ele>500.561</ele>
      </trkpt>
      <trkpt lat="43.277229" lon="-5.761041">
        <ele>501.577</ele>
      </trkpt>
      <trkpt lat="43.277276" lon="-5.760769">
        <ele>503.444</ele>
      </trkpt>
      <trkpt lat="43.277293" lon="-5.760733">
        <ele>503.949</ele>
      </trkpt>
      <trkpt lat="43.277334" lon="-5.760682">
        <ele>503.931</ele>
      </trkpt>
      <trkpt lat="43.27734" lon="-5.760683">
        <ele>503.433</ele>
      </trkpt>
      <trkpt lat="43.277379" lon="-5.760654">
        <ele>503.948</ele>
      </trkpt>
      <trkpt lat="43.277446" lon="-5.760608">
        <ele>503.484</ele>
      </trkpt>
      <trkpt lat="43.277547" lon="-5.760569">
        <ele>503.452</ele>
      </trkpt>
      <trkpt lat="43.277661" lon="-5.76049">
        <ele>502.907</ele>
      </trkpt>
      <trkpt lat="43.277736" lon="-5.76048">
        <ele>502.921</ele>
      </trkpt>
      <trkpt lat="43.277794" lon="-5.760487">
        <ele>503.456</ele>
      </trkpt>
      <trkpt lat="43.27792" lon="-5.760486">
        <ele>502.474</ele>
      </trkpt>
      <trkpt lat="43.278091" lon="-5.760483">
        <ele>502.018</ele>
      </trkpt>
      <trkpt lat="43.278165" lon="-5.760487">
        <ele>502.093</ele>
      </trkpt>
      <trkpt lat="43.278189" lon="-5.760475">
        <ele>502.015</ele>
      </trkpt>
      <trkpt lat="43.278259" lon="-5.760458">
        <ele>501.567</ele>
      </trkpt>
      <trkpt lat="43.278353" lon="-5.760466">
        <ele>498.672</ele>
      </trkpt>
      <trkpt lat="43.278438" lon="-5.760413">
        <ele>497.128</ele>
      </trkpt>
      <trkpt lat="43.278543" lon="-5.760289">
        <ele>495.766</ele>
      </trkpt>
      <trkpt lat="43.278606" lon="-5.760156">
        <ele>493.807</ele>
      </trkpt>
      <trkpt lat="43.278655" lon="-5.760059">
        <ele>491.417</ele>
      </trkpt>
      <trkpt lat="43.278685" lon="-5.760019">
        <ele>490.498</ele>
      </trkpt>
      <trkpt lat="43.278741" lon="-5.759932">
        <ele>488.518</ele>
      </trkpt>
      <trkpt lat="43.278732" lon="-5.759835">
        <ele>487.194</ele>
      </trkpt>
      <trkpt lat="43.27875" lon="-5.759762">
        <ele>485.159</ele>
      </trkpt>
      <trkpt lat="43.278796" lon="-5.759657">
        <ele>483.731</ele>
      </trkpt>
      <trkpt lat="43.278889" lon="-5.759512">
        <ele>482.733</ele>
      </trkpt>
      <trkpt lat="43.278915" lon="-5.75947">
        <ele>482.728</ele>
      </trkpt>
      <trkpt lat="43.278944" lon="-5.759403">
        <ele>482.744</ele>
      </trkpt>
      <trkpt lat="43.279009" lon="-5.7593">
        <ele>484.262</ele>
      </trkpt>
      <trkpt lat="43.279063" lon="-5.759209">
        <ele>484.607</ele>
      </trkpt>
      <trkpt lat="43.279108" lon="-5.758971">
        <ele>486.113</ele>
      </trkpt>
      <trkpt lat="43.279112" lon="-5.758846">
        <ele>486.685</ele>
      </trkpt>
      <trkpt lat="43.27912" lon="-5.758711">
        <ele>484.273</ele>
      </trkpt>
      <trkpt lat="43.279087" lon="-5.758601">
        <ele>483.775</ele>
      </trkpt>
      <trkpt lat="43.279072" lon="-5.758425">
        <ele>483.79</ele>
      </trkpt>
      <trkpt lat="43.279071" lon="-5.758408">
        <ele>483.742</ele>
      </trkpt>
      <trkpt lat="43.279031" lon="-5.75818">
        <ele>485.624</ele>
      </trkpt>
      <trkpt lat="43.279031" lon="-5.758096">
        <ele>485.689</ele>
      </trkpt>
      <trkpt lat="43.278932" lon="-5.757892">
        <ele>487.125</ele>
      </trkpt>
      <trkpt lat="43.278865" lon="-5.757798">
        <ele>488.573</ele>
      </trkpt>
      <trkpt lat="43.278831" lon="-5.757601">
        <ele>490.407</ele>
      </trkpt>
      <trkpt lat="43.278851" lon="-5.757458">
        <ele>491.417</ele>
      </trkpt>
      <trkpt lat="43.278805" lon="-5.757348">
        <ele>492.389</ele>
      </trkpt>
      <trkpt lat="43.278814" lon="-5.75727">
        <ele>491.985</ele>
      </trkpt>
      <trkpt lat="43.278824" lon="-5.757243">
        <ele>491.995</ele>
      </trkpt>
      <trkpt lat="43.278891" lon="-5.757111">
        <ele>491.45</ele>
      </trkpt>
      <trkpt lat="43.278897" lon="-5.757098">
        <ele>490.992</ele>
      </trkpt>
      <trkpt lat="43.278922" lon="-5.756963">
        <ele>489.974</ele>
      </trkpt>
      <trkpt lat="43.278947" lon="-5.756795">
        <ele>488.539</ele>
      </trkpt>
      <trkpt lat="43.278956" lon="-5.756715">
        <ele>488.535</ele>
      </trkpt>
      <trkpt lat="43.27896" lon="-5.756663">
        <ele>488.523</ele>
      </trkpt>
      <trkpt lat="43.278964" lon="-5.756554">
        <ele>488.007</ele>
      </trkpt>
      <trkpt lat="43.278935" lon="-5.756499">
        <ele>487.526</ele>
      </trkpt>
      <trkpt lat="43.27893" lon="-5.756487">
        <ele>487.542</ele>
      </trkpt>
      <trkpt lat="43.278937" lon="-5.756437">
        <ele>486.687</ele>
      </trkpt>
      <trkpt lat="43.278955" lon="-5.756301">
        <ele>485.148</ele>
      </trkpt>
      <trkpt lat="43.278955" lon="-5.75624">
        <ele>483.773</ele>
      </trkpt>
      <trkpt lat="43.279011" lon="-5.756106">
        <ele>482.235</ele>
      </trkpt>
      <trkpt lat="43.27902" lon="-5.756052">
        <ele>481.897</ele>
      </trkpt>
      <trkpt lat="43.279026" lon="-5.756029">
        <ele>481.892</ele>
      </trkpt>
      <trkpt lat="43.279028" lon="-5.756034">
        <ele>481.898</ele>
      </trkpt>
      <trkpt lat="43.279076" lon="-5.755913">
        <ele>480.836</ele>
      </trkpt>
      <trkpt lat="43.279188" lon="-5.755769">
        <ele>478.407</ele>
      </trkpt>
      <trkpt lat="43.279237" lon="-5.755686">
        <ele>476.513</ele>
      </trkpt>
      <trkpt lat="43.279281" lon="-5.755644">
        <ele>474.176</ele>
      </trkpt>
      <trkpt lat="43.279365" lon="-5.755564">
        <ele>471.716</ele>
      </trkpt>
      <trkpt lat="43.279481" lon="-5.755465">
        <ele>469.365</ele>
      </trkpt>
      <trkpt lat="43.279562" lon="-5.755439">
        <ele>466.98</ele>
      </trkpt>
      <trkpt lat="43.279625" lon="-5.755404">
        <ele>465.492</ele>
      </trkpt>
      <trkpt lat="43.279631" lon="-5.755377">
        <ele>465.484</ele>
      </trkpt>
      <trkpt lat="43.279768" lon="-5.755279">
        <ele>463.519</ele>
      </trkpt>
      <trkpt lat="43.279866" lon="-5.755215">
        <ele>463.075</ele>
      </trkpt>
      <trkpt lat="43.27999" lon="-5.755155">
        <ele>462.193</ele>
      </trkpt>
      <trkpt lat="43.28003" lon="-5.755127">
        <ele>461.107</ele>
      </trkpt>
      <trkpt lat="43.280215" lon="-5.754945">
        <ele>460.626</ele>
      </trkpt>
      <trkpt lat="43.280449" lon="-5.754901">
        <ele>464.006</ele>
      </trkpt>
      <trkpt lat="43.280517" lon="-5.755025">
        <ele>464.589</ele>
      </trkpt>
      <trkpt lat="43.280654" lon="-5.755344">
        <ele>464.57</ele>
      </trkpt>
      <trkpt lat="43.280795" lon="-5.755483">
        <ele>462.515</ele>
      </trkpt>
      <trkpt lat="43.281048" lon="-5.755417">
        <ele>460.187</ele>
      </trkpt>
      <trkpt lat="43.281153" lon="-5.755359">
        <ele>458.279</ele>
      </trkpt>
      <trkpt lat="43.281199" lon="-5.755351">
        <ele>457.714</ele>
      </trkpt>
      <trkpt lat="43.281275" lon="-5.755287">
        <ele>456.35</ele>
      </trkpt>
      <trkpt lat="43.281335" lon="-5.755194">
        <ele>455.368</ele>
      </trkpt>
      <trkpt lat="43.281439" lon="-5.754932">
        <ele>452.907</ele>
      </trkpt>
      <trkpt lat="43.281542" lon="-5.75461">
        <ele>450.514</ele>
      </trkpt>
      <trkpt lat="43.281638" lon="-5.754209">
        <ele>448.686</ele>
      </trkpt>
      <trkpt lat="43.281833" lon="-5.753733">
        <ele>445.735</ele>
      </trkpt>
      <trkpt lat="43.281896" lon="-5.753359">
        <ele>445.299</ele>
      </trkpt>
      <trkpt lat="43.281892" lon="-5.753302">
        <ele>445.294</ele>
      </trkpt>
      <trkpt lat="43.281779" lon="-5.752742">
        <ele>444.846</ele>
      </trkpt>
      <trkpt lat="43.281653" lon="-5.752303">
        <ele>444.388</ele>
      </trkpt>
      <trkpt lat="43.281717" lon="-5.751876">
        <ele>442.873</ele>
      </trkpt>
      <trkpt lat="43.281824" lon="-5.751677">
        <ele>441.499</ele>
      </trkpt>
      <trkpt lat="43.281919" lon="-5.751529">
        <ele>440.487</ele>
      </trkpt>
      <trkpt lat="43.281963" lon="-5.751435">
        <ele>440.407</ele>
      </trkpt>
      <trkpt lat="43.281961" lon="-5.75107">
        <ele>439.508</ele>
      </trkpt>
      <trkpt lat="43.281995" lon="-5.751028">
        <ele>439.526</ele>
      </trkpt>
      <trkpt lat="43.282098" lon="-5.750712">
        <ele>438.025</ele>
      </trkpt>
      <trkpt lat="43.282086" lon="-5.750357">
        <ele>435.17</ele>
      </trkpt>
      <trkpt lat="43.282263" lon="-5.749965">
        <ele>432.775</ele>
      </trkpt>
      <trkpt lat="43.282449" lon="-5.749505">
        <ele>430.337</ele>
      </trkpt>
      <trkpt lat="43.282308" lon="-5.749245">
        <ele>429.469</ele>
      </trkpt>
      <trkpt lat="43.282161" lon="-5.749071">
        <ele>429.414</ele>
      </trkpt>
      <trkpt lat="43.282098" lon="-5.748779">
        <ele>429.43</ele>
      </trkpt>
      <trkpt lat="43.281846" lon="-5.748459">
        <ele>429.428</ele>
      </trkpt>
      <trkpt lat="43.281755" lon="-5.748468">
        <ele>429.407</ele>
      </trkpt>
      <trkpt lat="43.281618" lon="-5.748492">
        <ele>429.414</ele>
      </trkpt>
      <trkpt lat="43.281585" lon="-5.748478">
        <ele>429.986</ele>
      </trkpt>
      <trkpt lat="43.281556" lon="-5.748109">
        <ele>430.335</ele>
      </trkpt>
      <trkpt lat="43.281679" lon="-5.74786">
        <ele>430.383</ele>
      </trkpt>
      <trkpt lat="43.281724" lon="-5.747687">
        <ele>430.348</ele>
      </trkpt>
      <trkpt lat="43.281754" lon="-5.747477">
        <ele>430.88</ele>
      </trkpt>
      <trkpt lat="43.281757" lon="-5.747195">
        <ele>430.812</ele>
      </trkpt>
      <trkpt lat="43.28185" lon="-5.746828">
        <ele>430.847</ele>
      </trkpt>
      <trkpt lat="43.282003" lon="-5.74687">
        <ele>433.723</ele>
      </trkpt>
      <trkpt lat="43.282048" lon="-5.746888">
        <ele>434.791</ele>
      </trkpt>
      <trkpt lat="43.282441" lon="-5.746925">
        <ele>438.007</ele>
      </trkpt>
      <trkpt lat="43.282466" lon="-5.746965">
        <ele>438.511</ele>
      </trkpt>
      <trkpt lat="43.282811" lon="-5.747049">
        <ele>437.583</ele>
      </trkpt>
      <trkpt lat="43.283045" lon="-5.746897">
        <ele>436.662</ele>
      </trkpt>
      <trkpt lat="43.283175" lon="-5.746727">
        <ele>437.112</ele>
      </trkpt>
      <trkpt lat="43.283398" lon="-5.746411">
        <ele>437.157</ele>
      </trkpt>
      <trkpt lat="43.283431" lon="-5.74633">
        <ele>437.179</ele>
      </trkpt>
      <trkpt lat="43.283463" lon="-5.746151">
        <ele>438.051</ele>
      </trkpt>
      <trkpt lat="43.283403" lon="-5.745693">
        <ele>440.946</ele>
      </trkpt>
      <trkpt lat="43.283528" lon="-5.745558">
        <ele>442.312</ele>
      </trkpt>
      <trkpt lat="43.283743" lon="-5.745539">
        <ele>444.34</ele>
      </trkpt>
      <trkpt lat="43.284115" lon="-5.745282">
        <ele>445.207</ele>
      </trkpt>
      <trkpt lat="43.284292" lon="-5.745069">
        <ele>444.811</ele>
      </trkpt>
      <trkpt lat="43.284649" lon="-5.744991">
        <ele>442.856</ele>
      </trkpt>
      <trkpt lat="43.284713" lon="-5.745004">
        <ele>442.354</ele>
      </trkpt>
      <trkpt lat="43.284901" lon="-5.745183">
        <ele>444.323</ele>
      </trkpt>
      <trkpt lat="43.285194" lon="-5.745724">
        <ele>450.048</ele>
      </trkpt>
      <trkpt lat="43.285224" lon="-5.745792">
        <ele>451.52</ele>
      </trkpt>
      <trkpt lat="43.28551" lon="-5.745908">
        <ele>456.352</ele>
      </trkpt>
      <trkpt lat="43.285626" lon="-5.74595">
        <ele>457.757</ele>
      </trkpt>
      <trkpt lat="43.285775" lon="-5.746094">
        <ele>461.653</ele>
      </trkpt>
      <trkpt lat="43.285945" lon="-5.746235">
        <ele>464.051</ele>
      </trkpt>
      <trkpt lat="43.286047" lon="-5.746359">
        <ele>464.507</ele>
      </trkpt>
      <trkpt lat="43.286285" lon="-5.74665">
        <ele>468.313</ele>
      </trkpt>
      <trkpt lat="43.286358" lon="-5.746703">
        <ele>469.721</ele>
      </trkpt>
      <trkpt lat="43.286355" lon="-5.746602">
        <ele>470.761</ele>
      </trkpt>
      <trkpt lat="43.286228" lon="-5.746326">
        <ele>473.638</ele>
      </trkpt>
      <trkpt lat="43.286099" lon="-5.74608">
        <ele>475.573</ele>
      </trkpt>
      <trkpt lat="43.285944" lon="-5.745677">
        <ele>479.865</ele>
      </trkpt>
      <trkpt lat="43.285853" lon="-5.745278">
        <ele>482.757</ele>
      </trkpt>
      <trkpt lat="43.285817" lon="-5.745093">
        <ele>483.772</ele>
      </trkpt>
      <trkpt lat="43.285757" lon="-5.744972">
        <ele>484.628</ele>
      </trkpt>
      <trkpt lat="43.285668" lon="-5.744836">
        <ele>484.696</ele>
      </trkpt>
      <trkpt lat="43.285642" lon="-5.744779">
        <ele>484.207</ele>
      </trkpt>
      <trkpt lat="43.285593" lon="-5.744684">
        <ele>482.705</ele>
      </trkpt>
      <trkpt lat="43.285583" lon="-5.744659">
        <ele>482.732</ele>
      </trkpt>
      <trkpt lat="43.285463" lon="-5.744281">
        <ele>479.412</ele>
      </trkpt>
      <trkpt lat="43.285445" lon="-5.744243">
        <ele>479.443</ele>
      </trkpt>
      <trkpt lat="43.285274" lon="-5.743948">
        <ele>479.418</ele>
      </trkpt>
      <trkpt lat="43.284767" lon="-5.7437">
        <ele>480.89</ele>
      </trkpt>
      <trkpt lat="43.284602" lon="-5.743561">
        <ele>483.222</ele>
      </trkpt>
      <trkpt lat="43.284459" lon="-5.743439">
        <ele>485.167</ele>
      </trkpt>
      <trkpt lat="43.284345" lon="-5.743365">
        <ele>488.543</ele>
      </trkpt>
      <trkpt lat="43.284178" lon="-5.743253">
        <ele>492.341</ele>
      </trkpt>
      <trkpt lat="43.283982" lon="-5.743034">
        <ele>496.207</ele>
      </trkpt>
      <trkpt lat="43.28391" lon="-5.742914">
        <ele>499.111</ele>
      </trkpt>
      <trkpt lat="43.283876" lon="-5.742868">
        <ele>500.583</ele>
      </trkpt>
      <trkpt lat="43.28374" lon="-5.742784">
        <ele>504.462</ele>
      </trkpt>
      <trkpt lat="43.283656" lon="-5.742742">
        <ele>506.832</ele>
      </trkpt>
      <trkpt lat="43.283505" lon="-5.742615">
        <ele>510.167</ele>
      </trkpt>
      <trkpt lat="43.283306" lon="-5.742414">
        <ele>514.069</ele>
      </trkpt>
      <trkpt lat="43.282993" lon="-5.742274">
        <ele>517.821</ele>
      </trkpt>
      <trkpt lat="43.282906" lon="-5.742085">
        <ele>516.986</ele>
      </trkpt>
      <trkpt lat="43.282688" lon="-5.741666">
        <ele>514.472</ele>
      </trkpt>
      <trkpt lat="43.282616" lon="-5.741414">
        <ele>515.92</ele>
      </trkpt>
      <trkpt lat="43.282631" lon="-5.741223">
        <ele>516.907</ele>
      </trkpt>
      <trkpt lat="43.282604" lon="-5.741077">
        <ele>518.308</ele>
      </trkpt>
      <trkpt lat="43.282573" lon="-5.740948">
        <ele>518.853</ele>
      </trkpt>
      <trkpt lat="43.282557" lon="-5.740874">
        <ele>519.352</ele>
      </trkpt>
      <trkpt lat="43.282528" lon="-5.740814">
        <ele>519.713</ele>
      </trkpt>
      <trkpt lat="43.282476" lon="-5.740705">
        <ele>519.798</ele>
      </trkpt>
      <trkpt lat="43.28239" lon="-5.740456">
        <ele>520.71</ele>
      </trkpt>
      <trkpt lat="43.282337" lon="-5.740358">
        <ele>518.392</ele>
      </trkpt>
      <trkpt lat="43.282326" lon="-5.740334">
        <ele>517.827</ele>
      </trkpt>
      <trkpt lat="43.282183" lon="-5.740115">
        <ele>514.473</ele>
      </trkpt>
      <trkpt lat="43.282141" lon="-5.74006">
        <ele>515.451</ele>
      </trkpt>
      <trkpt lat="43.282004" lon="-5.73973">
        <ele>517.807</ele>
      </trkpt>
      <trkpt lat="43.282013" lon="-5.739691">
        <ele>517.813</ele>
      </trkpt>
      <trkpt lat="43.282096" lon="-5.739209">
        <ele>515.421</ele>
      </trkpt>
      <trkpt lat="43.282193" lon="-5.738804">
        <ele>518.861</ele>
      </trkpt>
      <trkpt lat="43.282199" lon="-5.738623">
        <ele>520.259</ele>
      </trkpt>
      <trkpt lat="43.282285" lon="-5.738277">
        <ele>519.784</ele>
      </trkpt>
      <trkpt lat="43.282468" lon="-5.737797">
        <ele>520.726</ele>
      </trkpt>
      <trkpt lat="43.282504" lon="-5.737682">
        <ele>520.748</ele>
      </trkpt>
      <trkpt lat="43.282567" lon="-5.737513">
        <ele>519.363</ele>
      </trkpt>
      <trkpt lat="43.282681" lon="-5.737304">
        <ele>518.399</ele>
      </trkpt>
      <trkpt lat="43.282872" lon="-5.736979">
        <ele>519.797</ele>
      </trkpt>
      <trkpt lat="43.282976" lon="-5.736736">
        <ele>521.207</ele>
      </trkpt>
      <trkpt lat="43.28303" lon="-5.736638">
        <ele>523.611</ele>
      </trkpt>
      <trkpt lat="43.283194" lon="-5.736381">
        <ele>526.083</ele>
      </trkpt>
      <trkpt lat="43.283221" lon="-5.73632">
        <ele>525.523</ele>
      </trkpt>
      <trkpt lat="43.283372" lon="-5.736019">
        <ele>525.085</ele>
      </trkpt>
      <trkpt lat="43.283479" lon="-5.735819">
        <ele>526.08</ele>
      </trkpt>
      <trkpt lat="43.283566" lon="-5.735578">
        <ele>526.092</ele>
      </trkpt>
      <trkpt lat="43.283572" lon="-5.735549">
        <ele>525.574</ele>
      </trkpt>
      <trkpt lat="43.283563" lon="-5.735386">
        <ele>526.939</ele>
      </trkpt>
      <trkpt lat="43.283509" lon="-5.735333">
        <ele>526.035</ele>
      </trkpt>
      <trkpt lat="43.283388" lon="-5.735352">
        <ele>525.053</ele>
      </trkpt>
      <trkpt lat="43.283287" lon="-5.735368">
        <ele>523.607</ele>
      </trkpt>
      <trkpt lat="43.283205" lon="-5.735362">
        <ele>520.717</ele>
      </trkpt>
      <trkpt lat="43.283119" lon="-5.735383">
        <ele>518.343</ele>
      </trkpt>
      <trkpt lat="43.28308" lon="-5.735427">
        <ele>516.982</ele>
      </trkpt>
      <trkpt lat="43.282931" lon="-5.735529">
        <ele>514.043</ele>
      </trkpt>
      <trkpt lat="43.282886" lon="-5.735584">
        <ele>513.058</ele>
      </trkpt>
      <trkpt lat="43.282807" lon="-5.735698">
        <ele>511.15</ele>
      </trkpt>
      <trkpt lat="43.282776" lon="-5.735734">
        <ele>510.642</ele>
      </trkpt>
      <trkpt lat="43.282732" lon="-5.735758">
        <ele>510.187</ele>
      </trkpt>
      <trkpt lat="43.282664" lon="-5.735769">
        <ele>509.613</ele>
      </trkpt>
      <trkpt lat="43.282542" lon="-5.735735">
        <ele>508.261</ele>
      </trkpt>
      <trkpt lat="43.282476" lon="-5.735711">
        <ele>506.307</ele>
      </trkpt>
      <trkpt lat="43.282387" lon="-5.735706">
        <ele>504.424</ele>
      </trkpt>
      <trkpt lat="43.282354" lon="-5.735688">
        <ele>502.404</ele>
      </trkpt>
      <trkpt lat="43.282326" lon="-5.735668">
        <ele>500.569</ele>
      </trkpt>
      <trkpt lat="43.282289" lon="-5.735643">
        <ele>498.634</ele>
      </trkpt>
      <trkpt lat="43.282251" lon="-5.735613">
        <ele>496.719</ele>
      </trkpt>
      <trkpt lat="43.282181" lon="-5.735594">
        <ele>494.791</ele>
      </trkpt>
      <trkpt lat="43.282105" lon="-5.735579">
        <ele>491.943</ele>
      </trkpt>
      <trkpt lat="43.281932" lon="-5.735603">
        <ele>489.568</ele>
      </trkpt>
      <trkpt lat="43.281873" lon="-5.735632">
        <ele>489.074</ele>
      </trkpt>
      <trkpt lat="43.281812" lon="-5.735637">
        <ele>487.512</ele>
      </trkpt>
      <trkpt lat="43.281677" lon="-5.735621">
        <ele>485.607</ele>
      </trkpt>
      <trkpt lat="43.281635" lon="-5.735587">
        <ele>485.115</ele>
      </trkpt>
      <trkpt lat="43.281607" lon="-5.735522">
        <ele>484.241</ele>
      </trkpt>
      <trkpt lat="43.281653" lon="-5.735371">
        <ele>482.271</ele>
      </trkpt>
      <trkpt lat="43.281666" lon="-5.73535">
        <ele>481.812</ele>
      </trkpt>
      <trkpt lat="43.281736" lon="-5.735223">
        <ele>478.967</ele>
      </trkpt>
      <trkpt lat="43.281748" lon="-5.735139">
        <ele>477.059</ele>
      </trkpt>
      <trkpt lat="43.281749" lon="-5.734974">
        <ele>475.031</ele>
      </trkpt>
      <trkpt lat="43.281661" lon="-5.734834">
        <ele>474.626</ele>
      </trkpt>
      <trkpt lat="43.281614" lon="-5.734732">
        <ele>474.162</ele>
      </trkpt>
      <trkpt lat="43.281587" lon="-5.734606">
        <ele>474.14</ele>
      </trkpt>
      <trkpt lat="43.281566" lon="-5.734128">
        <ele>474.107</ele>
      </trkpt>
      <trkpt lat="43.281481" lon="-5.733976">
        <ele>473.62</ele>
      </trkpt>
      <trkpt lat="43.281444" lon="-5.733833">
        <ele>472.6</ele>
      </trkpt>
      <trkpt lat="43.281401" lon="-5.733592">
        <ele>470.757</ele>
      </trkpt>
      <trkpt lat="43.281233" lon="-5.733093">
        <ele>468.853</ele>
      </trkpt>
      <trkpt lat="43.280901" lon="-5.732787">
        <ele>469.398</ele>
      </trkpt>
      <trkpt lat="43.280613" lon="-5.732648">
        <ele>468.87</ele>
      </trkpt>
      <trkpt lat="43.280494" lon="-5.732457">
        <ele>469.722</ele>
      </trkpt>
      <trkpt lat="43.280401" lon="-5.73215">
        <ele>471.787</ele>
      </trkpt>
      <trkpt lat="43.280283" lon="-5.732013">
        <ele>470.793</ele>
      </trkpt>
      <trkpt lat="43.28022" lon="-5.731938">
        <ele>469.771</ele>
      </trkpt>
      <trkpt lat="43.279804" lon="-5.731584">
        <ele>467.307</ele>
      </trkpt>
      <trkpt lat="43.279768" lon="-5.731569">
        <ele>467.313</ele>
      </trkpt>
      <trkpt lat="43.279633" lon="-5.731088">
        <ele>467.321</ele>
      </trkpt>
      <trkpt lat="43.279621" lon="-5.730763">
        <ele>467.861</ele>
      </trkpt>
      <trkpt lat="43.279617" lon="-5.730602">
        <ele>468.329</ele>
      </trkpt>
      <trkpt lat="43.279633" lon="-5.73022">
        <ele>468.844</ele>
      </trkpt>
      <trkpt lat="43.279506" lon="-5.729837">
        <ele>469.746</ele>
      </trkpt>
      <trkpt lat="43.279365" lon="-5.729537">
        <ele>471.238</ele>
      </trkpt>
      <trkpt lat="43.279122" lon="-5.729177">
        <ele>471.713</ele>
      </trkpt>
      <trkpt lat="43.27901" lon="-5.728843">
        <ele>472.149</ele>
      </trkpt>
      <trkpt lat="43.278939" lon="-5.728762">
        <ele>473.667</ele>
      </trkpt>
      <trkpt lat="43.278907" lon="-5.728728">
        <ele>474.107</ele>
      </trkpt>
      <trkpt lat="43.278891" lon="-5.728604">
        <ele>474.111</ele>
      </trkpt>
      <trkpt lat="43.279079" lon="-5.728384">
        <ele>473.647</ele>
      </trkpt>
      <trkpt lat="43.279407" lon="-5.728392">
        <ele>473.126</ele>
      </trkpt>
      <trkpt lat="43.279745" lon="-5.728493">
        <ele>473.115</ele>
      </trkpt>
      <trkpt lat="43.280006" lon="-5.728304">
        <ele>474.67</ele>
      </trkpt>
      <trkpt lat="43.280281" lon="-5.728068">
        <ele>475.092</ele>
      </trkpt>
      <trkpt lat="43.280571" lon="-5.727776">
        <ele>474.624</ele>
      </trkpt>
      <trkpt lat="43.280625" lon="-5.727549">
        <ele>474.169</ele>
      </trkpt>
      <trkpt lat="43.280533" lon="-5.727231">
        <ele>474.145</ele>
      </trkpt>
      <trkpt lat="43.280468" lon="-5.727094">
        <ele>473.663</ele>
      </trkpt>
      <trkpt lat="43.28037" lon="-5.726911">
        <ele>471.707</ele>
      </trkpt>
      <trkpt lat="43.280364" lon="-5.726774">
        <ele>470.726</ele>
      </trkpt>
      <trkpt lat="43.28033" lon="-5.72646">
        <ele>468.86</ele>
      </trkpt>
      <trkpt lat="43.280264" lon="-5.72624">
        <ele>467.886</ele>
      </trkpt>
      <trkpt lat="43.28027" lon="-5.726029">
        <ele>465.455</ele>
      </trkpt>
      <trkpt lat="43.280292" lon="-5.725965">
        <ele>464.93</ele>
      </trkpt>
      <trkpt lat="43.280426" lon="-5.725923">
        <ele>463.062</ele>
      </trkpt>
      <trkpt lat="43.28049" lon="-5.725945">
        <ele>461.674</ele>
      </trkpt>
      <trkpt lat="43.280521" lon="-5.725948">
        <ele>461.199</ele>
      </trkpt>
      <trkpt lat="43.280709" lon="-5.725991">
        <ele>458.715</ele>
      </trkpt>
      <trkpt lat="43.280837" lon="-5.726049">
        <ele>456.893</ele>
      </trkpt>
      <trkpt lat="43.280912" lon="-5.726051">
        <ele>455.807</ele>
      </trkpt>
      <trkpt lat="43.28104" lon="-5.726038">
        <ele>454.417</ele>
      </trkpt>
      <trkpt lat="43.281227" lon="-5.726057">
        <ele>452.961</ele>
      </trkpt>
      <trkpt lat="43.2816" lon="-5.726087">
        <ele>451.581</ele>
      </trkpt>
      <trkpt lat="43.281733" lon="-5.726093">
        <ele>451.548</ele>
      </trkpt>
      <trkpt lat="43.281965" lon="-5.726224">
        <ele>451.093</ele>
      </trkpt>
      <trkpt lat="43.282129" lon="-5.726224">
        <ele>450.055</ele>
      </trkpt>
      <trkpt lat="43.28232" lon="-5.726138">
        <ele>448.637</ele>
      </trkpt>
      <trkpt lat="43.282501" lon="-5.726029">
        <ele>447.292</ele>
      </trkpt>
      <trkpt lat="43.282753" lon="-5.72583">
        <ele>446.758</ele>
      </trkpt>
      <trkpt lat="43.282905" lon="-5.725659">
        <ele>445.216</ele>
      </trkpt>
      <trkpt lat="43.282919" lon="-5.725554">
        <ele>444.307</ele>
      </trkpt>
      <trkpt lat="43.282906" lon="-5.725483">
        <ele>443.819</ele>
      </trkpt>
      <trkpt lat="43.282903" lon="-5.725385">
        <ele>442.309</ele>
      </trkpt>
      <trkpt lat="43.282926" lon="-5.725118">
        <ele>439.919</ele>
      </trkpt>
      <trkpt lat="43.282999" lon="-5.724869">
        <ele>439.575</ele>
      </trkpt>
      <trkpt lat="43.283136" lon="-5.724783">
        <ele>440.96</ele>
      </trkpt>
      <trkpt lat="43.283209" lon="-5.724734">
        <ele>441.972</ele>
      </trkpt>
      <trkpt lat="43.283242" lon="-5.724719">
        <ele>441.914</ele>
      </trkpt>
      <trkpt lat="43.283489" lon="-5.724636">
        <ele>441.949</ele>
      </trkpt>
      <trkpt lat="43.28367" lon="-5.72448">
        <ele>438.535</ele>
      </trkpt>
      <trkpt lat="43.283959" lon="-5.724425">
        <ele>437.553</ele>
      </trkpt>
      <trkpt lat="43.284071" lon="-5.724388">
        <ele>439.007</ele>
      </trkpt>
      <trkpt lat="43.284282" lon="-5.724221">
        <ele>439.917</ele>
      </trkpt>
      <trkpt lat="43.284477" lon="-5.724019">
        <ele>439.961</ele>
      </trkpt>
      <trkpt lat="43.28452" lon="-5.723902">
        <ele>441.481</ele>
      </trkpt>
      <trkpt lat="43.284365" lon="-5.723909">
        <ele>443.865</ele>
      </trkpt>
      <trkpt lat="43.284193" lon="-5.723919">
        <ele>446.75</ele>
      </trkpt>
      <trkpt lat="43.283999" lon="-5.723918">
        <ele>450.552</ele>
      </trkpt>
      <trkpt lat="43.283632" lon="-5.723908">
        <ele>455.354</ele>
      </trkpt>
      <trkpt lat="43.283507" lon="-5.723876">
        <ele>458.789</ele>
      </trkpt>
      <trkpt lat="43.283365" lon="-5.723743">
        <ele>463.085</ele>
      </trkpt>
      <trkpt lat="43.283288" lon="-5.723567">
        <ele>466.933</ele>
      </trkpt>
      <trkpt lat="43.283178" lon="-5.7233">
        <ele>471.207</ele>
      </trkpt>
      <trkpt lat="43.283102" lon="-5.723158">
        <ele>473.617</ele>
      </trkpt>
      <trkpt lat="43.282955" lon="-5.723005">
        <ele>477.425</ele>
      </trkpt>
      <trkpt lat="43.282788" lon="-5.723042">
        <ele>480.383</ele>
      </trkpt>
      <trkpt lat="43.282583" lon="-5.723097">
        <ele>481.873</ele>
      </trkpt>
      <trkpt lat="43.282461" lon="-5.723049">
        <ele>482.238</ele>
      </trkpt>
      <trkpt lat="43.282237" lon="-5.722873">
        <ele>484.23</ele>
      </trkpt>
      <trkpt lat="43.282193" lon="-5.722703">
        <ele>484.222</ele>
      </trkpt>
      <trkpt lat="43.282073" lon="-5.722246">
        <ele>483.227</ele>
      </trkpt>
      <trkpt lat="43.281996" lon="-5.721989">
        <ele>482.783</ele>
      </trkpt>
      <trkpt lat="43.281975" lon="-5.721946">
        <ele>482.751</ele>
      </trkpt>
      <trkpt lat="43.281721" lon="-5.721703">
        <ele>479.807</ele>
      </trkpt>
      <trkpt lat="43.281602" lon="-5.721583">
        <ele>477.919</ele>
      </trkpt>
      <trkpt lat="43.281364" lon="-5.721323">
        <ele>474.681</ele>
      </trkpt>
      <trkpt lat="43.281182" lon="-5.720974">
        <ele>476.067</ele>
      </trkpt>
      <trkpt lat="43.281097" lon="-5.720543">
        <ele>481.395</ele>
      </trkpt>
      <trkpt lat="43.28107" lon="-5.720411">
        <ele>482.28</ele>
      </trkpt>
      <trkpt lat="43.280894" lon="-5.719983">
        <ele>487.522</ele>
      </trkpt>
      <trkpt lat="43.280764" lon="-5.719843">
        <ele>491.414</ele>
      </trkpt>
      <trkpt lat="43.280703" lon="-5.719788">
        <ele>492.819</ele>
      </trkpt>
      <trkpt lat="43.280551" lon="-5.719862">
        <ele>496.775</ele>
      </trkpt>
      <trkpt lat="43.280553" lon="-5.719941">
        <ele>497.683</ele>
      </trkpt>
      <trkpt lat="43.280572" lon="-5.720242">
        <ele>500.507</ele>
      </trkpt>
      <trkpt lat="43.280585" lon="-5.720779">
        <ele>504.826</ele>
      </trkpt>
      <trkpt lat="43.280571" lon="-5.720919">
        <ele>506.306</ele>
      </trkpt>
      <trkpt lat="43.280526" lon="-5.721042">
        <ele>507.789</ele>
      </trkpt>
      <trkpt lat="43.280423" lon="-5.721001">
        <ele>512.051</ele>
      </trkpt>
      <trkpt lat="43.280359" lon="-5.720964">
        <ele>514.986</ele>
      </trkpt>
      <trkpt lat="43.280277" lon="-5.720882">
        <ele>518.368</ele>
      </trkpt>
      <trkpt lat="43.280168" lon="-5.720564">
        <ele>519.73</ele>
      </trkpt>
      <trkpt lat="43.279848" lon="-5.720152">
        <ele>521.735</ele>
      </trkpt>
      <trkpt lat="43.279483" lon="-5.720093">
        <ele>526.051</ele>
      </trkpt>
      <trkpt lat="43.279304" lon="-5.720154">
        <ele>528.949</ele>
      </trkpt>
      <trkpt lat="43.279137" lon="-5.720226">
        <ele>532.207</ele>
      </trkpt>
      <trkpt lat="43.278971" lon="-5.720294">
        <ele>535.121</ele>
      </trkpt>
      <trkpt lat="43.278717" lon="-5.720389">
        <ele>539.429</ele>
      </trkpt>
      <trkpt lat="43.278396" lon="-5.720652">
        <ele>544.247</ele>
      </trkpt>
      <trkpt lat="43.278256" lon="-5.720724">
        <ele>545.743</ele>
      </trkpt>
      <trkpt lat="43.277906" lon="-5.720931">
        <ele>551.028</ele>
      </trkpt>
      <trkpt lat="43.277844" lon="-5.720973">
        <ele>552.41</ele>
      </trkpt>
      <trkpt lat="43.277557" lon="-5.720997">
        <ele>558.722</ele>
      </trkpt>
      <trkpt lat="43.277275" lon="-5.720832">
        <ele>562.547</ele>
      </trkpt>
      <trkpt lat="43.277188" lon="-5.720824">
        <ele>563.553</ele>
      </trkpt>
      <trkpt lat="43.276763" lon="-5.72078">
        <ele>564.931</ele>
      </trkpt>
      <trkpt lat="43.276437" lon="-5.720759">
        <ele>565.407</ele>
      </trkpt>
      <trkpt lat="43.276253" lon="-5.720617">
        <ele>565.911</ele>
      </trkpt>
      <trkpt lat="43.2762" lon="-5.720572">
        <ele>565.983</ele>
      </trkpt>
      <trkpt lat="43.276188" lon="-5.720555">
        <ele>565.462</ele>
      </trkpt>
      <trkpt lat="43.27617" lon="-5.720536">
        <ele>565.418</ele>
      </trkpt>
      <trkpt lat="43.276165" lon="-5.720537">
        <ele>565.483</ele>
      </trkpt>
      <trkpt lat="43.276162" lon="-5.720547">
        <ele>565.455</ele>
      </trkpt>
      <trkpt lat="43.276162" lon="-5.72055">
        <ele>565.427</ele>
      </trkpt>
      <trkpt lat="43.276167" lon="-5.720545">
        <ele>565.442</ele>
      </trkpt>
      <trkpt lat="43.276162" lon="-5.720546">
        <ele>565.458</ele>
      </trkpt>
      <trkpt lat="43.276152" lon="-5.720534">
        <ele>565.436</ele>
      </trkpt>
      <trkpt lat="43.276146" lon="-5.72054">
        <ele>565.407</ele>
      </trkpt>
      <trkpt lat="43.276177" lon="-5.720537">
        <ele>565.413</ele>
      </trkpt>
      <trkpt lat="43.276272" lon="-5.720641">
        <ele>566.476</ele>
      </trkpt>
      <trkpt lat="43.276238" lon="-5.720603">
        <ele>566.416</ele>
      </trkpt>
      <trkpt lat="43.276188" lon="-5.720566">
        <ele>565.951</ele>
      </trkpt>
      <trkpt lat="43.276186" lon="-5.720555">
        <ele>565.966</ele>
      </trkpt>
      <trkpt lat="43.276268" lon="-5.720615">
        <ele>566.468</ele>
      </trkpt>
      <trkpt lat="43.276187" lon="-5.72056">
        <ele>565.97</ele>
      </trkpt>
      <trkpt lat="43.276205" lon="-5.720531">
        <ele>565.995</ele>
      </trkpt>
      <trkpt lat="43.276231" lon="-5.720549">
        <ele>565.931</ele>
      </trkpt>
      <trkpt lat="43.27626" lon="-5.720582">
        <ele>566.459</ele>
      </trkpt>
      <trkpt lat="43.276241" lon="-5.72063">
        <ele>566.407</ele>
      </trkpt>
      <trkpt lat="43.276157" lon="-5.720519">
        <ele>565.91</ele>
      </trkpt>
      <trkpt lat="43.276143" lon="-5.720532">
        <ele>565.964</ele>
      </trkpt>
      <trkpt lat="43.276188" lon="-5.72058">
        <ele>566.443</ele>
      </trkpt>
      <trkpt lat="43.276208" lon="-5.720582">
        <ele>566.449</ele>
      </trkpt>
      <trkpt lat="43.276203" lon="-5.720559">
        <ele>566.454</ele>
      </trkpt>
      <trkpt lat="43.276183" lon="-5.720534">
        <ele>565.916</ele>
      </trkpt>
      <trkpt lat="43.276161" lon="-5.720518">
        <ele>565.928</ele>
      </trkpt>
      <trkpt lat="43.276144" lon="-5.720513">
        <ele>565.943</ele>
      </trkpt>
      <trkpt lat="43.276156" lon="-5.720536">
        <ele>565.999</ele>
      </trkpt>
      <trkpt lat="43.276206" lon="-5.720535">
        <ele>566.447</ele>
      </trkpt>
      <trkpt lat="43.276216" lon="-5.720542">
        <ele>566.407</ele>
      </trkpt>
      <trkpt lat="43.276156" lon="-5.720505">
        <ele>565.914</ele>
      </trkpt>
      <trkpt lat="43.276137" lon="-5.720511">
        <ele>565.904</ele>
      </trkpt>
      <trkpt lat="43.276126" lon="-5.720512">
        <ele>565.924</ele>
      </trkpt>
      <trkpt lat="43.276125" lon="-5.720514">
        <ele>565.968</ele>
      </trkpt>
      <trkpt lat="43.276118" lon="-5.72051">
        <ele>565.913</ele>
      </trkpt>
      <trkpt lat="43.276118" lon="-5.720512">
        <ele>565.995</ele>
      </trkpt>
      <trkpt lat="43.276119" lon="-5.72051">
        <ele>565.947</ele>
      </trkpt>
      <trkpt lat="43.276115" lon="-5.720504">
        <ele>565.912</ele>
      </trkpt>
      <trkpt lat="43.276115" lon="-5.720509">
        <ele>565.968</ele>
      </trkpt>
      <trkpt lat="43.276113" lon="-5.720517">
        <ele>565.946</ele>
      </trkpt>
      <trkpt lat="43.276114" lon="-5.720526">
        <ele>565.907</ele>
      </trkpt>
      <trkpt lat="43.276117" lon="-5.720525">
        <ele>566.413</ele>
      </trkpt>
      <trkpt lat="43.276124" lon="-5.720527">
        <ele>566.476</ele>
      </trkpt>
      <trkpt lat="43.276117" lon="-5.720528">
        <ele>566.416</ele>
      </trkpt>
      <trkpt lat="43.276115" lon="-5.720528">
        <ele>566.466</ele>
      </trkpt>
      <trkpt lat="43.276115" lon="-5.720527">
        <ele>566.811</ele>
      </trkpt>
      <trkpt lat="43.276111" lon="-5.720522">
        <ele>566.853</ele>
      </trkpt>
      <trkpt lat="43.27611" lon="-5.720525">
        <ele>566.885</ele>
      </trkpt>
      <trkpt lat="43.276106" lon="-5.720522">
        <ele>566.88</ele>
      </trkpt>
      <trkpt lat="43.276106" lon="-5.720525">
        <ele>566.866</ele>
      </trkpt>
      <trkpt lat="43.276107" lon="-5.720522">
        <ele>566.854</ele>
      </trkpt>
      <trkpt lat="43.276114" lon="-5.720523">
        <ele>566.807</ele>
      </trkpt>
      <trkpt lat="43.276119" lon="-5.720525">
        <ele>566.822</ele>
      </trkpt>
      <trkpt lat="43.27612" lon="-5.720524">
        <ele>566.857</ele>
      </trkpt>
      <trkpt lat="43.276123" lon="-5.720533">
        <ele>566.894</ele>
      </trkpt>
      <trkpt lat="43.27612" lon="-5.720543">
        <ele>566.839</ele>
      </trkpt>
      <trkpt lat="43.27611" lon="-5.720554">
        <ele>567.324</ele>
      </trkpt>
      <trkpt lat="43.27611" lon="-5.720554">
        <ele>567.356</ele>
      </trkpt>
      <trkpt lat="43.276111" lon="-5.720566">
        <ele>567.348</ele>
      </trkpt>
      <trkpt lat="43.276113" lon="-5.720568">
        <ele>567.323</ele>
      </trkpt>
      <trkpt lat="43.276115" lon="-5.720565">
        <ele>567.349</ele>
      </trkpt>
      <trkpt lat="43.276116" lon="-5.720565">
        <ele>567.367</ele>
      </trkpt>
      <trkpt lat="43.276119" lon="-5.720569">
        <ele>567.307</ele>
      </trkpt>
      <trkpt lat="43.276123" lon="-5.720575">
        <ele>567.808</ele>
      </trkpt>
      <trkpt lat="43.276133" lon="-5.720592">
        <ele>567.862</ele>
      </trkpt>
      <trkpt lat="43.276139" lon="-5.720616">
        <ele>568.322</ele>
      </trkpt>
      <trkpt lat="43.276142" lon="-5.720631">
        <ele>568.374</ele>
      </trkpt>
      <trkpt lat="43.276127" lon="-5.720639">
        <ele>568.339</ele>
      </trkpt>
      <trkpt lat="43.276144" lon="-5.720632">
        <ele>568.341</ele>
      </trkpt>
      <trkpt lat="43.276153" lon="-5.72064">
        <ele>568.313</ele>
      </trkpt>
      <trkpt lat="43.276153" lon="-5.720638">
        <ele>568.368</ele>
      </trkpt>
      <trkpt lat="43.276148" lon="-5.72063">
        <ele>568.334</ele>
      </trkpt>
      <trkpt lat="43.276142" lon="-5.720633">
        <ele>568.382</ele>
      </trkpt>
      <trkpt lat="43.276148" lon="-5.72064">
        <ele>568.307</ele>
      </trkpt>
      <trkpt lat="43.276151" lon="-5.720641">
        <ele>568.325</ele>
      </trkpt>
      <trkpt lat="43.276154" lon="-5.720641">
        <ele>568.805</ele>
      </trkpt>
      <trkpt lat="43.276153" lon="-5.720642">
        <ele>569.279</ele>
      </trkpt>
      <trkpt lat="43.27614" lon="-5.72064">
        <ele>568.829</ele>
      </trkpt>
      <trkpt lat="43.276147" lon="-5.720634">
        <ele>568.824</ele>
      </trkpt>
      <trkpt lat="43.276146" lon="-5.720652">
        <ele>568.846</ele>
      </trkpt>
      <trkpt lat="43.276154" lon="-5.720618">
        <ele>568.818</ele>
      </trkpt>
      <trkpt lat="43.276111" lon="-5.720542">
        <ele>567.323</ele>
      </trkpt>
      <trkpt lat="43.276105" lon="-5.720511">
        <ele>567.329</ele>
      </trkpt>
      <trkpt lat="43.27609" lon="-5.720487">
        <ele>566.817</ele>
      </trkpt>
      <trkpt lat="43.275949" lon="-5.720255">
        <ele>564.007</ele>
      </trkpt>
      <trkpt lat="43.275794" lon="-5.719969">
        <ele>560.617</ele>
      </trkpt>
      <trkpt lat="43.275776" lon="-5.71986">
        <ele>559.689</ele>
      </trkpt>
      <trkpt lat="43.275778" lon="-5.719776">
        <ele>558.228</ele>
      </trkpt>
      <trkpt lat="43.275714" lon="-5.719531">
        <ele>556.371</ele>
      </trkpt>
      <trkpt lat="43.275682" lon="-5.719137">
        <ele>555.856</ele>
      </trkpt>
      <trkpt lat="43.27579" lon="-5.718799">
        <ele>556.728</ele>
      </trkpt>
      <trkpt lat="43.275857" lon="-5.718651">
        <ele>556.36</ele>
      </trkpt>
      <trkpt lat="43.275905" lon="-5.71857">
        <ele>555.335</ele>
      </trkpt>
      <trkpt lat="43.276002" lon="-5.718406">
        <ele>552.931</ele>
      </trkpt>
      <trkpt lat="43.276077" lon="-5.718266">
        <ele>551.029</ele>
      </trkpt>
    </trkseg>
  </trk>
</gpx>
